Darstellungsparameter: Aktuell verwendete Einstellungen:
Skalierung der Graphiken ... ?
xyx+y,   Skalierungsfaktor:      Skalierung: Modus: x, Faktor: 1
Darstellungszeitraum ... ?
Vom - - bis: - -   Zeitraum: 09.09.2008 - 08.09.2013
Min/Max/Avg-Anzeige ... ?
Zeige MMA aktuell
Zeige MMA Monat
Zeige MMA alles
Zeige --A aktuell
Zeige --A Monat
Zeige --A alles
Keine MMA-Anzeige
MMA:
Average (ber die Originaldaten)
MMA-Basis: 09.09.2008 - 08.09.2013
Quicknavigation für Darstellung... ?
Tage:      1T, 2T, 3T, 5T -1T -2T -3T -5T +1T +2T +3T +5T
Wochen: 1W, 2W, 3W -1W -2W -3W +1W +2W +3W
Monate: 1M, 3M, 6M -1M -3M -6M +1M +3M +6M
Jahre:    1J, 3J, 5J, 10J -1J -3J -5J -10J +1J +3J +5J +10J
Nutze für die Darstellung ... ?
Originaldaten oder ...
Mittelwerte Minima Maxima auf...
Stundenbasis Tagesbasis Wochenbasis
Monatsbasis Jahresbasis      Datenbasis: Mittelwerte auf Tagesbasis
Darstellen als:
Statistik (Auto) Statistik J:M      Darstellung:
Zur Graphik,    zurück zur Übersicht aller Sensoren.
 
Tabellarische Datenbersicht: ?
 
Sensor: Nr:Datum:Temp:Abs-Feuchte:Windchill:Wind:
Aussen-T/F 1 09-09-2008 00:00:00 18.12014 C 9.04 g/m*3 18.12 C 0 km/h
2 10-09-2008 00:00:00 21.10243 C 10.72 g/m*3 21.1 C 0 km/h
3 11-09-2008 00:00:00 19.94479 C 12.52 g/m*3 19.94 C 0 km/h
4 12-09-2008 00:00:00 16.69236 C 12.91 g/m*3 16.69 C 0 km/h
5 13-09-2008 00:00:00 12.63937 C 10.07 g/m*3 12.64 C 0 km/h
6 14-09-2008 00:00:00 11.66215 C 6.19 g/m*3 11.66 C 0 km/h
7 15-09-2008 00:00:00 10.27153 C 7.08 g/m*3 10.27 C 0 km/h
8 16-09-2008 00:00:00 11.32014 C 7.11 g/m*3 11.32 C 0 km/h
9 17-09-2008 00:00:00 11.34948 C 5.77 g/m*3 11.35 C 0 km/h
10 18-09-2008 00:00:00 10.63264 C 5.3 g/m*3 10.63 C 0 km/h
11 19-09-2008 00:00:00 10.48333 C 6.14 g/m*3 10.48 C 0 km/h
12 20-09-2008 00:00:00 11.00556 C 6.26 g/m*3 11.01 C 0 km/h
13 21-09-2008 00:00:00 11.67222 C 6.89 g/m*3 11.67 C 0 km/h
14 22-09-2008 00:00:00 12.57108 C 7.54 g/m*3 12.57 C 0 km/h
15 23-09-2008 00:00:00 12.21111 C 8.35 g/m*3 12.21 C 0 km/h
16 24-09-2008 00:00:00 13.30799 C 9.32 g/m*3 13.31 C 0 km/h
17 25-09-2008 00:00:00 12.56736 C 7.77 g/m*3 12.57 C 0 km/h
18 26-09-2008 00:00:00 12.00521 C 7.09 g/m*3 12.01 C 0 km/h
19 27-09-2008 00:00:00 11.93693 C 7.15 g/m*3 11.94 C 0 km/h
20 28-09-2008 00:00:00 11.96493 C 7.21 g/m*3 11.96 C 0 km/h
21 29-09-2008 00:00:00 11.47396 C 7.33 g/m*3 11.47 C 0 km/h
22 30-09-2008 00:00:00 10.38611 C 7.67 g/m*3 10.39 C 0 km/h
23 01-10-2008 00:00:00 13.07222 C 8.43 g/m*3 13.07 C 0 km/h
24 02-10-2008 00:00:00 10.70244 C 6.41 g/m*3 10.7 C 0 km/h
25 03-10-2008 00:00:00 8.94063 C 6.04 g/m*3 8.94 C 0 km/h
Sensor: Nr:Datum:Temp:Abs-Feuchte:Windchill:Wind:
Aussen-T/F 26 04-10-2008 00:00:00 9.76632 C 5.66 g/m*3 9.77 C 0 km/h
27 05-10-2008 00:00:00 11.69062 C 6.1 g/m*3 11.69 C 0 km/h
28 06-10-2008 00:00:00 14.79306 C 10.16 g/m*3 14.79 C 0 km/h
29 07-10-2008 00:00:00 15.17875 C 10.24 g/m*3 15.18 C 0 km/h
30 08-10-2008 00:00:00 13.26389 C 10.6 g/m*3 13.26 C 0 km/h
31 09-10-2008 00:00:00 13.20937 C 8.82 g/m*3 13.21 C 0 km/h
32 10-10-2008 00:00:00 13.01806 C 8.66 g/m*3 13.02 C 0 km/h
33 11-10-2008 00:00:00 13.2125 C 9 g/m*3 13.21 C 0 km/h
34 12-10-2008 00:00:00 15.40729 C 9.68 g/m*3 15.41 C 0 km/h
35 13-10-2008 00:00:00 14.40976 C 9.47 g/m*3 14.41 C 0 km/h
36 14-10-2008 00:00:00 15.63438 C 9.35 g/m*3 15.63 C 0 km/h
37 15-10-2008 00:00:00 13.57361 C 8.88 g/m*3 13.57 C 0 km/h
38 16-10-2008 00:00:00 11.59444 C 8.43 g/m*3 11.59 C 0 km/h
39 17-10-2008 00:00:00 8.00313 C 6.15 g/m*3 8 C 0 km/h
40 18-10-2008 00:00:00 7.10488 C 5.92 g/m*3 7.1 C 0 km/h
41 19-10-2008 00:00:00 8.10521 C 6.25 g/m*3 8.11 C 0 km/h
42 20-10-2008 00:00:00 9.83646 C 7.21 g/m*3 9.84 C 0 km/h
43 21-10-2008 00:00:00 13.12986 C 9.32 g/m*3 13.13 C 0 km/h
44 22-10-2008 00:00:00 9.36528 C 7.49 g/m*3 9.37 C 0 km/h
45 23-10-2008 00:00:00 9.2115 C 6.5 g/m*3 9.21 C 0 km/h
46 24-10-2008 00:00:00 7.4434 C 6.07 g/m*3 7.44 C 0 km/h
47 25-10-2008 00:00:00 10.48151 C 7.39 g/m*3 10.48 C 0 km/h
48 26-10-2008 00:00:00 10.725 C 6.55 g/m*3 10.73 C 0 km/h
49 27-10-2008 00:00:00 10.21724 C 7.98 g/m*3 10.22 C 0 km/h
50 28-10-2008 00:00:00 6.92456 C 6.29 g/m*3 6.92 C 0 km/h
Sensor: Nr:Datum:Temp:Abs-Feuchte:Windchill:Wind:
Aussen-T/F 51 29-10-2008 00:00:00 5.45 C 5.63 g/m*3 5.45 C 0 km/h
52 30-10-2008 00:00:00 4.78947 C 6 g/m*3 4.79 C 0 km/h
53 31-10-2008 00:00:00 5.97414 C 6.34 g/m*3 5.97 C 0 km/h
54 01-11-2008 00:00:00 7.97414 C 7.15 g/m*3 7.97 C 0 km/h
55 02-11-2008 00:00:00 9.98772 C 7.86 g/m*3 9.99 C 0 km/h
56 03-11-2008 00:00:00 9.82241 C 7.83 g/m*3 9.82 C 0 km/h
57 04-11-2008 00:00:00 9.00351 C 7.82 g/m*3 9 C 0 km/h
58 05-11-2008 00:00:00 9.79828 C 7.68 g/m*3 9.8 C 0 km/h
59 06-11-2008 00:00:00 10.54483 C 7.37 g/m*3 10.54 C 0 km/h
60 07-11-2008 00:00:00 10.79123 C 7.22 g/m*3 10.79 C 0 km/h
61 08-11-2008 00:00:00 8.24828 C 6.77 g/m*3 8.25 C 0 km/h
62 09-11-2008 00:00:00 8.89583 C 7.31 g/m*3 8.9 C 0 km/h
63 10-11-2008 00:00:00 13.98833 C 7.91 g/m*3 13.99 C 0 km/h
64 11-11-2008 00:00:00 12.73917 C 6.46 g/m*3 12.74 C 0 km/h
65 12-11-2008 00:00:00 8.5175 C 6.56 g/m*3 8.52 C 0 km/h
66 13-11-2008 00:00:00 6.40667 C 6.06 g/m*3 6.41 C 0 km/h
67 14-11-2008 00:00:00 5.60833 C 5.47 g/m*3 5.61 C 0 km/h
68 15-11-2008 00:00:00 9.82083 C 7.04 g/m*3 9.82 C 0 km/h
69 16-11-2008 00:00:00 9.9375 C 7.83 g/m*3 9.94 C 0 km/h
70 17-11-2008 00:00:00 4.03167 C 5.46 g/m*3 4.03 C 0 km/h
71 18-11-2008 00:00:00 4.76417 C 5.59 g/m*3 4.76 C 0 km/h
72 19-11-2008 00:00:00 7.7775 C 6.09 g/m*3 7.78 C 0 km/h
73 20-11-2008 00:00:00 9.54 C 6.58 g/m*3 9.54 C 0 km/h
74 21-11-2008 00:00:00 5.21083 C 5.22 g/m*3 5.21 C 0 km/h
75 22-11-2008 00:00:00 1.08571 C 3.81 g/m*3 1.09 C 0 km/h
Sensor: Nr:Datum:Temp:Abs-Feuchte:Windchill:Wind:
Aussen-T/F 76 23-11-2008 00:00:00 0.81333 C 4.11 g/m*3 0.81 C 0 km/h
77 24-11-2008 00:00:00 1.92667 C 4.67 g/m*3 1.93 C 0 km/h
78 25-11-2008 00:00:00 0.79667 C 4.51 g/m*3 0.8 C 0 km/h
79 26-11-2008 00:00:00 2.38333 C 4.91 g/m*3 2.38 C 0 km/h
80 27-11-2008 00:00:00 3.435 C 4.58 g/m*3 3.44 C 0 km/h
81 28-11-2008 00:00:00 0.47667 C 3.78 g/m*3 0.48 C 0 km/h
82 29-11-2008 00:00:00 0.98 C 4.13 g/m*3 0.98 C 0 km/h
83 30-11-2008 00:00:00 1.12 C 4.72 g/m*3 1.12 C 0 km/h
84 01-12-2008 00:00:00 0.30417 C 4.54 g/m*3 0.3 C 0 km/h
85 02-12-2008 00:00:00 2.80917 C 4.97 g/m*3 2.81 C 0 km/h
86 03-12-2008 00:00:00 1.785 C 4.91 g/m*3 1.79 C 0 km/h
87 04-12-2008 00:00:00 1.92353 C 5.05 g/m*3 1.92 C 0 km/h
88 05-12-2008 00:00:00 5.36 C 6.01 g/m*3 5.36 C 0 km/h
89 06-12-2008 00:00:00 4.73 C 5.89 g/m*3 4.73 C 0 km/h
90 07-12-2008 00:00:00 3.85333 C 5.78 g/m*3 3.85 C 0 km/h
91 08-12-2008 00:00:00 0.26917 C 4.58 g/m*3 0.27 C 0 km/h
92 09-12-2008 00:00:00 0.56667 C 4.36 g/m*3 0.57 C 0 km/h
93 10-12-2008 00:00:00 1.97667 C 5.17 g/m*3 1.98 C 0 km/h
94 11-12-2008 00:00:00 1.4775 C 4.54 g/m*3 1.48 C 0 km/h
95 12-12-2008 00:00:00 -0.23583 C 3.8 g/m*3 -0.24 C 0 km/h
96 13-12-2008 00:00:00 -0.26167 C 3.56 g/m*3 -0.26 C 0 km/h
97 14-12-2008 00:00:00 0.28083 C 4.24 g/m*3 0.28 C 0 km/h
98 15-12-2008 00:00:00 -0.1075 C 4.53 g/m*3 -0.11 C 0 km/h
99 16-12-2008 00:00:00 0.42521 C 4.59 g/m*3 0.43 C 0 km/h
100 17-12-2008 00:00:00 -0.0375 C 4.31 g/m*3 -0.04 C 0 km/h
Sensor: Nr:Datum:Temp:Abs-Feuchte:Windchill:Wind:
Aussen-T/F 101 18-12-2008 00:00:00 2.15083 C 5.01 g/m*3 2.15 C 0 km/h
102 19-12-2008 00:00:00 4.22333 C 5.23 g/m*3 4.22 C 0 km/h
103 20-12-2008 00:00:00 6.45667 C 6.48 g/m*3 6.46 C 0 km/h
104 21-12-2008 00:00:00 7.94917 C 6.81 g/m*3 7.95 C 0 km/h
105 22-12-2008 00:00:00 8.47167 C 6.7 g/m*3 8.47 C 0 km/h
106 23-12-2008 00:00:00 6.21417 C 5.86 g/m*3 6.21 C 0 km/h
107 24-12-2008 00:00:00 4.55833 C 5.62 g/m*3 4.56 C 0 km/h
108 25-12-2008 00:00:00 4.40252 C 4.56 g/m*3 4.4 C 0 km/h
109 26-12-2008 00:00:00 -1.1875 C 2.6 g/m*3 -1.19 C 0 km/h
110 27-12-2008 00:00:00 -1.85667 C 2.56 g/m*3 -1.86 C 0 km/h
111 28-12-2008 00:00:00 -3.02917 C 2.53 g/m*3 -3.03 C 0 km/h
112 29-12-2008 00:00:00 -5.49833 C 2.6 g/m*3 -5.5 C 0 km/h
113 30-12-2008 00:00:00 -6.21833 C 2.53 g/m*3 -6.22 C 0 km/h
114 31-12-2008 00:00:00 -4.32583 C 2.92 g/m*3 -4.33 C 0 km/h
115 01-01-2009 00:00:00 -3.46417 C 2.96 g/m*3 -3.46 C 0 km/h
116 02-01-2009 00:00:00 -2.03917 C 3.39 g/m*3 -2.04 C 0 km/h
117 03-01-2009 00:00:00 -3.57 C 2.96 g/m*3 -3.57 C 0 km/h
118 04-01-2009 00:00:00 -1.06833 C 2.96 g/m*3 -1.07 C 0 km/h
119 05-01-2009 00:00:00 -1.23866 C 3.28 g/m*3 -1.24 C 0 km/h
120 06-01-2009 00:00:00 -6.97 C 1.26 g/m*3 -6.97 C 0 km/h
121 07-01-2009 00:00:00 -10.99167 C 1.39 g/m*3 -10.99 C 0 km/h
122 08-01-2009 00:00:00 -6.02083 C 2.27 g/m*3 -6.02 C 0 km/h
123 09-01-2009 00:00:00 -11.165 C 1.54 g/m*3 -11.17 C 0 km/h
124 10-01-2009 00:00:00 -11.3175 C 1.53 g/m*3 -11.32 C 0 km/h
125 11-01-2009 00:00:00 -8.9975 C 1.92 g/m*3 -9 C 0 km/h
Sensor: Nr:Datum:Temp:Abs-Feuchte:Windchill:Wind:
Aussen-T/F 126 12-01-2009 00:00:00 -7.30417 C 2.15 g/m*3 -7.3 C 0 km/h
127 13-01-2009 00:00:00 -0.17833 C 3.29 g/m*3 -0.18 C 0 km/h
128 14-01-2009 00:00:00 -0.15917 C 4.05 g/m*3 -0.16 C 0 km/h
129 15-01-2009 00:00:00 0.77417 C 4.28 g/m*3 0.77 C 0 km/h
130 16-01-2009 00:00:00 0.69833 C 3.9 g/m*3 0.7 C 0 km/h
131 17-01-2009 00:00:00 2.97833 C 4.9 g/m*3 2.98 C 0 km/h
132 18-01-2009 00:00:00 4.50924 C 5.1 g/m*3 4.51 C 0 km/h
133 19-01-2009 00:00:00 5.4575 C 5.21 g/m*3 5.46 C 0 km/h
134 20-01-2009 00:00:00 3.6475 C 4.19 g/m*3 3.65 C 0 km/h
135 21-01-2009 00:00:00 0.32 C 4.11 g/m*3 0.32 C 0 km/h
136 22-01-2009 00:00:00 2.825 C 4.02 g/m*3 2.83 C 0 km/h
137 23-01-2009 00:00:00 4.345 C 5.29 g/m*3 4.35 C 0 km/h
138 24-01-2009 00:00:00 3.13 C 4.29 g/m*3 3.13 C 0 km/h
139 25-01-2009 00:00:00 0.15167 C 4.08 g/m*3 0.15 C 0 km/h
140 26-01-2009 00:00:00 -2.16917 C 3.69 g/m*3 -2.17 C 0 km/h
141 27-01-2009 00:00:00 -0.93167 C 3.93 g/m*3 -0.93 C 0 km/h
142 28-01-2009 00:00:00 0.50833 C 4.02 g/m*3 0.51 C 0 km/h
143 29-01-2009 00:00:00 1.15667 C 3.12 g/m*3 1.16 C 0 km/h
144 30-01-2009 00:00:00 -1.50917 C 3.06 g/m*3 -1.51 C 0 km/h
145 31-01-2009 00:00:00 0.06303 C 2.59 g/m*3 0.06 C 0 km/h
146 01-02-2009 00:00:00 -0.11167 C 2.24 g/m*3 -0.11 C 0 km/h
147 02-02-2009 00:00:00 1.085 C 2.84 g/m*3 1.09 C 0 km/h
148 03-02-2009 00:00:00 0.63833 C 3.81 g/m*3 0.64 C 0 km/h
149 04-02-2009 00:00:00 3.0025 C 4.61 g/m*3 3 C 0 km/h
150 05-02-2009 00:00:00 3.2325 C 4.69 g/m*3 3.23 C 0 km/h
Sensor: Nr:Datum:Temp:Abs-Feuchte:Windchill:Wind:
Aussen-T/F 151 06-02-2009 00:00:00 4.3 C 5.03 g/m*3 4.3 C 0 km/h
152 07-02-2009 00:00:00 4.03417 C 5.27 g/m*3 4.03 C 0 km/h
153 08-02-2009 00:00:00 2.6525 C 3.3 g/m*3 2.65 C 0 km/h
154 09-02-2009 00:00:00 2.3775 C 3.79 g/m*3 2.38 C 0 km/h
155 10-02-2009 00:00:00 4.155 C 5.17 g/m*3 4.16 C 0 km/h
156 11-02-2009 00:00:00 2.90333 C 3.62 g/m*3 2.9 C 0 km/h
157 12-02-2009 00:00:00 0.68908 C 3.9 g/m*3 0.69 C 0 km/h
158 13-02-2009 00:00:00 0.51333 C 4.05 g/m*3 0.51 C 0 km/h
159 14-02-2009 00:00:00 0.46083 C 3.41 g/m*3 0.46 C 0 km/h
160 15-02-2009 00:00:00 -1.63583 C 2.82 g/m*3 -1.64 C 0 km/h
161 16-02-2009 00:00:00 1.96417 C 4.68 g/m*3 1.96 C 0 km/h
162 17-02-2009 00:00:00 3.77167 C 5.13 g/m*3 3.77 C 0 km/h
163 18-02-2009 00:00:00 -1.62667 C 2.39 g/m*3 -1.63 C 0 km/h
164 19-02-2009 00:00:00 1.01417 C 2.7 g/m*3 1.01 C 0 km/h
165 20-02-2009 00:00:00 3.41917 C 5.01 g/m*3 3.42 C 0 km/h
166 21-02-2009 00:00:00 4.72083 C 4.87 g/m*3 4.72 C 0 km/h
167 22-02-2009 00:00:00 5.24667 C 5.76 g/m*3 5.25 C 0 km/h
168 23-02-2009 00:00:00 5.50083 C 4.72 g/m*3 5.5 C 0 km/h
169 24-02-2009 00:00:00 4.8325 C 4.1 g/m*3 4.83 C 0 km/h
170 25-02-2009 00:00:00 3.34286 C 4 g/m*3 3.34 C 0 km/h
171 26-02-2009 00:00:00 6.7377 C 4.3 g/m*3 6.74 C 0 km/h
172 27-02-2009 00:00:00 7.10417 C 5.5 g/m*3 7.1 C 0 km/h
173 28-02-2009 00:00:00 10.0375 C 5.89 g/m*3 10.04 C 0 km/h
174 01-03-2009 00:00:00 9.95 C 5.76 g/m*3 9.95 C 0 km/h
175 02-03-2009 00:00:00 7.98 C 5.85 g/m*3 7.98 C 0 km/h
Sensor: Nr:Datum:Temp:Abs-Feuchte:Windchill:Wind:
Aussen-T/F 176 03-03-2009 00:00:00 5.05583 C 3.94 g/m*3 5.06 C 0 km/h
177 04-03-2009 00:00:00 7.27917 C 3.96 g/m*3 7.28 C 0 km/h
178 05-03-2009 00:00:00 4.42917 C 5.35 g/m*3 4.43 C 0 km/h
179 06-03-2009 00:00:00 3.82417 C 5.35 g/m*3 3.82 C 0 km/h
180 07-03-2009 00:00:00 5.72167 C 3.85 g/m*3 5.72 C 0 km/h
181 08-03-2009 00:00:00 7.50833 C 5.49 g/m*3 7.51 C 0 km/h
182 09-03-2009 00:00:00 5.1521 C 4.17 g/m*3 5.15 C 0 km/h
183 10-03-2009 00:00:00 5.4275 C 4.82 g/m*3 5.43 C 0 km/h
184 11-03-2009 00:00:00 5.60417 C 4.35 g/m*3 5.6 C 0 km/h
185 12-03-2009 00:00:00 5.67083 C 5.13 g/m*3 5.67 C 0 km/h
186 13-03-2009 00:00:00 8.68167 C 5.63 g/m*3 8.68 C 0 km/h
187 14-03-2009 00:00:00 8.925 C 5.68 g/m*3 8.93 C 0 km/h
188 15-03-2009 00:00:00 9.41667 C 4.91 g/m*3 9.42 C 0 km/h
189 16-03-2009 00:00:00 8.23417 C 5.83 g/m*3 8.23 C 0 km/h
190 17-03-2009 00:00:00 7.73833 C 5.15 g/m*3 7.74 C 0 km/h
191 18-03-2009 00:00:00 5.82417 C 3.93 g/m*3 5.82 C 0 km/h
192 19-03-2009 00:00:00 5.41917 C 3.04 g/m*3 5.42 C 0 km/h
193 20-03-2009 00:00:00 4.59917 C 2.69 g/m*3 4.6 C 0 km/h
194 21-03-2009 00:00:00 5.07 C 2.81 g/m*3 5.07 C 0 km/h
195 22-03-2009 00:00:00 5.16639 C 3.79 g/m*3 5.17 C 0 km/h
196 23-03-2009 00:00:00 7.82917 C 4.91 g/m*3 7.83 C 0 km/h
197 24-03-2009 00:00:00 3.67333 C 4.24 g/m*3 3.67 C 0 km/h
198 25-03-2009 00:00:00 3.18417 C 4.69 g/m*3 3.18 C 0 km/h
199 26-03-2009 00:00:00 6.40083 C 5.48 g/m*3 6.4 C 0 km/h
200 27-03-2009 00:00:00 7.28333 C 5.31 g/m*3 7.28 C 0 km/h
Sensor: Nr:Datum:Temp:Abs-Feuchte:Windchill:Wind:
Aussen-T/F 201 28-03-2009 00:00:00 6.97583 C 5.39 g/m*3 6.98 C 0 km/h
202 29-03-2009 00:00:00 6.18435 C 4.96 g/m*3 6.18 C 0 km/h
203 30-03-2009 00:00:00 6.41833 C 4.78 g/m*3 6.42 C 0 km/h
204 31-03-2009 00:00:00 8.3325 C 4.49 g/m*3 8.33 C 0 km/h
205 01-04-2009 00:00:00 10.89833 C 4.57 g/m*3 10.9 C 0 km/h
206 02-04-2009 00:00:00 15.335 C 5.18 g/m*3 15.34 C 0 km/h
207 03-04-2009 00:00:00 15.87143 C 6.71 g/m*3 15.87 C 0 km/h
208 04-04-2009 00:00:00 16.68333 C 7.32 g/m*3 16.68 C 0 km/h
209 05-04-2009 00:00:00 14.9675 C 6.93 g/m*3 14.97 C 0 km/h
210 06-04-2009 00:00:00 14.72833 C 6.98 g/m*3 14.73 C 0 km/h
211 07-04-2009 00:00:00 14.57333 C 7.41 g/m*3 14.57 C 0 km/h
212 08-04-2009 00:00:00 14.20167 C 6.07 g/m*3 14.2 C 0 km/h
213 09-04-2009 00:00:00 16.28067 C 7.49 g/m*3 16.28 C 0 km/h
214 10-04-2009 00:00:00 18.55372 C 7.45 g/m*3 18.55 C 0 km/h
215 11-04-2009 00:00:00 17.3525 C 7.29 g/m*3 17.35 C 0 km/h
216 12-04-2009 00:00:00 16.79 C 8.39 g/m*3 16.79 C 0 km/h
217 13-04-2009 00:00:00 15.65167 C 9.22 g/m*3 15.65 C 0 km/h
218 14-04-2009 00:00:00 16.16167 C 8.27 g/m*3 16.16 C 0 km/h
219 15-04-2009 00:00:00 16.94202 C 7.01 g/m*3 16.94 C 0 km/h
220 16-04-2009 00:00:00 14.94583 C 6.79 g/m*3 14.95 C 0 km/h
221 17-04-2009 00:00:00 10.0825 C 8.69 g/m*3 10.08 C 0 km/h
222 18-04-2009 00:00:00 9.84 C 8.53 g/m*3 9.84 C 0 km/h
223 19-04-2009 00:00:00 14.95667 C 7.61 g/m*3 14.96 C 0 km/h
224 20-04-2009 00:00:00 15.16917 C 7.23 g/m*3 15.17 C 0 km/h
225 21-04-2009 00:00:00 15.74583 C 6.35 g/m*3 15.75 C 0 km/h
Sensor: Nr:Datum:Temp:Abs-Feuchte:Windchill:Wind:
Aussen-T/F 226 22-04-2009 00:00:00 13.68833 C 5.48 g/m*3 13.69 C 0 km/h
227 23-04-2009 00:00:00 11.645 C 5.16 g/m*3 11.65 C 0 km/h
228 24-04-2009 00:00:00 14.11333 C 5.96 g/m*3 14.11 C 0 km/h
229 25-04-2009 00:00:00 14.64833 C 7.16 g/m*3 14.65 C 0 km/h
230 26-04-2009 00:00:00 18.35 C 8.19 g/m*3 18.35 C 0 km/h
231 27-04-2009 00:00:00 14.89496 C 7.27 g/m*3 14.89 C 0 km/h
232 28-04-2009 00:00:00 11.07833 C 8.01 g/m*3 11.08 C 0 km/h
233 29-04-2009 00:00:00 11.9025 C 7.14 g/m*3 11.9 C 0 km/h
234 30-04-2009 00:00:00 12.85833 C 7.53 g/m*3 12.86 C 0 km/h
235 01-05-2009 00:00:00 16.25583 C 8.09 g/m*3 16.26 C 0 km/h
236 02-05-2009 00:00:00 17.60167 C 7.7 g/m*3 17.6 C 0 km/h
237 03-05-2009 00:00:00 14.58333 C 7.12 g/m*3 14.58 C 0 km/h
238 04-05-2009 00:00:00 11.88333 C 4.53 g/m*3 11.88 C 0 km/h
239 05-05-2009 00:00:00 10.50917 C 6.68 g/m*3 10.51 C 0 km/h
240 06-05-2009 00:00:00 13.85625 C 7.25 g/m*3 13.86 C 0 km/h
241 07-05-2009 00:00:00 16.47708 C 7.43 g/m*3 16.48 C 0 km/h
242 08-05-2009 00:00:00 16.58021 C 8.46 g/m*3 16.58 C 0 km/h
243 09-05-2009 00:00:00 14.3875 C 8.01 g/m*3 14.39 C 0 km/h
244 10-05-2009 00:00:00 17.72083 C 9.72 g/m*3 17.72 C 0 km/h
245 11-05-2009 00:00:00 13.57188 C 11.06 g/m*3 13.57 C 0 km/h
246 12-05-2009 00:00:00 11.83333 C 9.17 g/m*3 11.83 C 0 km/h
247 13-05-2009 00:00:00 15.51771 C 8.96 g/m*3 15.52 C 0 km/h
248 14-05-2009 00:00:00 16.00104 C 9.44 g/m*3 16 C 0 km/h
249 15-05-2009 00:00:00 15.12255 C 10.34 g/m*3 15.12 C 0 km/h
250 16-05-2009 00:00:00 13.80333 C 7.38 g/m*3 13.8 C 0 km/h
Sensor: Nr:Datum:Temp:Abs-Feuchte:Windchill:Wind:
Aussen-T/F 251 17-05-2009 00:00:00 17.02083 C 7.92 g/m*3 17.02 C 0 km/h
252 18-05-2009 00:00:00 16.95083 C 6.63 g/m*3 16.95 C 0 km/h
253 19-05-2009 00:00:00 16.49333 C 7.85 g/m*3 16.49 C 0 km/h
254 20-05-2009 00:00:00 18.70167 C 9.55 g/m*3 18.7 C 0 km/h
255 21-05-2009 00:00:00 19.21167 C 10.72 g/m*3 19.21 C 0 km/h
256 22-05-2009 00:00:00 17.97917 C 7.45 g/m*3 17.98 C 0 km/h
257 23-05-2009 00:00:00 18.72083 C 7.4 g/m*3 18.72 C 0 km/h
258 24-05-2009 00:00:00 22.53417 C 9.1 g/m*3 22.53 C 0 km/h
259 25-05-2009 00:00:00 23.49833 C 10.6 g/m*3 23.5 C 0 km/h
260 26-05-2009 00:00:00 19.86583 C 9.97 g/m*3 19.87 C 0 km/h
261 27-05-2009 00:00:00 14.4425 C 6.18 g/m*3 14.44 C 0 km/h
262 28-05-2009 00:00:00 15.5325 C 8.21 g/m*3 15.53 C 0 km/h
263 29-05-2009 00:00:00 17.81765 C 6.76 g/m*3 17.82 C 0 km/h
264 30-05-2009 00:00:00 18.43417 C 6.45 g/m*3 18.43 C 0 km/h
265 31-05-2009 00:00:00 20.3075 C 7.55 g/m*3 20.31 C 0 km/h
266 01-06-2009 00:00:00 19.42541 C 9.1 g/m*3 19.43 C 0 km/h
267 02-06-2009 00:00:00 19.91917 C 8.16 g/m*3 19.92 C 0 km/h
268 03-06-2009 00:00:00 16.3775 C 5.31 g/m*3 16.38 C 0 km/h
269 04-06-2009 00:00:00 13.435 C 4.59 g/m*3 13.44 C 0 km/h
270 05-06-2009 00:00:00 13.4075 C 5 g/m*3 13.41 C 0 km/h
271 06-06-2009 00:00:00 9.18333 C 7.41 g/m*3 9.18 C 0 km/h
272 07-06-2009 00:00:00 13.71083 C 8.43 g/m*3 13.71 C 0 km/h
273 08-06-2009 00:00:00 16.58667 C 7.38 g/m*3 16.59 C 0 km/h
274 09-06-2009 00:00:00 17.9275 C 9.37 g/m*3 17.93 C 0 km/h
275 10-06-2009 00:00:00 17.24454 C 8.99 g/m*3 17.24 C 0 km/h
Sensor: Nr:Datum:Temp:Abs-Feuchte:Windchill:Wind:
Aussen-T/F 276 11-06-2009 00:00:00 14.60417 C 9.26 g/m*3 14.6 C 0 km/h
277 12-06-2009 00:00:00 15.915 C 7.28 g/m*3 15.92 C 0 km/h
278 13-06-2009 00:00:00 18.29417 C 7.64 g/m*3 18.29 C 0 km/h
279 14-06-2009 00:00:00 20.3875 C 10.19 g/m*3 20.39 C 0 km/h
280 15-06-2009 00:00:00 16.76083 C 12.71 g/m*3 16.76 C 0 km/h
281 16-06-2009 00:00:00 16.58083 C 9.69 g/m*3 16.58 C 0 km/h
282 17-06-2009 00:00:00 19.89 C 9.38 g/m*3 19.89 C 0 km/h
283 18-06-2009 00:00:00 19.45417 C 10.3 g/m*3 19.45 C 0 km/h
284 19-06-2009 00:00:00 18.45583 C 7.96 g/m*3 18.46 C 0 km/h
285 20-06-2009 00:00:00 13.84583 C 7.89 g/m*3 13.85 C 0 km/h
286 21-06-2009 00:00:00 13.40167 C 8.61 g/m*3 13.4 C 0 km/h
287 22-06-2009 00:00:00 15.23697 C 7.62 g/m*3 15.24 C 0 km/h
288 23-06-2009 00:00:00 18.58583 C 7.92 g/m*3 18.59 C 0 km/h
289 24-06-2009 00:00:00 22.29167 C 7.85 g/m*3 22.29 C 0 km/h
290 25-06-2009 00:00:00 24.10583 C 9.67 g/m*3 24.11 C 0 km/h
291 26-06-2009 00:00:00 24.31083 C 10.7 g/m*3 24.31 C 0 km/h
292 27-06-2009 00:00:00 22.1625 C 12.54 g/m*3 22.16 C 0 km/h
293 28-06-2009 00:00:00 25.04417 C 11.78 g/m*3 25.04 C 0 km/h
294 29-06-2009 00:00:00 24.71583 C 12 g/m*3 24.72 C 0 km/h
295 30-06-2009 00:00:00 22.55083 C 13.98 g/m*3 22.55 C 0 km/h
296 01-07-2009 00:00:00 23.6175 C 13.73 g/m*3 23.62 C 0 km/h
297 02-07-2009 00:00:00 25.95917 C 12.87 g/m*3 25.96 C 0 km/h
298 03-07-2009 00:00:00 23.36083 C 13.72 g/m*3 23.36 C 0 km/h
299 04-07-2009 00:00:00 24.17479 C 11.83 g/m*3 24.17 C 0 km/h
300 05-07-2009 00:00:00 23.89917 C 11.07 g/m*3 23.9 C 0 km/h
Sensor: Nr:Datum:Temp:Abs-Feuchte:Windchill:Wind:
Aussen-T/F 301 06-07-2009 00:00:00 21.82333 C 11.98 g/m*3 21.82 C 0 km/h
302 07-07-2009 00:00:00 18.7625 C 10.11 g/m*3 18.76 C 0 km/h
303 08-07-2009 00:00:00 16.39 C 9.61 g/m*3 16.39 C 0 km/h
304 09-07-2009 00:00:00 16.38583 C 8.58 g/m*3 16.39 C 0 km/h
305 10-07-2009 00:00:00 15.17083 C 7.78 g/m*3 15.17 C 0 km/h
306 11-07-2009 00:00:00 17.55667 C 8.2 g/m*3 17.56 C 0 km/h
307 12-07-2009 00:00:00 19.3525 C 10.57 g/m*3 19.35 C 0 km/h
308 13-07-2009 00:00:00 21.76917 C 12.23 g/m*3 21.77 C 0 km/h
309 14-07-2009 00:00:00 23.4 C 13.46 g/m*3 23.4 C 0 km/h
310 15-07-2009 00:00:00 24.0475 C 10.2 g/m*3 24.05 C 0 km/h
311 16-07-2009 00:00:00 23.37479 C 9.98 g/m*3 23.37 C 0 km/h
312 17-07-2009 00:00:00 20.90917 C 9.78 g/m*3 20.91 C 0 km/h
313 18-07-2009 00:00:00 17.575 C 8.46 g/m*3 17.58 C 0 km/h
314 19-07-2009 00:00:00 17.92167 C 8.71 g/m*3 17.92 C 0 km/h
315 20-07-2009 00:00:00 19.82583 C 7.87 g/m*3 19.83 C 0 km/h
316 21-07-2009 00:00:00 23.22833 C 11.03 g/m*3 23.23 C 0 km/h
317 22-07-2009 00:00:00 25.10583 C 12 g/m*3 25.11 C 0 km/h
318 23-07-2009 00:00:00 22.65417 C 12.31 g/m*3 22.65 C 0 km/h
319 24-07-2009 00:00:00 20.33167 C 9.89 g/m*3 20.33 C 0 km/h
320 25-07-2009 00:00:00 18.03083 C 9.21 g/m*3 18.03 C 0 km/h
321 26-07-2009 00:00:00 19.94833 C 9.75 g/m*3 19.95 C 0 km/h
322 27-07-2009 00:00:00 20.60667 C 10.4 g/m*3 20.61 C 0 km/h
323 28-07-2009 00:00:00 20.41513 C 8.48 g/m*3 20.42 C 0 km/h
324 29-07-2009 00:00:00 21.77833 C 9.2 g/m*3 21.78 C 0 km/h
325 30-07-2009 00:00:00 21.10583 C 8.72 g/m*3 21.11 C 0 km/h
Sensor: Nr:Datum:Temp:Abs-Feuchte:Windchill:Wind:
Aussen-T/F 326 31-07-2009 00:00:00 20.32583 C 7.51 g/m*3 20.33 C 0 km/h
327 01-08-2009 00:00:00 22.455 C 8.67 g/m*3 22.46 C 0 km/h
328 02-08-2009 00:00:00 20.47167 C 10.91 g/m*3 20.47 C 0 km/h
329 03-08-2009 00:00:00 19.3075 C 9.46 g/m*3 19.31 C 0 km/h
330 04-08-2009 00:00:00 20.48917 C 8.95 g/m*3 20.49 C 0 km/h
331 05-08-2009 00:00:00 22.0275 C 8.17 g/m*3 22.03 C 0 km/h
332 06-08-2009 00:00:00 24.19667 C 9.51 g/m*3 24.2 C 0 km/h
333 07-08-2009 00:00:00 25.2075 C 10.12 g/m*3 25.21 C 0 km/h
334 08-08-2009 00:00:00 21.22583 C 12.28 g/m*3 21.23 C 0 km/h
335 09-08-2009 00:00:00 22.82101 C 12.15 g/m*3 22.82 C 0 km/h
336 10-08-2009 00:00:00 21.7025 C 11.79 g/m*3 21.7 C 0 km/h
337 11-08-2009 00:00:00 20.44 C 11.61 g/m*3 20.44 C 0 km/h
338 12-08-2009 00:00:00 20.9725 C 11.23 g/m*3 20.97 C 0 km/h
339 13-08-2009 00:00:00 18.55917 C 12.82 g/m*3 18.56 C 0 km/h
340 14-08-2009 00:00:00 19.44083 C 10.85 g/m*3 19.44 C 0 km/h
341 15-08-2009 00:00:00 21.37917 C 10.5 g/m*3 21.38 C 0 km/h
342 16-08-2009 00:00:00 23.84583 C 11 g/m*3 23.85 C 0 km/h
343 17-08-2009 00:00:00 23.615 C 11.27 g/m*3 23.62 C 0 km/h
344 18-08-2009 00:00:00 22.105 C 9.45 g/m*3 22.11 C 0 km/h
345 19-08-2009 00:00:00 23.76 C 10.14 g/m*3 23.76 C 0 km/h
346 20-08-2009 00:00:00 26.03167 C 11.39 g/m*3 26.03 C 0 km/h
347 21-08-2009 00:00:00 20.32185 C 10.69 g/m*3 20.32 C 0 km/h
348 22-08-2009 00:00:00 19.745 C 9.13 g/m*3 19.75 C 0 km/h
349 23-08-2009 00:00:00 20.0375 C 8.31 g/m*3 20.04 C 0 km/h
350 24-08-2009 00:00:00 22.19667 C 9.27 g/m*3 22.2 C 0 km/h
Sensor: Nr:Datum:Temp:Abs-Feuchte:Windchill:Wind:
Aussen-T/F 351 25-08-2009 00:00:00 23.11917 C 10.67 g/m*3 23.12 C 0 km/h
352 26-08-2009 00:00:00 21.68417 C 9.77 g/m*3 21.68 C 0 km/h
353 27-08-2009 00:00:00 23.10167 C 10.48 g/m*3 23.1 C 0 km/h
354 28-08-2009 00:00:00 21.60583 C 8.45 g/m*3 21.61 C 0 km/h
355 29-08-2009 00:00:00 16.21167 C 6.62 g/m*3 16.21 C 0 km/h
356 30-08-2009 00:00:00 16.655 C 6.94 g/m*3 16.66 C 0 km/h
357 31-08-2009 00:00:00 19.54667 C 7.6 g/m*3 19.55 C 0 km/h
358 01-09-2009 00:00:00 19.93167 C 10.19 g/m*3 19.93 C 0 km/h
359 02-09-2009 00:00:00 18.765 C 9.38 g/m*3 18.77 C 0 km/h
360 03-09-2009 00:00:00 17.39328 C 8.67 g/m*3 17.39 C 0 km/h
361 04-09-2009 00:00:00 14.56333 C 8.22 g/m*3 14.56 C 0 km/h
362 05-09-2009 00:00:00 15.10833 C 7.6 g/m*3 15.11 C 0 km/h
363 06-09-2009 00:00:00 14.74583 C 8.27 g/m*3 14.75 C 0 km/h
364 07-09-2009 00:00:00 17.63417 C 8.91 g/m*3 17.63 C 0 km/h
365 08-09-2009 00:00:00 19.88167 C 9.54 g/m*3 19.88 C 0 km/h
366 09-09-2009 00:00:00 19.7475 C 9.47 g/m*3 19.75 C 0 km/h
367 10-09-2009 00:00:00 18.43917 C 10.33 g/m*3 18.44 C 0 km/h
368 11-09-2009 00:00:00 17.6725 C 7.37 g/m*3 17.67 C 0 km/h
369 12-09-2009 00:00:00 16.99083 C 7.3 g/m*3 16.99 C 0 km/h
370 13-09-2009 00:00:00 14.23 C 8.62 g/m*3 14.23 C 0 km/h
371 14-09-2009 00:00:00 12.17417 C 10.1 g/m*3 12.17 C 0 km/h
372 15-09-2009 00:00:00 13.7563 C 10.75 g/m*3 13.76 C 0 km/h
373 16-09-2009 00:00:00 16.725 C 11.49 g/m*3 16.73 C 0 km/h
374 17-09-2009 00:00:00 18.47583 C 9.96 g/m*3 18.48 C 0 km/h
375 18-09-2009 00:00:00 18.26083 C 9.85 g/m*3 18.26 C 0 km/h
Sensor: Nr:Datum:Temp:Abs-Feuchte:Windchill:Wind:
Aussen-T/F 376 19-09-2009 00:00:00 20.78583 C 11.08 g/m*3 20.79 C 0 km/h
377 20-09-2009 00:00:00 19.92833 C 11.89 g/m*3 19.93 C 0 km/h
378 21-09-2009 00:00:00 18.85833 C 10.75 g/m*3 18.86 C 0 km/h
379 22-09-2009 00:00:00 17.215 C 9.52 g/m*3 17.22 C 0 km/h
380 23-09-2009 00:00:00 17.4225 C 9.72 g/m*3 17.42 C 0 km/h
381 24-09-2009 00:00:00 17.19 C 10.45 g/m*3 17.19 C 0 km/h
382 25-09-2009 00:00:00 15.16083 C 8.71 g/m*3 15.16 C 0 km/h
383 26-09-2009 00:00:00 14.56333 C 8.19 g/m*3 14.56 C 0 km/h
384 27-09-2009 00:00:00 14.64 C 8.22 g/m*3 14.64 C 0 km/h
385 28-09-2009 00:00:00 14.21583 C 8.47 g/m*3 14.22 C 0 km/h
386 29-09-2009 00:00:00 15.88319 C 8.68 g/m*3 15.88 C 0 km/h
387 30-09-2009 00:00:00 16.535 C 9.98 g/m*3 16.54 C 0 km/h
388 01-10-2009 00:00:00 14.71583 C 8.88 g/m*3 14.72 C 0 km/h
389 02-10-2009 00:00:00 11.32167 C 6.59 g/m*3 11.32 C 0 km/h
390 03-10-2009 00:00:00 11.72333 C 6.76 g/m*3 11.72 C 0 km/h
391 04-10-2009 00:00:00 13.54167 C 7.94 g/m*3 13.54 C 0 km/h
392 05-10-2009 00:00:00 12.4075 C 9.99 g/m*3 12.41 C 0 km/h
393 06-10-2009 00:00:00 16.13417 C 12.08 g/m*3 16.13 C 0 km/h
394 07-10-2009 00:00:00 19.57083 C 12.9 g/m*3 19.57 C 0 km/h
395 08-10-2009 00:00:00 16.41167 C 9.99 g/m*3 16.41 C 0 km/h
396 09-10-2009 00:00:00 11.88417 C 7.56 g/m*3 11.88 C 0 km/h
397 10-10-2009 00:00:00 13.34667 C 9.66 g/m*3 13.35 C 0 km/h
398 11-10-2009 00:00:00 12.35042 C 8.83 g/m*3 12.35 C 0 km/h
399 12-10-2009 00:00:00 10.9275 C 6.43 g/m*3 10.93 C 0 km/h
400 13-10-2009 00:00:00 9.24333 C 6.35 g/m*3 9.24 C 0 km/h
Sensor: Nr:Datum:Temp:Abs-Feuchte:Windchill:Wind:
Aussen-T/F 401 14-10-2009 00:00:00 4.27333 C 4.38 g/m*3 4.27 C 0 km/h
402 15-10-2009 00:00:00 3.45583 C 4.18 g/m*3 3.46 C 0 km/h
403 16-10-2009 00:00:00 6.41083 C 5.8 g/m*3 6.41 C 0 km/h
404 17-10-2009 00:00:00 8.52083 C 5.63 g/m*3 8.52 C 0 km/h
405 18-10-2009 00:00:00 7.3775 C 5.38 g/m*3 7.38 C 0 km/h
406 19-10-2009 00:00:00 4.59 C 4.71 g/m*3 4.59 C 0 km/h
407 20-10-2009 00:00:00 5.17083 C 4.82 g/m*3 5.17 C 0 km/h
408 21-10-2009 00:00:00 8.07333 C 5.02 g/m*3 8.07 C 0 km/h
409 22-10-2009 00:00:00 9.4 C 5.91 g/m*3 9.4 C 0 km/h
410 23-10-2009 00:00:00 8.34 C 7.02 g/m*3 8.34 C 0 km/h
411 24-10-2009 00:00:00 10.5084 C 7.81 g/m*3 10.51 C 0 km/h
412 25-10-2009 00:00:00 12.6096 C 8.4 g/m*3 12.61 C 0 km/h
413 26-10-2009 00:00:00 11.8875 C 7.56 g/m*3 11.89 C 0 km/h
414 27-10-2009 00:00:00 11.82417 C 7.63 g/m*3 11.82 C 0 km/h
415 28-10-2009 00:00:00 8.37917 C 7.06 g/m*3 8.38 C 0 km/h
416 29-10-2009 00:00:00 8.69333 C 7.48 g/m*3 8.69 C 0 km/h
417 30-10-2009 00:00:00 10.54083 C 7.59 g/m*3 10.54 C 0 km/h
418 31-10-2009 00:00:00 7.03083 C 5.82 g/m*3 7.03 C 0 km/h
419 01-11-2009 00:00:00 9.17333 C 6.74 g/m*3 9.17 C 0 km/h
420 02-11-2009 00:00:00 10.32333 C 8.29 g/m*3 10.32 C 0 km/h
421 03-11-2009 00:00:00 8.06167 C 6.19 g/m*3 8.06 C 0 km/h
422 04-11-2009 00:00:00 8.75 C 7.01 g/m*3 8.75 C 0 km/h
423 05-11-2009 00:00:00 9.29748 C 6.2 g/m*3 9.3 C 0 km/h
424 06-11-2009 00:00:00 9.43333 C 6.28 g/m*3 9.43 C 0 km/h
425 07-11-2009 00:00:00 8.11583 C 5.94 g/m*3 8.12 C 0 km/h
Sensor: Nr:Datum:Temp:Abs-Feuchte:Windchill:Wind:
Aussen-T/F 426 08-11-2009 00:00:00 6.9 C 6.33 g/m*3 6.9 C 0 km/h
427 09-11-2009 00:00:00 6.21167 C 6.26 g/m*3 6.21 C 0 km/h
428 10-11-2009 00:00:00 6.03 C 6.79 g/m*3 6.03 C 0 km/h
429 11-11-2009 00:00:00 6.2525 C 6.18 g/m*3 6.25 C 0 km/h
430 12-11-2009 00:00:00 4.66 C 6.06 g/m*3 4.66 C 0 km/h
431 13-11-2009 00:00:00 11.27583 C 8.27 g/m*3 11.28 C 0 km/h
432 14-11-2009 00:00:00 11.7125 C 7.87 g/m*3 11.71 C 0 km/h
433 15-11-2009 00:00:00 11.2125 C 6.89 g/m*3 11.21 C 0 km/h
434 16-11-2009 00:00:00 10.92667 C 8.53 g/m*3 10.93 C 0 km/h
435 17-11-2009 00:00:00 10.88235 C 8.48 g/m*3 10.88 C 0 km/h
436 18-11-2009 00:00:00 10.245 C 6.24 g/m*3 10.25 C 0 km/h
437 19-11-2009 00:00:00 9.77667 C 6.57 g/m*3 9.78 C 0 km/h
438 20-11-2009 00:00:00 7.87917 C 6.83 g/m*3 7.88 C 0 km/h
439 21-11-2009 00:00:00 11.67333 C 7.8 g/m*3 11.67 C 0 km/h
440 22-11-2009 00:00:00 11.84167 C 6.48 g/m*3 11.84 C 0 km/h
441 23-11-2009 00:00:00 10.33417 C 6.93 g/m*3 10.33 C 0 km/h
442 24-11-2009 00:00:00 11.89833 C 7.31 g/m*3 11.9 C 0 km/h
443 25-11-2009 00:00:00 12.0875 C 6.36 g/m*3 12.09 C 0 km/h
444 26-11-2009 00:00:00 9.98917 C 5.73 g/m*3 9.99 C 0 km/h
445 27-11-2009 00:00:00 9.0425 C 5.58 g/m*3 9.04 C 0 km/h
446 28-11-2009 00:00:00 8.79 C 5.95 g/m*3 8.79 C 0 km/h
447 29-11-2009 00:00:00 9.41597 C 6.1 g/m*3 9.42 C 0 km/h
448 30-11-2009 00:00:00 6.46 C 6.32 g/m*3 6.46 C 0 km/h
449 01-12-2009 00:00:00 5.65583 C 5.93 g/m*3 5.66 C 0 km/h
450 02-12-2009 00:00:00 5.96 C 5.22 g/m*3 5.96 C 0 km/h
Sensor: Nr:Datum:Temp:Abs-Feuchte:Windchill:Wind:
Aussen-T/F 451 03-12-2009 00:00:00 8.53667 C 6.07 g/m*3 8.54 C 0 km/h
452 04-12-2009 00:00:00 4.73917 C 4.37 g/m*3 4.74 C 0 km/h
453 05-12-2009 00:00:00 5.3975 C 5.13 g/m*3 5.4 C 0 km/h
454 06-12-2009 00:00:00 9.83 C 7.53 g/m*3 9.83 C 0 km/h
455 07-12-2009 00:00:00 5.59917 C 6.01 g/m*3 5.6 C 0 km/h
456 08-12-2009 00:00:00 6.95833 C 6.27 g/m*3 6.96 C 0 km/h
457 09-12-2009 00:00:00 7.2525 C 6.19 g/m*3 7.25 C 0 km/h
458 10-12-2009 00:00:00 8.78583 C 6.99 g/m*3 8.79 C 0 km/h
459 11-12-2009 00:00:00 6.665 C 6.16 g/m*3 6.67 C 0 km/h
460 12-12-2009 00:00:00 3.47833 C 5.29 g/m*3 3.48 C 0 km/h
461 13-12-2009 00:00:00 1.50924 C 3.54 g/m*3 1.51 C 0 km/h
462 14-12-2009 00:00:00 -0.80667 C 2.67 g/m*3 -0.81 C 0 km/h
463 15-12-2009 00:00:00 -0.50083 C 2.88 g/m*3 -0.5 C 0 km/h
464 16-12-2009 00:00:00 -1.19917 C 2.79 g/m*3 -1.2 C 0 km/h
465 17-12-2009 00:00:00 -4.445 C 2.62 g/m*3 -4.45 C 0 km/h
466 18-12-2009 00:00:00 -5.04417 C 2.34 g/m*3 -5.04 C 0 km/h
467 19-12-2009 00:00:00 -12.79 C 1.12 g/m*3 -12.79 C 0 km/h
468 20-12-2009 00:00:00 -8.03917 C 1.87 g/m*3 -8.04 C 0 km/h
469 21-12-2009 00:00:00 -2.18417 C 3.25 g/m*3 -2.18 C 0 km/h
470 22-12-2009 00:00:00 2.7175 C 5.09 g/m*3 2.72 C 0 km/h
471 23-12-2009 00:00:00 0.49333 C 4.68 g/m*3 0.49 C 0 km/h
472 24-12-2009 00:00:00 2.31333 C 5.15 g/m*3 2.31 C 0 km/h
473 25-12-2009 00:00:00 4.38824 C 5.08 g/m*3 4.39 C 0 km/h
474 26-12-2009 00:00:00 2.04583 C 4.45 g/m*3 2.05 C 0 km/h
475 27-12-2009 00:00:00 0.5475 C 4.38 g/m*3 0.55 C 0 km/h
Sensor: Nr:Datum:Temp:Abs-Feuchte:Windchill:Wind:
Aussen-T/F 476 28-12-2009 00:00:00 3.1425 C 4.49 g/m*3 3.14 C 0 km/h
477 29-12-2009 00:00:00 0.4625 C 4.61 g/m*3 0.46 C 0 km/h
478 30-12-2009 00:00:00 7.05667 C 7.27 g/m*3 7.06 C 0 km/h
479 31-12-2009 00:00:00 5.32667 C 6.59 g/m*3 5.33 C 0 km/h
480 01-01-2010 00:00:00 -0.1725 C 4.38 g/m*3 -0.17 C 0 km/h
481 02-01-2010 00:00:00 -1.51083 C 3.34 g/m*3 -1.51 C 0 km/h
482 03-01-2010 00:00:00 -1.79667 C 3.45 g/m*3 -1.8 C 0 km/h
483 04-01-2010 00:00:00 -5.24083 C 2.41 g/m*3 -5.24 C 0 km/h
484 05-01-2010 00:00:00 -8.00083 C 2.22 g/m*3 -8 C 0 km/h
485 06-01-2010 00:00:00 -6.88917 C 2.25 g/m*3 -6.89 C 0 km/h
486 07-01-2010 00:00:00 -3.75966 C 2.79 g/m*3 -3.76 C 0 km/h
487 08-01-2010 00:00:00 -4.82167 C 2.54 g/m*3 -4.82 C 0 km/h
488 09-01-2010 00:00:00 -2.655 C 3.05 g/m*3 -2.66 C 0 km/h
489 10-01-2010 00:00:00 -1.87083 C 3.27 g/m*3 -1.87 C 0 km/h
490 11-01-2010 00:00:00 -1.42833 C 3.62 g/m*3 -1.43 C 0 km/h
491 12-01-2010 00:00:00 -1.65833 C 3.4 g/m*3 -1.66 C 0 km/h
492 13-01-2010 00:00:00 -2.2325 C 2.99 g/m*3 -2.23 C 0 km/h
493 14-01-2010 00:00:00 0.35417 C 3.98 g/m*3 0.35 C 0 km/h
494 15-01-2010 00:00:00 0.87333 C 4.07 g/m*3 0.87 C 0 km/h
495 16-01-2010 00:00:00 -0.11833 C 3.75 g/m*3 -0.12 C 0 km/h
496 17-01-2010 00:00:00 2.09667 C 5.1 g/m*3 2.1 C 0 km/h
497 18-01-2010 00:00:00 3.38333 C 5.07 g/m*3 3.38 C 0 km/h
498 19-01-2010 00:00:00 2.24583 C 5.1 g/m*3 2.25 C 0 km/h
499 20-01-2010 00:00:00 1.97417 C 4.66 g/m*3 1.97 C 0 km/h
500 21-01-2010 00:00:00 2.45126 C 4.02 g/m*3 2.45 C 0 km/h
Sensor: Nr:Datum:Temp:Abs-Feuchte:Windchill:Wind:
Aussen-T/F 501 22-01-2010 00:00:00 2.93667 C 4.24 g/m*3 2.94 C 0 km/h
502 23-01-2010 00:00:00 -0.41333 C 3.36 g/m*3 -0.41 C 0 km/h
503 24-01-2010 00:00:00 0.27167 C 4.06 g/m*3 0.27 C 0 km/h
504 25-01-2010 00:00:00 0.01667 C 4.19 g/m*3 0.02 C 0 km/h
505 26-01-2010 00:00:00 -3.325 C 2.8 g/m*3 -3.33 C 0 km/h
506 27-01-2010 00:00:00 -5.54083 C 2.18 g/m*3 -5.54 C 0 km/h
507 28-01-2010 00:00:00 1.20667 C 4.04 g/m*3 1.21 C 0 km/h
508 29-01-2010 00:00:00 1.39083 C 4.5 g/m*3 1.39 C 0 km/h
509 30-01-2010 00:00:00 -1.54583 C 3.39 g/m*3 -1.55 C 0 km/h
510 31-01-2010 00:00:00 -1.62333 C 3.2 g/m*3 -1.62 C 0 km/h
511 01-02-2010 00:00:00 0.20167 C 3.69 g/m*3 0.2 C 0 km/h
512 02-02-2010 00:00:00 0.69916 C 4 g/m*3 0.7 C 0 km/h
513 03-02-2010 00:00:00 2.28899 C 5.05 g/m*3 2.29 C 0 km/h
514 04-02-2010 00:00:00 4.17018 C 5.55 g/m*3 4.17 C 0 km/h
515 05-02-2010 00:00:00 3.29649 C 4.9 g/m*3 3.3 C 0 km/h
516 06-02-2010 00:00:00 4.55172 C 5.47 g/m*3 4.55 C 0 km/h
517 07-02-2010 00:00:00 4.17018 C 5.02 g/m*3 4.17 C 0 km/h
518 08-02-2010 00:00:00 -0.75 C 2.85 g/m*3 -0.75 C 0 km/h
519 09-02-2010 00:00:00 -3.74483 C 2.17 g/m*3 -3.74 C 0 km/h
520 10-02-2010 00:00:00 -4.8 C 2.32 g/m*3 -4.8 C 0 km/h
521 11-02-2010 00:00:00 -3.79828 C 2.62 g/m*3 -3.8 C 0 km/h
522 12-02-2010 00:00:00 -2.14737 C 2.95 g/m*3 -2.15 C 0 km/h
523 13-02-2010 00:00:00 -2.57414 C 2.82 g/m*3 -2.57 C 0 km/h
524 14-02-2010 00:00:00 -2.13621 C 3.1 g/m*3 -2.14 C 0 km/h
525 15-02-2010 00:00:00 -1.12632 C 3.21 g/m*3 -1.13 C 0 km/h
Sensor: Nr:Datum:Temp:Abs-Feuchte:Windchill:Wind:
Aussen-T/F 526 16-02-2010 00:00:00 -1.16379 C 3.02 g/m*3 -1.16 C 0 km/h
527 17-02-2010 00:00:00 -1.61754 C 3.18 g/m*3 -1.62 C 0 km/h
528 18-02-2010 00:00:00 3.2569 C 4.56 g/m*3 3.26 C 0 km/h
529 19-02-2010 00:00:00 3.59375 C 4.12 g/m*3 3.59 C 0 km/h
530 20-02-2010 00:00:00 1.69333 C 3.53 g/m*3 1.69 C 0 km/h
531 21-02-2010 00:00:00 2.87833 C 4.25 g/m*3 2.88 C 0 km/h
532 22-02-2010 00:00:00 6.76417 C 5.24 g/m*3 6.76 C 0 km/h
533 23-02-2010 00:00:00 9.7875 C 7.07 g/m*3 9.79 C 0 km/h
534 24-02-2010 00:00:00 9.55 C 6.5 g/m*3 9.55 C 0 km/h
535 25-02-2010 00:00:00 9.58 C 5.92 g/m*3 9.58 C 0 km/h
536 26-02-2010 00:00:00 8.62667 C 5.33 g/m*3 8.63 C 0 km/h
537 27-02-2010 00:00:00 8.4025 C 4.07 g/m*3 8.4 C 0 km/h
538 28-02-2010 00:00:00 8.30667 C 5.5 g/m*3 8.31 C 0 km/h
539 01-03-2010 00:00:00 5.40917 C 3.85 g/m*3 5.41 C 0 km/h
540 02-03-2010 00:00:00 3.135 C 3.87 g/m*3 3.14 C 0 km/h
541 03-03-2010 00:00:00 2.9925 C 3.33 g/m*3 2.99 C 0 km/h
542 04-03-2010 00:00:00 2.47395 C 2.67 g/m*3 2.47 C 0 km/h
543 05-03-2010 00:00:00 0.77667 C 2.41 g/m*3 0.78 C 0 km/h
544 06-03-2010 00:00:00 -0.47083 C 3.38 g/m*3 -0.47 C 0 km/h
545 07-03-2010 00:00:00 -1.6825 C 2.27 g/m*3 -1.68 C 0 km/h
546 08-03-2010 00:00:00 -1.21083 C 1.92 g/m*3 -1.21 C 0 km/h
547 09-03-2010 00:00:00 -0.87167 C 1.76 g/m*3 -0.87 C 0 km/h
548 10-03-2010 00:00:00 1.41667 C 1.75 g/m*3 1.42 C 0 km/h
549 11-03-2010 00:00:00 0.40167 C 2.56 g/m*3 0.4 C 0 km/h
550 12-03-2010 00:00:00 1.61167 C 3.86 g/m*3 1.61 C 0 km/h
Sensor: Nr:Datum:Temp:Abs-Feuchte:Windchill:Wind:
Aussen-T/F 551 13-03-2010 00:00:00 4.36583 C 4.23 g/m*3 4.37 C 0 km/h
552 14-03-2010 00:00:00 5.79833 C 4.06 g/m*3 5.8 C 0 km/h
553 15-03-2010 00:00:00 6.445 C 5.04 g/m*3 6.45 C 0 km/h
554 16-03-2010 00:00:00 6.08067 C 5.63 g/m*3 6.08 C 0 km/h
555 17-03-2010 00:00:00 6.69417 C 4.48 g/m*3 6.69 C 0 km/h
556 18-03-2010 00:00:00 10.12333 C 4.54 g/m*3 10.12 C 0 km/h
557 19-03-2010 00:00:00 15.0225 C 4.66 g/m*3 15.02 C 0 km/h
558 20-03-2010 00:00:00 14.37667 C 8.46 g/m*3 14.38 C 0 km/h
559 21-03-2010 00:00:00 11.23667 C 8.65 g/m*3 11.24 C 0 km/h
560 22-03-2010 00:00:00 9.7575 C 7.03 g/m*3 9.76 C 0 km/h
561 23-03-2010 00:00:00 8.94 C 6.12 g/m*3 8.94 C 0 km/h
562 24-03-2010 00:00:00 11.9975 C 6.24 g/m*3 12 C 0 km/h
563 25-03-2010 00:00:00 14.27083 C 6.52 g/m*3 14.27 C 0 km/h
564 26-03-2010 00:00:00 10.0325 C 7.02 g/m*3 10.03 C 0 km/h
565 27-03-2010 00:00:00 9.34333 C 5.7 g/m*3 9.34 C 0 km/h
566 28-03-2010 00:00:00 9.93478 C 6.19 g/m*3 9.93 C 0 km/h
567 29-03-2010 00:00:00 11.88167 C 8.04 g/m*3 11.88 C 0 km/h
568 30-03-2010 00:00:00 12.70672 C 6.43 g/m*3 12.71 C 0 km/h
569 31-03-2010 00:00:00 8.18667 C 4.45 g/m*3 8.19 C 0 km/h
570 01-04-2010 00:00:00 5.84333 C 3.76 g/m*3 5.84 C 0 km/h
571 02-04-2010 00:00:00 6.48583 C 4.37 g/m*3 6.49 C 0 km/h
572 03-04-2010 00:00:00 9.73667 C 5.47 g/m*3 9.74 C 0 km/h
573 04-04-2010 00:00:00 8.98833 C 5.25 g/m*3 8.99 C 0 km/h
574 05-04-2010 00:00:00 9.15083 C 4.56 g/m*3 9.15 C 0 km/h
575 06-04-2010 00:00:00 10.38167 C 4.41 g/m*3 10.38 C 0 km/h
Sensor: Nr:Datum:Temp:Abs-Feuchte:Windchill:Wind:
Aussen-T/F 576 07-04-2010 00:00:00 13.61167 C 5.07 g/m*3 13.61 C 0 km/h
577 08-04-2010 00:00:00 12.375 C 6.96 g/m*3 12.38 C 0 km/h
578 09-04-2010 00:00:00 11.49917 C 5.91 g/m*3 11.5 C 0 km/h
579 10-04-2010 00:00:00 11.3575 C 4.66 g/m*3 11.36 C 0 km/h
580 11-04-2010 00:00:00 7.86667 C 4.35 g/m*3 7.87 C 0 km/h
581 12-04-2010 00:00:00 7.44958 C 5.35 g/m*3 7.45 C 0 km/h
582 13-04-2010 00:00:00 11.85583 C 6.16 g/m*3 11.86 C 0 km/h
583 14-04-2010 00:00:00 11.76417 C 4.66 g/m*3 11.76 C 0 km/h
584 15-04-2010 00:00:00 11.8575 C 5 g/m*3 11.86 C 0 km/h
585 16-04-2010 00:00:00 9.71583 C 4.32 g/m*3 9.72 C 0 km/h
586 17-04-2010 00:00:00 11.1225 C 4.54 g/m*3 11.12 C 0 km/h
587 18-04-2010 00:00:00 13.27917 C 4.52 g/m*3 13.28 C 0 km/h
588 19-04-2010 00:00:00 11.18333 C 5.12 g/m*3 11.18 C 0 km/h
589 20-04-2010 00:00:00 11.13833 C 5.11 g/m*3 11.14 C 0 km/h
590 21-04-2010 00:00:00 7.34417 C 3.84 g/m*3 7.34 C 0 km/h
591 22-04-2010 00:00:00 8.35333 C 3.82 g/m*3 8.35 C 0 km/h
592 23-04-2010 00:00:00 11.44917 C 4.09 g/m*3 11.45 C 0 km/h
593 24-04-2010 00:00:00 14.91167 C 4.56 g/m*3 14.91 C 0 km/h
594 25-04-2010 00:00:00 17.1075 C 5.25 g/m*3 17.11 C 0 km/h
595 26-04-2010 00:00:00 15.72269 C 7.07 g/m*3 15.72 C 0 km/h
596 27-04-2010 00:00:00 15.50417 C 6.31 g/m*3 15.5 C 0 km/h
597 28-04-2010 00:00:00 16.8925 C 6.33 g/m*3 16.89 C 0 km/h
598 29-04-2010 00:00:00 19.21417 C 6.68 g/m*3 19.21 C 0 km/h
599 30-04-2010 00:00:00 18.69583 C 7.11 g/m*3 18.7 C 0 km/h
600 01-05-2010 00:00:00 15.09917 C 6.78 g/m*3 15.1 C 0 km/h
Sensor: Nr:Datum:Temp:Abs-Feuchte:Windchill:Wind:
Aussen-T/F 601 02-05-2010 00:00:00 13.48583 C 7.64 g/m*3 13.49 C 0 km/h
602 03-05-2010 00:00:00 10.01667 C 6.94 g/m*3 10.02 C 0 km/h
603 04-05-2010 00:00:00 9.78833 C 5.53 g/m*3 9.79 C 0 km/h
604 05-05-2010 00:00:00 10.09083 C 3.78 g/m*3 10.09 C 0 km/h
605 06-05-2010 00:00:00 6.68167 C 6.78 g/m*3 6.68 C 0 km/h
606 07-05-2010 00:00:00 6.49417 C 6.66 g/m*3 6.49 C 0 km/h
607 08-05-2010 00:00:00 11.06218 C 6.38 g/m*3 11.06 C 0 km/h
608 09-05-2010 00:00:00 12.575 C 6.93 g/m*3 12.58 C 0 km/h
609 10-05-2010 00:00:00 11.99917 C 6.67 g/m*3 12 C 0 km/h
610 11-05-2010 00:00:00 11.53167 C 6.84 g/m*3 11.53 C 0 km/h
611 12-05-2010 00:00:00 8.62333 C 6.33 g/m*3 8.62 C 0 km/h
612 13-05-2010 00:00:00 8.07667 C 6.31 g/m*3 8.08 C 0 km/h
613 14-05-2010 00:00:00 8.97333 C 7.22 g/m*3 8.97 C 0 km/h
614 15-05-2010 00:00:00 10.6825 C 5.92 g/m*3 10.68 C 0 km/h
615 16-05-2010 00:00:00 13.32917 C 5.32 g/m*3 13.33 C 0 km/h
616 17-05-2010 00:00:00 10.56917 C 7.13 g/m*3 10.57 C 0 km/h
617 18-05-2010 00:00:00 11.44333 C 6.07 g/m*3 11.44 C 0 km/h
618 19-05-2010 00:00:00 10.30583 C 6.32 g/m*3 10.31 C 0 km/h
619 20-05-2010 00:00:00 12.64034 C 6.31 g/m*3 12.64 C 0 km/h
620 21-05-2010 00:00:00 16.54333 C 7.66 g/m*3 16.54 C 0 km/h
621 22-05-2010 00:00:00 18.32583 C 7.75 g/m*3 18.33 C 0 km/h
622 23-05-2010 00:00:00 20.32083 C 8.65 g/m*3 20.32 C 0 km/h
623 24-05-2010 00:00:00 21.23 C 8.94 g/m*3 21.23 C 0 km/h
624 25-05-2010 00:00:00 20.64583 C 7.99 g/m*3 20.65 C 0 km/h
625 26-05-2010 00:00:00 15.41917 C 9.07 g/m*3 15.42 C 0 km/h
Sensor: Nr:Datum:Temp:Abs-Feuchte:Windchill:Wind:
Aussen-T/F 626 27-05-2010 00:00:00 15.6175 C 8.18 g/m*3 15.62 C 0 km/h
627 28-05-2010 00:00:00 17.3075 C 7.94 g/m*3 17.31 C 0 km/h
628 29-05-2010 00:00:00 16.34 C 7.23 g/m*3 16.34 C 0 km/h
629 30-05-2010 00:00:00 14.5975 C 8.93 g/m*3 14.6 C 0 km/h
630 31-05-2010 00:00:00 11.56667 C 8.16 g/m*3 11.57 C 0 km/h
631 01-06-2010 00:00:00 16.01833 C 8.41 g/m*3 16.02 C 0 km/h
632 02-06-2010 00:00:00 17.66471 C 7.79 g/m*3 17.66 C 0 km/h
633 03-06-2010 00:00:00 20.49083 C 7.88 g/m*3 20.49 C 0 km/h
634 04-06-2010 00:00:00 21.43 C 7.91 g/m*3 21.43 C 0 km/h
635 05-06-2010 00:00:00 22.97667 C 8.82 g/m*3 22.98 C 0 km/h
636 06-06-2010 00:00:00 20.91333 C 11.1 g/m*3 20.91 C 0 km/h
637 07-06-2010 00:00:00 19.58833 C 9.05 g/m*3 19.59 C 0 km/h
638 08-06-2010 00:00:00 19.76833 C 9.52 g/m*3 19.77 C 0 km/h
639 09-06-2010 00:00:00 22.5625 C 11.34 g/m*3 22.56 C 0 km/h
640 10-06-2010 00:00:00 22.76417 C 13.55 g/m*3 22.76 C 0 km/h
641 11-06-2010 00:00:00 22.89167 C 11.59 g/m*3 22.89 C 0 km/h
642 12-06-2010 00:00:00 18.84917 C 10.25 g/m*3 18.85 C 0 km/h
643 13-06-2010 00:00:00 18.25083 C 7.8 g/m*3 18.25 C 0 km/h
644 14-06-2010 00:00:00 19.76667 C 7.8 g/m*3 19.77 C 0 km/h
645 15-06-2010 00:00:00 18.9 C 8.06 g/m*3 18.9 C 0 km/h
646 16-06-2010 00:00:00 18.82833 C 6.18 g/m*3 18.83 C 0 km/h
647 17-06-2010 00:00:00 15.08583 C 9.23 g/m*3 15.09 C 0 km/h
648 18-06-2010 00:00:00 15.2325 C 9.35 g/m*3 15.23 C 0 km/h
649 19-06-2010 00:00:00 14.2725 C 6.27 g/m*3 14.27 C 0 km/h
650 20-06-2010 00:00:00 13.20333 C 6.8 g/m*3 13.2 C 0 km/h
Sensor: Nr:Datum:Temp:Abs-Feuchte:Windchill:Wind:
Aussen-T/F 651 21-06-2010 00:00:00 14.11083 C 6.37 g/m*3 14.11 C 0 km/h
652 22-06-2010 00:00:00 17.38667 C 7.03 g/m*3 17.39 C 0 km/h
653 23-06-2010 00:00:00 19.75917 C 8.12 g/m*3 19.76 C 0 km/h
654 24-06-2010 00:00:00 22.54833 C 8.68 g/m*3 22.55 C 0 km/h
655 25-06-2010 00:00:00 23.37 C 8.65 g/m*3 23.37 C 0 km/h
656 26-06-2010 00:00:00 23.635 C 8.77 g/m*3 23.64 C 0 km/h
657 27-06-2010 00:00:00 24.49417 C 9.01 g/m*3 24.49 C 0 km/h
658 28-06-2010 00:00:00 25.25546 C 9.1 g/m*3 25.26 C 0 km/h
659 29-06-2010 00:00:00 24.86167 C 9.83 g/m*3 24.86 C 0 km/h
660 30-06-2010 00:00:00 24.6175 C 10.06 g/m*3 24.62 C 0 km/h
661 01-07-2010 00:00:00 25.8425 C 9.72 g/m*3 25.84 C 0 km/h
662 02-07-2010 00:00:00 26.96667 C 9.63 g/m*3 26.97 C 0 km/h
663 03-07-2010 00:00:00 26.33 C 11.31 g/m*3 26.33 C 0 km/h
664 04-07-2010 00:00:00 26.44833 C 12.05 g/m*3 26.45 C 0 km/h
665 05-07-2010 00:00:00 22.02083 C 9.04 g/m*3 22.02 C 0 km/h
666 06-07-2010 00:00:00 20.17833 C 8.34 g/m*3 20.18 C 0 km/h
667 07-07-2010 00:00:00 22.53417 C 8.16 g/m*3 22.53 C 0 km/h
668 08-07-2010 00:00:00 26.43417 C 8.69 g/m*3 26.43 C 0 km/h
669 09-07-2010 00:00:00 27.51333 C 9.42 g/m*3 27.51 C 0 km/h
670 10-07-2010 00:00:00 29.25667 C 10.76 g/m*3 29.26 C 0 km/h
671 11-07-2010 00:00:00 28.48319 C 12.85 g/m*3 28.48 C 0 km/h
672 12-07-2010 00:00:00 27.1175 C 11.1 g/m*3 27.12 C 0 km/h
673 13-07-2010 00:00:00 25.36083 C 10.39 g/m*3 25.36 C 0 km/h
674 14-07-2010 00:00:00 25.98917 C 11.73 g/m*3 25.99 C 0 km/h
675 15-07-2010 00:00:00 22.6525 C 8.81 g/m*3 22.65 C 0 km/h
Sensor: Nr:Datum:Temp:Abs-Feuchte:Windchill:Wind:
Aussen-T/F 676 16-07-2010 00:00:00 23.97667 C 8.47 g/m*3 23.98 C 0 km/h
677 17-07-2010 00:00:00 21.99167 C 10.18 g/m*3 21.99 C 0 km/h
678 18-07-2010 00:00:00 21.73833 C 7.35 g/m*3 21.74 C 0 km/h
679 19-07-2010 00:00:00 23.63167 C 8.01 g/m*3 23.63 C 0 km/h
680 20-07-2010 00:00:00 25.03833 C 8.46 g/m*3 25.04 C 0 km/h
681 21-07-2010 00:00:00 24.73833 C 9.31 g/m*3 24.74 C 0 km/h
682 22-07-2010 00:00:00 21.34917 C 11.61 g/m*3 21.35 C 0 km/h
683 23-07-2010 00:00:00 20.17059 C 11.52 g/m*3 20.17 C 0 km/h
684 24-07-2010 00:00:00 19.00667 C 9.15 g/m*3 19.01 C 0 km/h
685 25-07-2010 00:00:00 17.26833 C 7.8 g/m*3 17.27 C 0 km/h
686 26-07-2010 00:00:00 17.2925 C 11.46 g/m*3 17.29 C 0 km/h
687 27-07-2010 00:00:00 19.815 C 10.06 g/m*3 19.82 C 0 km/h
688 28-07-2010 00:00:00 20.5075 C 11.17 g/m*3 20.51 C 0 km/h
689 29-07-2010 00:00:00 16.32417 C 11.42 g/m*3 16.32 C 0 km/h
690 30-07-2010 00:00:00 19.665 C 9.34 g/m*3 19.67 C 0 km/h
691 31-07-2010 00:00:00 20.62417 C 9.08 g/m*3 20.62 C 0 km/h
692 01-08-2010 00:00:00 22.90833 C 11.98 g/m*3 22.91 C 0 km/h
693 02-08-2010 00:00:00 19.60917 C 11.25 g/m*3 19.61 C 0 km/h
694 03-08-2010 00:00:00 18.94167 C 10.12 g/m*3 18.94 C 0 km/h
695 04-08-2010 00:00:00 19.62269 C 9.16 g/m*3 19.62 C 0 km/h
696 05-08-2010 00:00:00 18.49417 C 10 g/m*3 18.49 C 0 km/h
697 06-08-2010 00:00:00 19.04667 C 8.08 g/m*3 19.05 C 0 km/h
698 07-08-2010 00:00:00 19.46583 C 7.91 g/m*3 19.47 C 0 km/h
699 08-08-2010 00:00:00 18.485 C 11.68 g/m*3 18.49 C 0 km/h
700 09-08-2010 00:00:00 19.515 C 10.42 g/m*3 19.52 C 0 km/h
Sensor: Nr:Datum:Temp:Abs-Feuchte:Windchill:Wind:
Aussen-T/F 701 10-08-2010 00:00:00 22.13583 C 9.74 g/m*3 22.14 C 0 km/h
702 11-08-2010 00:00:00 20.32833 C 12.64 g/m*3 20.33 C 0 km/h
703 12-08-2010 00:00:00 19.10917 C 11.28 g/m*3 19.11 C 0 km/h
704 13-08-2010 00:00:00 18.77833 C 9.07 g/m*3 18.78 C 0 km/h
705 14-08-2010 00:00:00 19.9675 C 9.59 g/m*3 19.97 C 0 km/h
706 15-08-2010 00:00:00 16.88667 C 11.8 g/m*3 16.89 C 0 km/h
707 16-08-2010 00:00:00 17.07479 C 11.15 g/m*3 17.07 C 0 km/h
708 17-08-2010 00:00:00 16.06667 C 10.71 g/m*3 16.07 C 0 km/h
709 18-08-2010 00:00:00 18.40917 C 9.91 g/m*3 18.41 C 0 km/h
710 19-08-2010 00:00:00 18.88917 C 8.2 g/m*3 18.89 C 0 km/h
711 20-08-2010 00:00:00 20.42605 C 9.9 g/m*3 20.43 C 0 km/h
712 21-08-2010 00:00:00 23.76417 C 11.32 g/m*3 23.76 C 0 km/h
713 22-08-2010 00:00:00 23.01667 C 12.14 g/m*3 23.02 C 0 km/h
714 23-08-2010 00:00:00 21.205 C 13.12 g/m*3 21.21 C 0 km/h
715 24-08-2010 00:00:00 19.27083 C 7.86 g/m*3 19.27 C 0 km/h
716 25-08-2010 00:00:00 17.61917 C 7.68 g/m*3 17.62 C 0 km/h
717 26-08-2010 00:00:00 20.68083 C 11.52 g/m*3 20.68 C 0 km/h
718 27-08-2010 00:00:00 18.37667 C 13.18 g/m*3 18.38 C 0 km/h
719 28-08-2010 00:00:00 14.0675 C 8.89 g/m*3 14.07 C 0 km/h
720 29-08-2010 00:00:00 13.03167 C 8.58 g/m*3 13.03 C 0 km/h
721 30-08-2010 00:00:00 12.5675 C 8.53 g/m*3 12.57 C 0 km/h
722 31-08-2010 00:00:00 15.42917 C 8.4 g/m*3 15.43 C 0 km/h
723 01-09-2010 00:00:00 14.82437 C 8.4 g/m*3 14.82 C 0 km/h
724 02-09-2010 00:00:00 14.95333 C 8.79 g/m*3 14.95 C 0 km/h
725 03-09-2010 00:00:00 15.91417 C 9.06 g/m*3 15.91 C 0 km/h
Sensor: Nr:Datum:Temp:Abs-Feuchte:Windchill:Wind:
Aussen-T/F 726 04-09-2010 00:00:00 16.71417 C 8.43 g/m*3 16.71 C 0 km/h
727 05-09-2010 00:00:00 15.205 C 7.52 g/m*3 15.21 C 0 km/h
728 06-09-2010 00:00:00 15.675 C 6.76 g/m*3 15.68 C 0 km/h
729 07-09-2010 00:00:00 13.36083 C 8.36 g/m*3 13.36 C 0 km/h
730 08-09-2010 00:00:00 15.545 C 10.94 g/m*3 15.55 C 0 km/h
731 09-09-2010 00:00:00 16.20583 C 9.61 g/m*3 16.21 C 0 km/h
732 10-09-2010 00:00:00 16.18 C 10.13 g/m*3 16.18 C 0 km/h
733 11-09-2010 00:00:00 18.13417 C 10.44 g/m*3 18.13 C 0 km/h
734 12-09-2010 00:00:00 16.21667 C 10.52 g/m*3 16.22 C 0 km/h
735 13-09-2010 00:00:00 15.67583 C 9.31 g/m*3 15.68 C 0 km/h
736 14-09-2010 00:00:00 16.63697 C 8.96 g/m*3 16.64 C 0 km/h
737 15-09-2010 00:00:00 16.3175 C 7.82 g/m*3 16.32 C 0 km/h
738 16-09-2010 00:00:00 14.07 C 8.33 g/m*3 14.07 C 0 km/h
739 17-09-2010 00:00:00 13.76667 C 7.53 g/m*3 13.77 C 0 km/h
740 18-09-2010 00:00:00 11.45083 C 6.84 g/m*3 11.45 C 0 km/h
741 19-09-2010 00:00:00 11.7425 C 6.69 g/m*3 11.74 C 0 km/h
742 20-09-2010 00:00:00 14.01 C 7.27 g/m*3 14.01 C 0 km/h
743 21-09-2010 00:00:00 14.27 C 8.52 g/m*3 14.27 C 0 km/h
744 22-09-2010 00:00:00 15.86667 C 9.22 g/m*3 15.87 C 0 km/h
745 23-09-2010 00:00:00 16.56167 C 9.98 g/m*3 16.56 C 0 km/h
746 24-09-2010 00:00:00 14.165 C 11.47 g/m*3 14.17 C 0 km/h
747 25-09-2010 00:00:00 12.41833 C 7.9 g/m*3 12.42 C 0 km/h
748 26-09-2010 00:00:00 11.2425 C 7.29 g/m*3 11.24 C 0 km/h
749 27-09-2010 00:00:00 9.86807 C 7.48 g/m*3 9.87 C 0 km/h
750 28-09-2010 00:00:00 10.93083 C 9.4 g/m*3 10.93 C 0 km/h
Sensor: Nr:Datum:Temp:Abs-Feuchte:Windchill:Wind:
Aussen-T/F 751 29-09-2010 00:00:00 13.39417 C 8.9 g/m*3 13.39 C 0 km/h
752 30-09-2010 00:00:00 11.89667 C 8.83 g/m*3 11.9 C 0 km/h
753 01-10-2010 00:00:00 12.33667 C 9.1 g/m*3 12.34 C 0 km/h
754 02-10-2010 00:00:00 13.4525 C 10.36 g/m*3 13.45 C 0 km/h
755 03-10-2010 00:00:00 17.83583 C 10.56 g/m*3 17.84 C 0 km/h
756 04-10-2010 00:00:00 16.905 C 9.67 g/m*3 16.91 C 0 km/h
757 05-10-2010 00:00:00 15.64833 C 10.9 g/m*3 15.65 C 0 km/h
758 06-10-2010 00:00:00 17.22333 C 9.99 g/m*3 17.22 C 0 km/h
759 07-10-2010 00:00:00 16.31167 C 10.3 g/m*3 16.31 C 0 km/h
760 08-10-2010 00:00:00 16.02917 C 9.37 g/m*3 16.03 C 0 km/h
761 09-10-2010 00:00:00 13.1475 C 8.13 g/m*3 13.15 C 0 km/h
762 10-10-2010 00:00:00 11.6125 C 6.4 g/m*3 11.61 C 0 km/h
763 11-10-2010 00:00:00 10.90084 C 5.45 g/m*3 10.9 C 0 km/h
764 12-10-2010 00:00:00 8.71917 C 5.9 g/m*3 8.72 C 0 km/h
765 13-10-2010 00:00:00 7.475 C 5.54 g/m*3 7.48 C 0 km/h
766 14-10-2010 00:00:00 7.55583 C 5.99 g/m*3 7.56 C 0 km/h
767 15-10-2010 00:00:00 10.475 C 7.36 g/m*3 10.48 C 0 km/h
768 16-10-2010 00:00:00 8.375 C 7.62 g/m*3 8.38 C 0 km/h
769 17-10-2010 00:00:00 7.22667 C 6.33 g/m*3 7.23 C 0 km/h
770 18-10-2010 00:00:00 6.71833 C 5.58 g/m*3 6.72 C 0 km/h
771 19-10-2010 00:00:00 7.28167 C 6.47 g/m*3 7.28 C 0 km/h
772 20-10-2010 00:00:00 6.14167 C 5.97 g/m*3 6.14 C 0 km/h
773 21-10-2010 00:00:00 5.27 C 4.63 g/m*3 5.27 C 0 km/h
774 22-10-2010 00:00:00 4.20167 C 4.11 g/m*3 4.2 C 0 km/h
775 23-10-2010 00:00:00 4.37899 C 4.82 g/m*3 4.38 C 0 km/h
Sensor: Nr:Datum:Temp:Abs-Feuchte:Windchill:Wind:
Aussen-T/F 776 24-10-2010 00:00:00 8.55667 C 5.66 g/m*3 8.56 C 0 km/h
777 25-10-2010 00:00:00 6.1525 C 5.22 g/m*3 6.15 C 0 km/h
778 26-10-2010 00:00:00 3.62417 C 5.12 g/m*3 3.62 C 0 km/h
779 27-10-2010 00:00:00 8.14917 C 4.91 g/m*3 8.15 C 0 km/h
780 28-10-2010 00:00:00 9.1725 C 5.55 g/m*3 9.17 C 0 km/h
781 29-10-2010 00:00:00 6.48333 C 6.48 g/m*3 6.48 C 0 km/h
782 02-11-2010 00:00:00 11.31548 C 6.81 g/m*3 11.32 C 0 km/h
783 03-11-2010 00:00:00 13.10333 C 7.84 g/m*3 13.1 C 0 km/h
784 04-11-2010 00:00:00 16.41167 C 8.7 g/m*3 16.41 C 0 km/h
785 05-11-2010 00:00:00 14.51917 C 7.32 g/m*3 14.52 C 0 km/h
786 06-11-2010 00:00:00 10.40917 C 7.73 g/m*3 10.41 C 0 km/h
787 07-11-2010 00:00:00 6.86917 C 7.11 g/m*3 6.87 C 0 km/h
788 08-11-2010 00:00:00 4.65583 C 5.68 g/m*3 4.66 C 0 km/h
789 09-11-2010 00:00:00 6.65667 C 6.48 g/m*3 6.66 C 0 km/h
790 10-11-2010 00:00:00 7.08319 C 6.48 g/m*3 7.08 C 0 km/h
791 11-11-2010 00:00:00 5.84167 C 5.32 g/m*3 5.84 C 0 km/h
792 12-11-2010 00:00:00 11.04083 C 6.73 g/m*3 11.04 C 0 km/h
793 13-11-2010 00:00:00 14.51917 C 8.83 g/m*3 14.52 C 0 km/h
794 14-11-2010 00:00:00 14.60833 C 7.79 g/m*3 14.61 C 0 km/h
795 15-11-2010 00:00:00 9.47833 C 6.15 g/m*3 9.48 C 0 km/h
796 16-11-2010 00:00:00 6.0125 C 5.77 g/m*3 6.01 C 0 km/h
797 17-11-2010 00:00:00 5.3125 C 5.17 g/m*3 5.31 C 0 km/h
798 18-11-2010 00:00:00 5.61917 C 5.95 g/m*3 5.62 C 0 km/h
799 19-11-2010 00:00:00 6.4275 C 6.1 g/m*3 6.43 C 0 km/h
800 20-11-2010 00:00:00 4.8325 C 5.94 g/m*3 4.83 C 0 km/h
Sensor: Nr:Datum:Temp:Abs-Feuchte:Windchill:Wind:
Aussen-T/F 801 21-11-2010 00:00:00 4.48333 C 4.84 g/m*3 4.48 C 0 km/h
802 22-11-2010 00:00:00 4.47417 C 4.96 g/m*3 4.47 C 0 km/h
803 23-11-2010 00:00:00 4.54118 C 4.59 g/m*3 4.54 C 0 km/h
804 24-11-2010 00:00:00 3.415 C 4.9 g/m*3 3.42 C 0 km/h
805 25-11-2010 00:00:00 1.74083 C 4.39 g/m*3 1.74 C 0 km/h
806 26-11-2010 00:00:00 -0.29083 C 4.18 g/m*3 -0.29 C 0 km/h
807 27-11-2010 00:00:00 -1.99167 C 3.56 g/m*3 -1.99 C 0 km/h
808 28-11-2010 00:00:00 -1.325 C 3.55 g/m*3 -1.33 C 0 km/h
809 29-11-2010 00:00:00 -1.55833 C 3.51 g/m*3 -1.56 C 0 km/h
810 30-11-2010 00:00:00 -1.9425 C 3.4 g/m*3 -1.94 C 0 km/h
811 01-12-2010 00:00:00 -5.7325 C 1.99 g/m*3 -5.73 C 0 km/h
812 02-12-2010 00:00:00 -7.03167 C 2.03 g/m*3 -7.03 C 0 km/h
813 03-12-2010 00:00:00 -7.38583 C 2.19 g/m*3 -7.39 C 0 km/h
814 04-12-2010 00:00:00 -3.48167 C 2.61 g/m*3 -3.48 C 0 km/h
815 05-12-2010 00:00:00 0.91667 C 3.38 g/m*3 0.92 C 0 km/h
816 06-12-2010 00:00:00 0.24538 C 4.01 g/m*3 0.25 C 0 km/h
817 07-12-2010 00:00:00 -0.20833 C 3.88 g/m*3 -0.21 C 0 km/h
818 08-12-2010 00:00:00 -0.25917 C 4.32 g/m*3 -0.26 C 0 km/h
819 09-12-2010 00:00:00 0.61333 C 3.92 g/m*3 0.61 C 0 km/h
820 10-12-2010 00:00:00 1.73333 C 4.69 g/m*3 1.73 C 0 km/h
821 11-12-2010 00:00:00 4.07583 C 5.18 g/m*3 4.08 C 0 km/h
822 12-12-2010 00:00:00 3.085 C 4.57 g/m*3 3.09 C 0 km/h
823 13-12-2010 00:00:00 -4.44833 C 2.51 g/m*3 -4.45 C 0 km/h
824 14-12-2010 00:00:00 -3.65833 C 2.82 g/m*3 -3.66 C 0 km/h
825 15-12-2010 00:00:00 -3.1275 C 2.86 g/m*3 -3.13 C 0 km/h
Sensor: Nr:Datum:Temp:Abs-Feuchte:Windchill:Wind:
Aussen-T/F 826 16-12-2010 00:00:00 -3.4675 C 2.96 g/m*3 -3.47 C 0 km/h
827 17-12-2010 00:00:00 -2.77417 C 2.92 g/m*3 -2.77 C 0 km/h
828 18-12-2010 00:00:00 -4.65833 C 2.74 g/m*3 -4.66 C 0 km/h
829 19-12-2010 00:00:00 -0.7125 C 3.86 g/m*3 -0.71 C 0 km/h
830 20-12-2010 00:00:00 -1.53667 C 3.48 g/m*3 -1.54 C 0 km/h
831 21-12-2010 00:00:00 -0.65546 C 4 g/m*3 -0.66 C 0 km/h
832 22-12-2010 00:00:00 0.9225 C 4.66 g/m*3 0.92 C 0 km/h
833 23-12-2010 00:00:00 -0.36833 C 4.23 g/m*3 -0.37 C 0 km/h
834 24-12-2010 00:00:00 -1.77438 C 3.53 g/m*3 -1.77 C 0 km/h
835 25-12-2010 00:00:00 -5.4775 C 2.37 g/m*3 -5.48 C 0 km/h
836 26-12-2010 00:00:00 -4.87833 C 2.59 g/m*3 -4.88 C 0 km/h
837 27-12-2010 00:00:00 -2.21833 C 3.28 g/m*3 -2.22 C 0 km/h
838 28-12-2010 00:00:00 -2.07899 C 3.35 g/m*3 -2.08 C 0 km/h
839 29-12-2010 00:00:00 -0.255 C 3.76 g/m*3 -0.26 C 0 km/h
840 30-12-2010 00:00:00 -0.55333 C 3.62 g/m*3 -0.55 C 0 km/h
841 31-12-2010 00:00:00 -1.09187 C 3.57 g/m*3 -1.09 C 0 km/h
842 01-01-2011 00:00:00 1.07311 C 4.52 g/m*3 1.07 C 0 km/h
843 02-01-2011 00:00:00 0.8025 C 4.39 g/m*3 0.8 C 0 km/h
844 03-01-2011 00:00:00 -0.9125 C 3.88 g/m*3 -0.91 C 0 km/h
845 04-01-2011 00:00:00 -2.36667 C 3.35 g/m*3 -2.37 C 0 km/h
846 05-01-2011 00:00:00 -3.83583 C 2.66 g/m*3 -3.84 C 0 km/h
847 06-01-2011 00:00:00 3.72667 C 5.49 g/m*3 3.73 C 0 km/h
848 07-01-2011 00:00:00 6.91833 C 6.93 g/m*3 6.92 C 0 km/h
849 08-01-2011 00:00:00 10.5675 C 7.09 g/m*3 10.57 C 0 km/h
850 09-01-2011 00:00:00 5.08655 C 5.84 g/m*3 5.09 C 0 km/h
Sensor: Nr:Datum:Temp:Abs-Feuchte:Windchill:Wind:
Aussen-T/F 851 10-01-2011 00:00:00 0.7175 C 4.39 g/m*3 0.72 C 0 km/h
852 11-01-2011 00:00:00 3.43667 C 4.81 g/m*3 3.44 C 0 km/h
853 12-01-2011 00:00:00 5.44 C 5.5 g/m*3 5.44 C 0 km/h
854 13-01-2011 00:00:00 11.80333 C 8.2 g/m*3 11.8 C 0 km/h
855 14-01-2011 00:00:00 11.77417 C 6.94 g/m*3 11.77 C 0 km/h
856 15-01-2011 00:00:00 8.68167 C 5.98 g/m*3 8.68 C 0 km/h
857 16-01-2011 00:00:00 6.84167 C 5.88 g/m*3 6.84 C 0 km/h
858 17-01-2011 00:00:00 3.62917 C 5.41 g/m*3 3.63 C 0 km/h
859 18-01-2011 00:00:00 7.28833 C 6.01 g/m*3 7.29 C 0 km/h
860 19-01-2011 00:00:00 3.30833 C 4.71 g/m*3 3.31 C 0 km/h
861 20-01-2011 00:00:00 1.7 C 4.36 g/m*3 1.7 C 0 km/h
862 21-01-2011 00:00:00 -0.0675 C 3.06 g/m*3 -0.07 C 0 km/h
863 22-01-2011 00:00:00 0.39664 C 3.9 g/m*3 0.4 C 0 km/h
864 23-01-2011 00:00:00 1.50167 C 4.65 g/m*3 1.5 C 0 km/h
865 24-01-2011 00:00:00 3.10167 C 5.07 g/m*3 3.1 C 0 km/h
866 25-01-2011 00:00:00 2.49833 C 4.56 g/m*3 2.5 C 0 km/h
867 26-01-2011 00:00:00 0.84083 C 4.26 g/m*3 0.84 C 0 km/h
868 27-01-2011 00:00:00 -0.28583 C 3.4 g/m*3 -0.29 C 0 km/h
869 28-01-2011 00:00:00 -1.27083 C 2.87 g/m*3 -1.27 C 0 km/h
870 29-01-2011 00:00:00 -4.9 C 2.7 g/m*3 -4.9 C 0 km/h
871 30-01-2011 00:00:00 -6.20917 C 2.48 g/m*3 -6.21 C 0 km/h
872 31-01-2011 00:00:00 -5.73833 C 2.59 g/m*3 -5.74 C 0 km/h
873 01-02-2011 00:00:00 -4.03917 C 2.66 g/m*3 -4.04 C 0 km/h
874 02-02-2011 00:00:00 -0.865 C 3.47 g/m*3 -0.87 C 0 km/h
875 03-02-2011 00:00:00 1.94454 C 4.48 g/m*3 1.94 C 0 km/h
Sensor: Nr:Datum:Temp:Abs-Feuchte:Windchill:Wind:
Aussen-T/F 876 04-02-2011 00:00:00 6.18583 C 5.15 g/m*3 6.19 C 0 km/h
877 05-02-2011 00:00:00 9.25833 C 5.56 g/m*3 9.26 C 0 km/h
878 06-02-2011 00:00:00 8.62 C 5.16 g/m*3 8.62 C 0 km/h
879 07-02-2011 00:00:00 6.48083 C 4.13 g/m*3 6.48 C 0 km/h
880 08-02-2011 00:00:00 5.48833 C 4.56 g/m*3 5.49 C 0 km/h
881 09-02-2011 00:00:00 -0.23333 C 3.95 g/m*3 -0.23 C 0 km/h
882 10-02-2011 00:00:00 3.9425 C 4.99 g/m*3 3.94 C 0 km/h
883 11-02-2011 00:00:00 10.23917 C 7.08 g/m*3 10.24 C 0 km/h
884 12-02-2011 00:00:00 6.88 C 6.26 g/m*3 6.88 C 0 km/h
885 13-02-2011 00:00:00 5.13417 C 5.66 g/m*3 5.13 C 0 km/h
886 14-02-2011 00:00:00 5.215 C 5.63 g/m*3 5.22 C 0 km/h
887 15-02-2011 00:00:00 5.14958 C 5.71 g/m*3 5.15 C 0 km/h
888 16-02-2011 00:00:00 4.90417 C 5.38 g/m*3 4.9 C 0 km/h
889 17-02-2011 00:00:00 1.96333 C 4.29 g/m*3 1.96 C 0 km/h
890 18-02-2011 00:00:00 2.23667 C 4.1 g/m*3 2.24 C 0 km/h
891 19-02-2011 00:00:00 2.82833 C 4.31 g/m*3 2.83 C 0 km/h
892 20-02-2011 00:00:00 0.7 C 3.16 g/m*3 0.7 C 0 km/h
893 21-02-2011 00:00:00 -1.8125 C 2.2 g/m*3 -1.81 C 0 km/h
894 22-02-2011 00:00:00 -3.39167 C 1.99 g/m*3 -3.39 C 0 km/h
895 23-02-2011 00:00:00 -2.66583 C 2.02 g/m*3 -2.67 C 0 km/h
896 24-02-2011 00:00:00 0.91083 C 3.9 g/m*3 0.91 C 0 km/h
897 25-02-2011 00:00:00 3.445 C 5.16 g/m*3 3.45 C 0 km/h
898 26-02-2011 00:00:00 5.07167 C 5.18 g/m*3 5.07 C 0 km/h
899 27-02-2011 00:00:00 5.47731 C 5.17 g/m*3 5.48 C 0 km/h
900 28-02-2011 00:00:00 4.52333 C 4.47 g/m*3 4.52 C 0 km/h
Sensor: Nr:Datum:Temp:Abs-Feuchte:Windchill:Wind:
Aussen-T/F 901 01-03-2011 00:00:00 4.31167 C 4.54 g/m*3 4.31 C 0 km/h
902 02-03-2011 00:00:00 3.41 C 3.07 g/m*3 3.41 C 0 km/h
903 03-03-2011 00:00:00 1.585 C 2.66 g/m*3 1.59 C 0 km/h
904 04-03-2011 00:00:00 2.1825 C 3.4 g/m*3 2.18 C 0 km/h
905 05-03-2011 00:00:00 0.19833 C 3.69 g/m*3 0.2 C 0 km/h
906 06-03-2011 00:00:00 1.7325 C 3.29 g/m*3 1.73 C 0 km/h
907 07-03-2011 00:00:00 1.05667 C 2.45 g/m*3 1.06 C 0 km/h
908 08-03-2011 00:00:00 1.92583 C 2.89 g/m*3 1.93 C 0 km/h
909 09-03-2011 00:00:00 6.48333 C 4.63 g/m*3 6.48 C 0 km/h
910 10-03-2011 00:00:00 7.3 C 4.55 g/m*3 7.3 C 0 km/h
911 11-03-2011 00:00:00 8.78571 C 4.65 g/m*3 8.79 C 0 km/h
912 12-03-2011 00:00:00 7.3525 C 4.83 g/m*3 7.35 C 0 km/h
913 13-03-2011 00:00:00 11.07917 C 6.51 g/m*3 11.08 C 0 km/h
914 14-03-2011 00:00:00 10.09917 C 7.33 g/m*3 10.1 C 0 km/h
915 15-03-2011 00:00:00 10.73917 C 6.79 g/m*3 10.74 C 0 km/h
916 16-03-2011 00:00:00 8.73583 C 5.74 g/m*3 8.74 C 0 km/h
917 17-03-2011 00:00:00 6.295 C 5.87 g/m*3 6.3 C 0 km/h
918 18-03-2011 00:00:00 6.41833 C 5.24 g/m*3 6.42 C 0 km/h
919 19-03-2011 00:00:00 6.63 C 4.93 g/m*3 6.63 C 0 km/h
920 20-03-2011 00:00:00 3.39167 C 3.78 g/m*3 3.39 C 0 km/h
921 21-03-2011 00:00:00 4.66333 C 3.99 g/m*3 4.66 C 0 km/h
922 22-03-2011 00:00:00 6.83333 C 4.54 g/m*3 6.83 C 0 km/h
923 23-03-2011 00:00:00 8.59333 C 5.59 g/m*3 8.59 C 0 km/h
924 24-03-2011 00:00:00 9.14417 C 5.42 g/m*3 9.14 C 0 km/h
925 25-03-2011 00:00:00 9.65798 C 5.14 g/m*3 9.66 C 0 km/h
Sensor: Nr:Datum:Temp:Abs-Feuchte:Windchill:Wind:
Aussen-T/F 926 26-03-2011 00:00:00 8.11917 C 4.97 g/m*3 8.12 C 0 km/h
927 27-03-2011 00:00:00 9.62174 C 4.9 g/m*3 9.62 C 0 km/h
928 28-03-2011 00:00:00 7.7225 C 4.66 g/m*3 7.72 C 0 km/h
929 29-03-2011 00:00:00 7.42083 C 4.65 g/m*3 7.42 C 0 km/h
930 30-03-2011 00:00:00 8.36333 C 5.61 g/m*3 8.36 C 0 km/h
931 31-03-2011 00:00:00 12.03833 C 7.81 g/m*3 12.04 C 0 km/h
932 01-04-2011 00:00:00 13.985 C 8.25 g/m*3 13.99 C 0 km/h
933 02-04-2011 00:00:00 14.21833 C 8.12 g/m*3 14.22 C 0 km/h
934 03-04-2011 00:00:00 11.81167 C 8.04 g/m*3 11.81 C 0 km/h
935 04-04-2011 00:00:00 10.68333 C 6.57 g/m*3 10.68 C 0 km/h
936 05-04-2011 00:00:00 9.30833 C 6.12 g/m*3 9.31 C 0 km/h
937 06-04-2011 00:00:00 15.69167 C 8.48 g/m*3 15.69 C 0 km/h
938 07-04-2011 00:00:00 16.35294 C 8.33 g/m*3 16.35 C 0 km/h
939 08-04-2011 00:00:00 13.4925 C 6.55 g/m*3 13.49 C 0 km/h
940 09-04-2011 00:00:00 12.96917 C 5.63 g/m*3 12.97 C 0 km/h
941 10-04-2011 00:00:00 12.2825 C 6.01 g/m*3 12.28 C 0 km/h
942 11-04-2011 00:00:00 14.76333 C 6.76 g/m*3 14.76 C 0 km/h
943 12-04-2011 00:00:00 10.27917 C 5.45 g/m*3 10.28 C 0 km/h
944 13-04-2011 00:00:00 7.60083 C 4.45 g/m*3 7.6 C 0 km/h
945 14-04-2011 00:00:00 8.3025 C 4.49 g/m*3 8.3 C 0 km/h
946 15-04-2011 00:00:00 7.43583 C 4.66 g/m*3 7.44 C 0 km/h
947 16-04-2011 00:00:00 8.14667 C 4.58 g/m*3 8.15 C 0 km/h
948 17-04-2011 00:00:00 11.61917 C 4.82 g/m*3 11.62 C 0 km/h
949 18-04-2011 00:00:00 10.9521 C 5.51 g/m*3 10.95 C 0 km/h
950 19-04-2011 00:00:00 12.87583 C 6.2 g/m*3 12.88 C 0 km/h
Sensor: Nr:Datum:Temp:Abs-Feuchte:Windchill:Wind:
Aussen-T/F 951 20-04-2011 00:00:00 13.54917 C 6.5 g/m*3 13.55 C 0 km/h
952 21-04-2011 00:00:00 14.49333 C 6.84 g/m*3 14.49 C 0 km/h
953 22-04-2011 00:00:00 16.35083 C 7.67 g/m*3 16.35 C 0 km/h
954 23-04-2011 00:00:00 18.26083 C 9.25 g/m*3 18.26 C 0 km/h
955 24-04-2011 00:00:00 16.74333 C 7.71 g/m*3 16.74 C 0 km/h
956 25-04-2011 00:00:00 15.975 C 6.16 g/m*3 15.98 C 0 km/h
957 26-04-2011 00:00:00 12.8275 C 6.81 g/m*3 12.83 C 0 km/h
958 27-04-2011 00:00:00 11.27167 C 7.84 g/m*3 11.27 C 0 km/h
959 28-04-2011 00:00:00 13.99 C 8.66 g/m*3 13.99 C 0 km/h
960 29-04-2011 00:00:00 15.08333 C 8.49 g/m*3 15.08 C 0 km/h
961 30-04-2011 00:00:00 15.42 C 7.44 g/m*3 15.42 C 0 km/h
962 01-05-2011 00:00:00 15.09328 C 4.89 g/m*3 15.09 C 0 km/h
963 02-05-2011 00:00:00 11.83333 C 4.67 g/m*3 11.83 C 0 km/h
964 03-05-2011 00:00:00 10.93167 C 4.17 g/m*3 10.93 C 0 km/h
965 04-05-2011 00:00:00 8.28 C 4.54 g/m*3 8.28 C 0 km/h
966 05-05-2011 00:00:00 10.32333 C 5.35 g/m*3 10.32 C 0 km/h
967 06-05-2011 00:00:00 13.52917 C 6.22 g/m*3 13.53 C 0 km/h
968 07-05-2011 00:00:00 17.6125 C 7.44 g/m*3 17.61 C 0 km/h
969 08-05-2011 00:00:00 19.07167 C 6.15 g/m*3 19.07 C 0 km/h
970 09-05-2011 00:00:00 18.40083 C 6.19 g/m*3 18.4 C 0 km/h
971 10-05-2011 00:00:00 17.95833 C 7.69 g/m*3 17.96 C 0 km/h
972 11-05-2011 00:00:00 18.40667 C 9.52 g/m*3 18.41 C 0 km/h
973 12-05-2011 00:00:00 15.77833 C 7.19 g/m*3 15.78 C 0 km/h
974 13-05-2011 00:00:00 13.68403 C 6.25 g/m*3 13.68 C 0 km/h
975 14-05-2011 00:00:00 12.59917 C 5.87 g/m*3 12.6 C 0 km/h
Sensor: Nr:Datum:Temp:Abs-Feuchte:Windchill:Wind:
Aussen-T/F 976 15-05-2011 00:00:00 10.34333 C 6.13 g/m*3 10.34 C 0 km/h
977 16-05-2011 00:00:00 12.58667 C 6.68 g/m*3 12.59 C 0 km/h
978 17-05-2011 00:00:00 17.04083 C 7.51 g/m*3 17.04 C 0 km/h
979 18-05-2011 00:00:00 16.60583 C 7.79 g/m*3 16.61 C 0 km/h
980 19-05-2011 00:00:00 17.10833 C 9.04 g/m*3 17.11 C 0 km/h
981 20-05-2011 00:00:00 16.53 C 10.17 g/m*3 16.53 C 0 km/h
982 21-05-2011 00:00:00 19.16077 C 9.98 g/m*3 19.16 C 0 km/h
983 22-05-2011 00:00:00 16.79593 C 8.96 g/m*3 16.8 C 0 km/h
984 23-05-2011 00:00:00 16.00167 C 6.77 g/m*3 16 C 0 km/h
985 24-05-2011 00:00:00 15.90583 C 6.52 g/m*3 15.91 C 0 km/h
986 25-05-2011 00:00:00 15.29333 C 5.83 g/m*3 15.29 C 0 km/h
987 26-05-2011 00:00:00 16.04833 C 5.88 g/m*3 16.05 C 0 km/h
988 27-05-2011 00:00:00 14.61 C 5.61 g/m*3 14.61 C 0 km/h
989 28-05-2011 00:00:00 15.2875 C 6.34 g/m*3 15.29 C 0 km/h
990 29-05-2011 00:00:00 19.21849 C 6.84 g/m*3 19.22 C 0 km/h
991 30-05-2011 00:00:00 20.91333 C 8.63 g/m*3 20.91 C 0 km/h
992 31-05-2011 00:00:00 14.84583 C 9.06 g/m*3 14.85 C 0 km/h
993 01-06-2011 00:00:00 14.86083 C 7 g/m*3 14.86 C 0 km/h
994 02-06-2011 00:00:00 19.79167 C 7.15 g/m*3 19.79 C 0 km/h
995 03-06-2011 00:00:00 20.65583 C 6.79 g/m*3 20.66 C 0 km/h
996 04-06-2011 00:00:00 21.20417 C 10.39 g/m*3 21.2 C 0 km/h
997 05-06-2011 00:00:00 18.63333 C 12.99 g/m*3 18.63 C 0 km/h
998 06-06-2011 00:00:00 18.38667 C 11.93 g/m*3 18.39 C 0 km/h
999 07-06-2011 00:00:00 20.62417 C 10.99 g/m*3 20.62 C 0 km/h
1000 08-06-2011 00:00:00 15.695 C 8.9 g/m*3 15.7 C 0 km/h
Sensor: Nr:Datum:Temp:Abs-Feuchte:Windchill:Wind:
Aussen-T/F 1001 09-06-2011 00:00:00 14.09328 C 8.28 g/m*3 14.09 C 0 km/h
1002 10-06-2011 00:00:00 14.6563 C 8.82 g/m*3 14.66 C 0 km/h
1003 11-06-2011 00:00:00 15.99417 C 8.05 g/m*3 15.99 C 0 km/h
1004 12-06-2011 00:00:00 15.21167 C 7.37 g/m*3 15.21 C 0 km/h
1005 13-06-2011 00:00:00 16.92167 C 8.46 g/m*3 16.92 C 0 km/h
1006 14-06-2011 00:00:00 20.63333 C 10.65 g/m*3 20.63 C 0 km/h
1007 15-06-2011 00:00:00 19.88909 C 10.18 g/m*3 19.89 C 0 km/h
1008 16-06-2011 00:00:00 15.99375 C 8.34 g/m*3 15.99 C 0 km/h
1009 17-06-2011 00:00:00 15.96417 C 8.11 g/m*3 15.96 C 0 km/h
1010 18-06-2011 00:00:00 15.91083 C 7.98 g/m*3 15.91 C 0 km/h
1011 19-06-2011 00:00:00 14.57917 C 7.13 g/m*3 14.58 C 0 km/h
1012 20-06-2011 00:00:00 13.67417 C 9.25 g/m*3 13.67 C 0 km/h
1013 21-06-2011 00:00:00 19.2575 C 11.21 g/m*3 19.26 C 0 km/h
1014 22-06-2011 00:00:00 18.02773 C 11.1 g/m*3 18.03 C 0 km/h
1015 23-06-2011 00:00:00 16.265 C 8.2 g/m*3 16.27 C 0 km/h
1016 24-06-2011 00:00:00 14.2775 C 7.18 g/m*3 14.28 C 0 km/h
1017 25-06-2011 00:00:00 13.42417 C 9.02 g/m*3 13.42 C 0 km/h
1018 26-06-2011 00:00:00 15 C 10.26 g/m*3 15 C 0 km/h
1019 27-06-2011 00:00:00 17.65667 C 10.91 g/m*3 17.66 C 0 km/h
1020 28-06-2011 00:00:00 25.33167 C 11.62 g/m*3 25.33 C 0 km/h
1021 29-06-2011 00:00:00 20.62 C 11.48 g/m*3 20.62 C 0 km/h
1022 30-06-2011 00:00:00 17.92833 C 7.15 g/m*3 17.93 C 0 km/h
1023 01-07-2011 00:00:00 15.115 C 8.01 g/m*3 15.12 C 0 km/h
1024 02-07-2011 00:00:00 14.5975 C 7.11 g/m*3 14.6 C 0 km/h
1025 03-07-2011 00:00:00 16.875 C 7.12 g/m*3 16.88 C 0 km/h
Sensor: Nr:Datum:Temp:Abs-Feuchte:Windchill:Wind:
Aussen-T/F 1026 04-07-2011 00:00:00 16.2 C 7.58 g/m*3 16.2 C 0 km/h
1027 05-07-2011 00:00:00 24.435 C 9.98 g/m*3 24.44 C 0 km/h
1028 06-07-2011 00:00:00 20.39333 C 9.1 g/m*3 20.39 C 0 km/h
1029 07-07-2011 00:00:00 19.52083 C 8.94 g/m*3 19.52 C 0 km/h
1030 08-07-2011 00:00:00 19.92333 C 8.54 g/m*3 19.92 C 0 km/h
1031 09-07-2011 00:00:00 21.28083 C 8.6 g/m*3 21.28 C 0 km/h
1032 10-07-2011 00:00:00 18.22833 C 9.4 g/m*3 18.23 C 0 km/h
1033 11-07-2011 00:00:00 20.90417 C 10.03 g/m*3 20.9 C 0 km/h
1034 12-07-2011 00:00:00 19.89917 C 10.56 g/m*3 19.9 C 0 km/h
1035 13-07-2011 00:00:00 15.985 C 10.63 g/m*3 15.99 C 0 km/h
1036 14-07-2011 00:00:00 15.70417 C 6.99 g/m*3 15.7 C 0 km/h
1037 15-07-2011 00:00:00 18.7025 C 6.71 g/m*3 18.7 C 0 km/h
1038 16-07-2011 00:00:00 18.92269 C 7.49 g/m*3 18.92 C 0 km/h
1039 17-07-2011 00:00:00 17.68667 C 9.94 g/m*3 17.69 C 0 km/h
1040 18-07-2011 00:00:00 16.98583 C 8.21 g/m*3 16.99 C 0 km/h
1041 19-07-2011 00:00:00 16.52167 C 9.22 g/m*3 16.52 C 0 km/h
1042 20-07-2011 00:00:00 15.91917 C 10.35 g/m*3 15.92 C 0 km/h
1043 21-07-2011 00:00:00 16.59583 C 10.82 g/m*3 16.6 C 0 km/h
1044 22-07-2011 00:00:00 16.87083 C 8.36 g/m*3 16.87 C 0 km/h
1045 23-07-2011 00:00:00 13.94417 C 7.47 g/m*3 13.94 C 0 km/h
1046 24-07-2011 00:00:00 12.63083 C 8.38 g/m*3 12.63 C 0 km/h
1047 25-07-2011 00:00:00 16.39417 C 8.85 g/m*3 16.39 C 0 km/h
1048 26-07-2011 00:00:00 16.5375 C 10.33 g/m*3 16.54 C 0 km/h
1049 27-07-2011 00:00:00 17.045 C 11.16 g/m*3 17.05 C 0 km/h
1050 28-07-2011 00:00:00 18.71345 C 11.5 g/m*3 18.71 C 0 km/h
Sensor: Nr:Datum:Temp:Abs-Feuchte:Windchill:Wind:
Aussen-T/F 1051 29-07-2011 00:00:00 17.87583 C 9.99 g/m*3 17.88 C 0 km/h
1052 30-07-2011 00:00:00 15.04833 C 8.6 g/m*3 15.05 C 0 km/h
1053 31-07-2011 00:00:00 15.27667 C 7.67 g/m*3 15.28 C 0 km/h
1054 01-08-2011 00:00:00 16.885 C 8.98 g/m*3 16.89 C 0 km/h
1055 02-08-2011 00:00:00 20.45917 C 10.66 g/m*3 20.46 C 0 km/h
1056 03-08-2011 00:00:00 19.3425 C 12.45 g/m*3 19.34 C 0 km/h
1057 04-08-2011 00:00:00 21.59083 C 12.52 g/m*3 21.59 C 0 km/h
1058 05-08-2011 00:00:00 22.10417 C 12.9 g/m*3 22.1 C 0 km/h
1059 06-08-2011 00:00:00 19.43333 C 13.51 g/m*3 19.43 C 0 km/h
1060 07-08-2011 00:00:00 17.99583 C 9.29 g/m*3 18 C 0 km/h
1061 08-08-2011 00:00:00 15.61 C 8.66 g/m*3 15.61 C 0 km/h
1062 09-08-2011 00:00:00 15.21177 C 8.52 g/m*3 15.21 C 0 km/h
1063 10-08-2011 00:00:00 11.545 C 7.33 g/m*3 11.55 C 0 km/h
1064 11-08-2011 00:00:00 15.27417 C 7.81 g/m*3 15.27 C 0 km/h
1065 12-08-2011 00:00:00 17.7625 C 10.87 g/m*3 17.76 C 0 km/h
1066 13-08-2011 00:00:00 19.08833 C 11.8 g/m*3 19.09 C 0 km/h
1067 14-08-2011 00:00:00 18.79167 C 12.74 g/m*3 18.79 C 0 km/h
1068 15-08-2011 00:00:00 19.07917 C 10.51 g/m*3 19.08 C 0 km/h
1069 16-08-2011 00:00:00 18.73083 C 9.69 g/m*3 18.73 C 0 km/h
1070 17-08-2011 00:00:00 18.89 C 10.72 g/m*3 18.89 C 0 km/h
1071 18-08-2011 00:00:00 22.63167 C 12.33 g/m*3 22.63 C 0 km/h
1072 19-08-2011 00:00:00 19.24667 C 11.36 g/m*3 19.25 C 0 km/h
1073 20-08-2011 00:00:00 18.59833 C 10.46 g/m*3 18.6 C 0 km/h
1074 21-08-2011 00:00:00 20.63583 C 12.38 g/m*3 20.64 C 0 km/h
1075 22-08-2011 00:00:00 23.83613 C 13.38 g/m*3 23.84 C 0 km/h
Sensor: Nr:Datum:Temp:Abs-Feuchte:Windchill:Wind:
Aussen-T/F 1076 23-08-2011 00:00:00 23.46583 C 12.87 g/m*3 23.47 C 0 km/h
1077 24-08-2011 00:00:00 20.97833 C 12.32 g/m*3 20.98 C 0 km/h
1078 25-08-2011 00:00:00 20.68833 C 12.56 g/m*3 20.69 C 0 km/h
1079 26-08-2011 00:00:00 20.87 C 13.51 g/m*3 20.87 C 0 km/h
1080 27-08-2011 00:00:00 15.035 C 9.87 g/m*3 15.04 C 0 km/h
1081 28-08-2011 00:00:00 15.25583 C 8.29 g/m*3 15.26 C 0 km/h
1082 29-08-2011 00:00:00 14.68667 C 7.47 g/m*3 14.69 C 0 km/h
1083 30-08-2011 00:00:00 12.15833 C 7.48 g/m*3 12.16 C 0 km/h
1084 31-08-2011 00:00:00 13.1325 C 7.9 g/m*3 13.13 C 0 km/h
1085 01-09-2011 00:00:00 15.16083 C 8.72 g/m*3 15.16 C 0 km/h
1086 02-09-2011 00:00:00 17.55667 C 10.68 g/m*3 17.56 C 0 km/h
1087 03-09-2011 00:00:00 20.71597 C 12.56 g/m*3 20.72 C 0 km/h
1088 04-09-2011 00:00:00 21.65833 C 12.72 g/m*3 21.66 C 0 km/h
1089 05-09-2011 00:00:00 17.79667 C 7.96 g/m*3 17.8 C 0 km/h
1090 06-09-2011 00:00:00 15.93333 C 7.85 g/m*3 15.93 C 0 km/h
1091 07-09-2011 00:00:00 16.43 C 7.86 g/m*3 16.43 C 0 km/h
1092 08-09-2011 00:00:00 15.3775 C 7.81 g/m*3 15.38 C 0 km/h
1093 09-09-2011 00:00:00 18.46 C 11.77 g/m*3 18.46 C 0 km/h
1094 10-09-2011 00:00:00 21.15667 C 14.36 g/m*3 21.16 C 0 km/h
1095 11-09-2011 00:00:00 17.895 C 12.4 g/m*3 17.9 C 0 km/h
1096 12-09-2011 00:00:00 17.43583 C 10.22 g/m*3 17.44 C 0 km/h
1097 13-09-2011 00:00:00 18.005 C 10.27 g/m*3 18.01 C 0 km/h
1098 14-09-2011 00:00:00 14.43917 C 7.46 g/m*3 14.44 C 0 km/h
1099 15-09-2011 00:00:00 13.91583 C 7.97 g/m*3 13.92 C 0 km/h
1100 16-09-2011 00:00:00 12.79667 C 8.83 g/m*3 12.8 C 0 km/h
Sensor: Nr:Datum:Temp:Abs-Feuchte:Windchill:Wind:
Aussen-T/F 1101 17-09-2011 00:00:00 16.78824 C 9.66 g/m*3 16.79 C 0 km/h
1102 18-09-2011 00:00:00 12.7625 C 8.18 g/m*3 12.76 C 0 km/h
1103 19-09-2011 00:00:00 12.76833 C 7.68 g/m*3 12.77 C 0 km/h
1104 20-09-2011 00:00:00 12.41333 C 8.1 g/m*3 12.41 C 0 km/h
1105 21-09-2011 00:00:00 13.775 C 8.34 g/m*3 13.78 C 0 km/h
1106 22-09-2011 00:00:00 15.79167 C 7.98 g/m*3 15.79 C 0 km/h
1107 23-09-2011 00:00:00 14.20917 C 7.92 g/m*3 14.21 C 0 km/h
1108 24-09-2011 00:00:00 12.8025 C 8.32 g/m*3 12.8 C 0 km/h
1109 25-09-2011 00:00:00 14.1125 C 9.33 g/m*3 14.11 C 0 km/h
1110 26-09-2011 00:00:00 15.74917 C 10.22 g/m*3 15.75 C 0 km/h
1111 27-09-2011 00:00:00 17.1525 C 10.93 g/m*3 17.15 C 0 km/h
1112 28-09-2011 00:00:00 16.71 C 11.03 g/m*3 16.71 C 0 km/h
1113 29-09-2011 00:00:00 16.13167 C 10.33 g/m*3 16.13 C 0 km/h
1114 30-09-2011 00:00:00 14.48824 C 9.37 g/m*3 14.49 C 0 km/h
1115 01-10-2011 00:00:00 14.3525 C 9.54 g/m*3 14.35 C 0 km/h
1116 02-10-2011 00:00:00 14.74 C 9.74 g/m*3 14.74 C 0 km/h
1117 03-10-2011 00:00:00 15.125 C 9.75 g/m*3 15.13 C 0 km/h
1118 04-10-2011 00:00:00 16.96167 C 9.11 g/m*3 16.96 C 0 km/h
1119 05-10-2011 00:00:00 17.94667 C 9.13 g/m*3 17.95 C 0 km/h
1120 06-10-2011 00:00:00 14.175 C 8.46 g/m*3 14.18 C 0 km/h
1121 07-10-2011 00:00:00 9.92583 C 6.22 g/m*3 9.93 C 0 km/h
1122 08-10-2011 00:00:00 9.01167 C 6.47 g/m*3 9.01 C 0 km/h
1123 09-10-2011 00:00:00 9.11667 C 7.02 g/m*3 9.12 C 0 km/h
1124 10-10-2011 00:00:00 16.5475 C 9.61 g/m*3 16.55 C 0 km/h
1125 11-10-2011 00:00:00 16.37917 C 8.72 g/m*3 16.38 C 0 km/h
Sensor: Nr:Datum:Temp:Abs-Feuchte:Windchill:Wind:
Aussen-T/F 1126 12-10-2011 00:00:00 15.74333 C 8.96 g/m*3 15.74 C 0 km/h
1127 13-10-2011 00:00:00 10.145 C 6.96 g/m*3 10.15 C 0 km/h
1128 14-10-2011 00:00:00 6.14286 C 5.77 g/m*3 6.14 C 0 km/h
1129 15-10-2011 00:00:00 4.65417 C 5.23 g/m*3 4.65 C 0 km/h
1130 16-10-2011 00:00:00 4.29833 C 5.17 g/m*3 4.3 C 0 km/h
1131 17-10-2011 00:00:00 6.42917 C 6.14 g/m*3 6.43 C 0 km/h
1132 18-10-2011 00:00:00 8.99833 C 7.14 g/m*3 9 C 0 km/h
1133 19-10-2011 00:00:00 8.2025 C 5.92 g/m*3 8.2 C 0 km/h
1134 20-10-2011 00:00:00 5.4275 C 5.58 g/m*3 5.43 C 0 km/h
1135 21-10-2011 00:00:00 3.16333 C 5.27 g/m*3 3.16 C 0 km/h
1136 22-10-2011 00:00:00 3.45333 C 5.04 g/m*3 3.45 C 0 km/h
1137 23-10-2011 00:00:00 2.44833 C 4.92 g/m*3 2.45 C 0 km/h
1138 24-10-2011 00:00:00 5.85083 C 5.45 g/m*3 5.85 C 0 km/h
1139 25-10-2011 00:00:00 9.17417 C 6.55 g/m*3 9.17 C 0 km/h
1140 26-10-2011 00:00:00 9.305 C 6.4 g/m*3 9.31 C 0 km/h
1141 27-10-2011 00:00:00 5.69333 C 6.08 g/m*3 5.69 C 0 km/h
1142 28-10-2011 00:00:00 8.32857 C 7.33 g/m*3 8.33 C 0 km/h
1143 29-10-2011 00:00:00 10.61667 C 8.11 g/m*3 10.62 C 0 km/h
1144 30-10-2011 00:00:00 12.2192 C 9.31 g/m*3 12.22 C 0 km/h
1145 31-10-2011 00:00:00 11.39 C 8.86 g/m*3 11.39 C 0 km/h
1146 01-11-2011 00:00:00 9.17333 C 7.52 g/m*3 9.17 C 0 km/h
1147 02-11-2011 00:00:00 10.59667 C 7.89 g/m*3 10.6 C 0 km/h
1148 03-11-2011 00:00:00 11.35583 C 7.36 g/m*3 11.36 C 0 km/h
1149 04-11-2011 00:00:00 10.15333 C 7.6 g/m*3 10.15 C 0 km/h
1150 05-11-2011 00:00:00 10.31333 C 7.32 g/m*3 10.31 C 0 km/h
Sensor: Nr:Datum:Temp:Abs-Feuchte:Windchill:Wind:
Aussen-T/F 1151 06-11-2011 00:00:00 8.90583 C 7.36 g/m*3 8.91 C 0 km/h
1152 07-11-2011 00:00:00 8.85 C 7.07 g/m*3 8.85 C 0 km/h
1153 08-11-2011 00:00:00 5.84583 C 6.28 g/m*3 5.85 C 0 km/h
1154 09-11-2011 00:00:00 6.5025 C 6.49 g/m*3 6.5 C 0 km/h
1155 10-11-2011 00:00:00 6.29328 C 6.04 g/m*3 6.29 C 0 km/h
1156 11-11-2011 00:00:00 6.25417 C 5.61 g/m*3 6.25 C 0 km/h
1157 12-11-2011 00:00:00 4.20083 C 5.31 g/m*3 4.2 C 0 km/h
1158 13-11-2011 00:00:00 4.15833 C 5.51 g/m*3 4.16 C 0 km/h
1159 14-11-2011 00:00:00 0.35917 C 4.59 g/m*3 0.36 C 0 km/h
1160 15-11-2011 00:00:00 0.25583 C 4.55 g/m*3 0.26 C 0 km/h
1161 16-11-2011 00:00:00 -1.28871 C 4.06 g/m*3 -1.29 C 0 km/h
1162 17-11-2011 00:00:00 3.935 C 5.08 g/m*3 3.94 C 0 km/h
1163 18-11-2011 00:00:00 7.49833 C 6.7 g/m*3 7.5 C 0 km/h
1164 19-11-2011 00:00:00 5.435 C 6.26 g/m*3 5.44 C 0 km/h
1165 20-11-2011 00:00:00 6.58083 C 6.06 g/m*3 6.58 C 0 km/h
1166 21-11-2011 00:00:00 1.40917 C 4.92 g/m*3 1.41 C 0 km/h
1167 22-11-2011 00:00:00 1.14083 C 4.83 g/m*3 1.14 C 0 km/h
1168 23-11-2011 00:00:00 1.59583 C 5.02 g/m*3 1.6 C 0 km/h
1169 24-11-2011 00:00:00 2.37083 C 5.25 g/m*3 2.37 C 0 km/h
1170 25-11-2011 00:00:00 1.0775 C 4.47 g/m*3 1.08 C 0 km/h
1171 26-11-2011 00:00:00 6.25167 C 5.54 g/m*3 6.25 C 0 km/h
1172 27-11-2011 00:00:00 7.40833 C 5.63 g/m*3 7.41 C 0 km/h
1173 28-11-2011 00:00:00 0.83833 C 4.74 g/m*3 0.84 C 0 km/h
1174 29-11-2011 00:00:00 1.88167 C 4.94 g/m*3 1.88 C 0 km/h
1175 30-11-2011 00:00:00 4.85083 C 5.78 g/m*3 4.85 C 0 km/h
Sensor: Nr:Datum:Temp:Abs-Feuchte:Windchill:Wind:
Aussen-T/F 1176 01-12-2011 00:00:00 5.47459 C 6.17 g/m*3 5.47 C 0 km/h
1177 02-12-2011 00:00:00 7.12667 C 6.07 g/m*3 7.13 C 0 km/h
1178 03-12-2011 00:00:00 6.26583 C 5.67 g/m*3 6.27 C 0 km/h
1179 04-12-2011 00:00:00 8.2975 C 6.82 g/m*3 8.3 C 0 km/h
1180 05-12-2011 00:00:00 4.38417 C 4.68 g/m*3 4.38 C 0 km/h
1181 06-12-2011 00:00:00 4.445 C 4.4 g/m*3 4.45 C 0 km/h
1182 07-12-2011 00:00:00 5.57833 C 5 g/m*3 5.58 C 0 km/h
1183 08-12-2011 00:00:00 6.22333 C 4.58 g/m*3 6.22 C 0 km/h
1184 09-12-2011 00:00:00 5.94583 C 5.15 g/m*3 5.95 C 0 km/h
1185 10-12-2011 00:00:00 1.885 C 4.22 g/m*3 1.89 C 0 km/h
1186 11-12-2011 00:00:00 0.43667 C 4.15 g/m*3 0.44 C 0 km/h
1187 12-12-2011 00:00:00 5.94754 C 5.56 g/m*3 5.95 C 0 km/h
1188 13-12-2011 00:00:00 6.86417 C 5.29 g/m*3 6.86 C 0 km/h
1189 14-12-2011 00:00:00 6.68371 C 6.1 g/m*3 4.39 C 11.45758 km/h
1190 15-12-2011 00:00:00 6.13646 C 5.7 g/m*3 3.9 C 10.55208 km/h
1191 16-12-2011 00:00:00 6.07222 C 6.06 g/m*3 3.54 C 12.08819 km/h
1192 17-12-2011 00:00:00 3.63507 C 5.26 g/m*3 1.48 C 8.17431 km/h
1193 18-12-2011 00:00:00 2.25764 C 4.91 g/m*3 0.33 C 6.6875 km/h
1194 19-12-2011 00:00:00 1.70208 C 4.69 g/m*3 1.7 C 4.33715 km/h
1195 20-12-2011 00:00:00 2.28715 C 5.15 g/m*3 2.29 C 4.2434 km/h
1196 21-12-2011 00:00:00 4.19792 C 5.66 g/m*3 2.64 C 6.47639 km/h
1197 22-12-2011 00:00:00 6.57917 C 7.14 g/m*3 6.58 C 3.52847 km/h
1198 23-12-2011 00:00:00 8.41806 C 7.71 g/m*3 8.42 C 4.81424 km/h
1199 24-12-2011 00:00:00 5.63368 C 5.92 g/m*3 3.43 C 9.91007 km/h
1200 25-12-2011 00:00:00 5.68472 C 6.14 g/m*3 3.52 C 9.78507 km/h
Sensor: Nr:Datum:Temp:Abs-Feuchte:Windchill:Wind:
Aussen-T/F 1201 26-12-2011 00:00:00 8.12222 C 7.46 g/m*3 6.74 C 8.26389 km/h
1202 27-12-2011 00:00:00 8.25139 C 7.48 g/m*3 8.25 C 2.92604 km/h
1203 28-12-2011 00:00:00 5.71424 C 6.17 g/m*3 4.17 C 7.23854 km/h
1204 29-12-2011 00:00:00 5.51667 C 5.66 g/m*3 2.84 C 12.22257 km/h
1205 30-12-2011 00:00:00 4.24861 C 5.39 g/m*3 1.73 C 10.11736 km/h
1206 31-12-2011 00:00:00 5.15729 C 6.43 g/m*3 5.16 C 3.01632 km/h
1207 01-01-2012 00:00:00 12.02807 C 9.43 g/m*3 12.03 C 8.78386 km/h
1208 02-01-2012 00:00:00 8.87847 C 7.72 g/m*3 7.94 C 6.93264 km/h
1209 03-01-2012 00:00:00 7.43403 C 6.52 g/m*3 5.14 C 12.40729 km/h
1210 04-01-2012 00:00:00 6.56875 C 5.76 g/m*3 4.06 C 12.56285 km/h
1211 05-01-2012 00:00:00 6.88368 C 6.18 g/m*3 3.58 C 18.83542 km/h
1212 06-01-2012 00:00:00 5.40208 C 5.7 g/m*3 2.58 C 12.92361 km/h
1213 07-01-2012 00:00:00 5.54653 C 5.98 g/m*3 2.83 C 12.50278 km/h
1214 08-01-2012 00:00:00 5.96042 C 6.13 g/m*3 4.3 C 7.84514 km/h
1215 09-01-2012 00:00:00 6.11424 C 6.58 g/m*3 4.81 C 6.62743 km/h
1216 10-01-2012 00:00:00 6.93056 C 7.03 g/m*3 6.93 C 3.02882 km/h
1217 11-01-2012 00:00:00 8.11597 C 6.84 g/m*3 7.26 C 6.14826 km/h
1218 12-01-2012 00:00:00 8.18819 C 6.9 g/m*3 6.08 C 12.27049 km/h
1219 13-01-2012 00:00:00 5.12569 C 5.2 g/m*3 2.95 C 9.37569 km/h
1220 14-01-2012 00:00:00 3.95417 C 5 g/m*3 3.95 C 4.25694 km/h
1221 15-01-2012 00:00:00 -0.23715 C 4.52 g/m*3 -0.24 C 1.86111 km/h
1222 16-01-2012 00:00:00 -1.80312 C 4.02 g/m*3 -1.8 C 1.83333 km/h
1223 17-01-2012 00:00:00 -2.78368 C 3.69 g/m*3 -2.78 C 1.10556 km/h
1224 18-01-2012 00:00:00 -0.12708 C 4.32 g/m*3 -2.76 C 7.60694 km/h
1225 19-01-2012 00:00:00 6.67639 C 6.84 g/m*3 3.88 C 14.53819 km/h
Sensor: Nr:Datum:Temp:Abs-Feuchte:Windchill:Wind:
Aussen-T/F 1226 20-01-2012 00:00:00 4.025 C 5.54 g/m*3 1.91 C 8.28333 km/h
1227 21-01-2012 00:00:00 5.73681 C 6.39 g/m*3 3.58 C 9.81354 km/h
1228 22-01-2012 00:00:00 6.85764 C 5.84 g/m*3 4.26 C 13.54236 km/h
1229 23-01-2012 00:00:00 5.22708 C 5.7 g/m*3 3.41 C 7.97396 km/h
1230 24-01-2012 00:00:00 3.1191 C 5.44 g/m*3 3.12 C 3.95903 km/h
1231 25-01-2012 00:00:00 0.47708 C 4.75 g/m*3 0.48 C 1.85 km/h
1232 26-01-2012 00:00:00 1.84132 C 4.64 g/m*3 1.84 C 3.40451 km/h
1233 27-01-2012 00:00:00 2.58437 C 5.32 g/m*3 2.58 C 1.90104 km/h
1234 28-01-2012 00:00:00 2.69896 C 5.12 g/m*3 2.7 C 1.55729 km/h
1235 29-01-2012 00:00:00 0.84583 C 4.18 g/m*3 0.85 C 4.61007 km/h
1236 30-01-2012 00:00:00 -0.00208 C 3.89 g/m*3 0 C 2.62326 km/h
1237 31-01-2012 00:00:00 -1.90972 C 2.97 g/m*3 -4 C 5.50486 km/h
1238 01-02-2012 00:00:00 -5.28403 C 2.04 g/m*3 -8.99 C 8.11736 km/h
1239 02-02-2012 00:00:00 -7.12396 C 1.51 g/m*3 -10.34 C 6.25729 km/h
1240 03-02-2012 00:00:00 -8.52361 C 1.79 g/m*3 -8.52 C 2.86215 km/h
1241 04-02-2012 00:00:00 -8.31389 C 2.08 g/m*3 -8.31 C 2.1 km/h
1242 05-02-2012 00:00:00 -9.04861 C 1.83 g/m*3 -9.05 C 2.36215 km/h
1243 06-02-2012 00:00:00 -9.67674 C 1.68 g/m*3 -9.68 C 2.38958 km/h
1244 07-02-2012 00:00:00 -9.19832 C 1.73 g/m*3 -12.43 C 5.69706 km/h
1245 08-02-2012 00:00:00 -5.57083 C 2.37 g/m*3 -8.79 C 6.79792 km/h
1246 09-02-2012 00:00:00 -7.39479 C 2.48 g/m*3 -7.39 C 2.61215 km/h
1247 10-02-2012 00:00:00 -6.11875 C 2.37 g/m*3 -6.12 C 4.48194 km/h
1248 11-02-2012 00:00:00 -8.24931 C 1.89 g/m*3 -8.25 C 4.42743 km/h
1249 12-02-2012 00:00:00 -6.58063 C 2.2 g/m*3 -6.58 C 2.04269 km/h
1250 13-02-2012 00:00:00 -0.88993 C 3.76 g/m*3 -0.89 C 2.37813 km/h
Sensor: Nr:Datum:Temp:Abs-Feuchte:Windchill:Wind:
Aussen-T/F 1251 14-02-2012 00:00:00 1.59931 C 5.05 g/m*3 1.6 C 4.2559 km/h
1252 15-02-2012 00:00:00 3.97674 C 5.46 g/m*3 1 C 12.0816 km/h
1253 16-02-2012 00:00:00 3.54896 C 5.63 g/m*3 2.4 C 5.08507 km/h
1254 17-02-2012 00:00:00 5.57917 C 6.2 g/m*3 3.56 C 9.06771 km/h
1255 18-02-2012 00:00:00 6.37083 C 6.55 g/m*3 5.3 C 6.00278 km/h
1256 19-02-2012 00:00:00 2.99271 C 5.23 g/m*3 1.26 C 6.44375 km/h
1257 20-02-2012 00:00:00 1.18333 C 4.47 g/m*3 1.18 C 2.83542 km/h
1258 21-02-2012 00:00:00 1.84583 C 4.31 g/m*3 0.32 C 5.43472 km/h
1259 22-02-2012 00:00:00 3.17951 C 4.88 g/m*3 3.18 C 4.49236 km/h
1260 23-02-2012 00:00:00 6.17352 C 6 g/m*3 3.54 C 12.77909 km/h
1261 24-02-2012 00:00:00 9.38101 C 7.83 g/m*3 7.78 C 10.64767 km/h
1262 25-02-2012 00:00:00 8.6186 C 6.96 g/m*3 7.94 C 5.80281 km/h
1263 26-02-2012 00:00:00 5.29167 C 6.13 g/m*3 5.29 C 3.88611 km/h
1264 27-02-2012 00:00:00 5.83671 C 5.98 g/m*3 5.84 C 3.63392 km/h
1265 28-02-2012 00:00:00 8.57639 C 7.33 g/m*3 7.89 C 5.80451 km/h
1266 29-02-2012 00:00:00 9.50385 C 8.41 g/m*3 9.5 C 1.76783 km/h
1267 01-03-2012 00:00:00 9.01563 C 8.27 g/m*3 9.02 C 1.62292 km/h
1268 02-03-2012 00:00:00 8.57986 C 7.95 g/m*3 8.58 C 2.37986 km/h
1269 03-03-2012 00:00:00 7.91597 C 7.43 g/m*3 7.92 C 1.94653 km/h
1270 04-03-2012 00:00:00 8.65625 C 7.04 g/m*3 8.66 C 2.75069 km/h
1271 05-03-2012 00:00:00 5.81597 C 5.57 g/m*3 4.08 C 8.05174 km/h
1272 06-03-2012 00:00:00 5.43924 C 5.12 g/m*3 5.44 C 4.19063 km/h
1273 07-03-2012 00:00:00 2.93962 C 4.81 g/m*3 1.24 C 6.32906 km/h
1274 08-03-2012 00:00:00 5.35833 C 5.6 g/m*3 3.45 C 8.425 km/h
1275 09-03-2012 00:00:00 4.88437 C 5.29 g/m*3 4.88 C 3.76771 km/h
Sensor: Nr:Datum:Temp:Abs-Feuchte:Windchill:Wind:
Aussen-T/F 1276 10-03-2012 00:00:00 8.58541 C 6.77 g/m*3 8.59 C 4.07082 km/h
1277 11-03-2012 00:00:00 9.26775 C 7.44 g/m*3 9.27 C 4.08261 km/h
1278 12-03-2012 00:00:00 8.0632 C 7.18 g/m*3 8.06 C 4.78216 km/h
1279 13-03-2012 00:00:00 7.68299 C 6.78 g/m*3 7.68 C 2.73958 km/h
1280 14-03-2012 00:00:00 6.93542 C 6.09 g/m*3 6.94 C 2.55694 km/h
1281 15-03-2012 00:00:00 7.07812 C 6.17 g/m*3 7.08 C 2.43472 km/h
1282 16-03-2012 00:00:00 10.01696 C 6.56 g/m*3 10.02 C 2.57739 km/h
1283 17-03-2012 00:00:00 9.42917 C 6.8 g/m*3 8.99 C 5.38056 km/h
1284 18-03-2012 00:00:00 8.64931 C 7.23 g/m*3 8.65 C 4.38299 km/h
1285 19-03-2012 00:00:00 7.37083 C 5.72 g/m*3 7.37 C 4.39375 km/h
1286 20-03-2012 00:00:00 6.81088 C 5.19 g/m*3 6.81 C 2.84728 km/h
1287 21-03-2012 00:00:00 7.73902 C 5.64 g/m*3 7.74 C 2.80592 km/h
1288 22-03-2012 00:00:00 10.07666 C 6.73 g/m*3 10.08 C 3.77387 km/h
1289 23-03-2012 00:00:00 11.69132 C 7.52 g/m*3 11.69 C 2.95729 km/h
1290 24-03-2012 00:00:00 11.62674 C 7.38 g/m*3 11.63 C 2.56215 km/h
1291 25-03-2012 00:00:00 12.80873 C 7.04 g/m*3 12.81 C 3.29964 km/h
1292 26-03-2012 00:00:00 11.16806 C 5.93 g/m*3 11.17 C 3.51563 km/h
1293 27-03-2012 00:00:00 11.10694 C 6.65 g/m*3 11.11 C 4.18021 km/h
1294 28-03-2012 00:00:00 11.74201 C 7.1 g/m*3 11.74 C 3.72708 km/h
1295 29-03-2012 00:00:00 9.58194 C 6.51 g/m*3 8.4 C 8.56007 km/h
1296 30-03-2012 00:00:00 9.39062 C 7.16 g/m*3 8 C 9.48438 km/h
1297 31-03-2012 00:00:00 7.98706 C 6.3 g/m*3 6.73 C 7.63427 km/h
1298 01-04-2012 00:00:00 4.77396 C 4.26 g/m*3 4.77 C 4.45451 km/h
1299 02-04-2012 00:00:00 6.64685 C 5.4 g/m*3 6.65 C 3.51643 km/h
1300 03-04-2012 00:00:00 11.08125 C 6.34 g/m*3 11.08 C 3.84514 km/h
Sensor: Nr:Datum:Temp:Abs-Feuchte:Windchill:Wind:
Aussen-T/F 1301 04-04-2012 00:00:00 9.89722 C 7.68 g/m*3 9.9 C 4.97083 km/h
1302 05-04-2012 00:00:00 7.74514 C 6.58 g/m*3 7.75 C 4.3691 km/h
1303 06-04-2012 00:00:00 7.88679 C 5.55 g/m*3 7.89 C 3.89321 km/h
1304 07-04-2012 00:00:00 5.61389 C 5.15 g/m*3 4.49 C 5.80486 km/h
1305 08-04-2012 00:00:00 5.19194 C 3.73 g/m*3 5.19 C 4.34725 km/h
1306 09-04-2012 00:00:00 7.24583 C 6.56 g/m*3 7.25 C 4.80278 km/h
1307 10-04-2012 00:00:00 11.25451 C 7.92 g/m*3 11.25 C 5.78993 km/h
1308 11-04-2012 00:00:00 9.71215 C 6.72 g/m*3 9.19 C 5.81146 km/h
1309 12-04-2012 00:00:00 6.41736 C 6.3 g/m*3 6.42 C 3.28576 km/h
1310 13-04-2012 00:00:00 6.76632 C 6.2 g/m*3 6.77 C 3.36146 km/h
1311 14-04-2012 00:00:00 7.83021 C 5.85 g/m*3 7.83 C 3.32292 km/h
1312 15-04-2012 00:00:00 8.52361 C 6.33 g/m*3 7.06 C 9.00625 km/h
1313 16-04-2012 00:00:00 5.92438 C 4.62 g/m*3 3.99 C 8.9624 km/h
1314 17-04-2012 00:00:00 5.90382 C 4.31 g/m*3 5.03 C 5.20451 km/h
1315 18-04-2012 00:00:00 8.72674 C 6.28 g/m*3 7.96 C 6.1816 km/h
1316 19-04-2012 00:00:00 8.47422 C 6.89 g/m*3 8.47 C 4.56829 km/h
1317 20-04-2012 00:00:00 7.07115 C 6.66 g/m*3 7.07 C 3.15337 km/h
1318 21-04-2012 00:00:00 8.16701 C 6.8 g/m*3 7.41 C 5.84132 km/h
1319 22-04-2012 00:00:00 7.84306 C 6.56 g/m*3 6.44 C 8.12708 km/h
1320 23-04-2012 00:00:00 8.39097 C 6.75 g/m*3 7.92 C 5.03333 km/h
1321 24-04-2012 00:00:00 8.89757 C 7.41 g/m*3 8.28 C 5.73542 km/h
1322 25-04-2012 00:00:00 10.14167 C 7.42 g/m*3 9.44 C 6.77951 km/h
1323 26-04-2012 00:00:00 11.47083 C 8.24 g/m*3 11.47 C 6.83507 km/h
1324 27-04-2012 00:00:00 12.5625 C 9.11 g/m*3 12.56 C 2.90104 km/h
1325 28-04-2012 00:00:00 18.10903 C 11.21 g/m*3 18.11 C 3.17847 km/h
Sensor: Nr:Datum:Temp:Abs-Feuchte:Windchill:Wind:
Aussen-T/F 1326 29-04-2012 00:00:00 16.89826 C 10.53 g/m*3 16.9 C 4.97257 km/h
1327 30-04-2012 00:00:00 17.93194 C 9.73 g/m*3 17.93 C 5.83958 km/h
1328 01-05-2012 00:00:00 17.12465 C 10.46 g/m*3 17.12 C 5.35833 km/h
1329 02-05-2012 00:00:00 15.24479 C 11.32 g/m*3 15.24 C 4.1625 km/h
1330 03-05-2012 00:00:00 13.43472 C 9.03 g/m*3 13.43 C 4.52049 km/h
1331 04-05-2012 00:00:00 14.57083 C 9.2 g/m*3 14.57 C 4.31979 km/h
1332 05-05-2012 00:00:00 11.45069 C 9.57 g/m*3 11.45 C 2.0691 km/h
1333 06-05-2012 00:00:00 10.57674 C 9.04 g/m*3 10.58 C 2.72743 km/h
1334 07-05-2012 00:00:00 10.38681 C 8.05 g/m*3 10.39 C 2.83542 km/h
1335 08-05-2012 00:00:00 13.89063 C 8.76 g/m*3 13.89 C 4.06285 km/h
1336 09-05-2012 00:00:00 16.78229 C 11.72 g/m*3 16.78 C 4.3441 km/h
1337 10-05-2012 00:00:00 19.11111 C 12.91 g/m*3 19.11 C 3.2934 km/h
1338 11-05-2012 00:00:00 19.125 C 13.25 g/m*3 19.13 C 4.69688 km/h
1339 12-05-2012 00:00:00 11.31289 C 7.13 g/m*3 11.31 C 6.93972 km/h
1340 13-05-2012 00:00:00 9.38646 C 6.01 g/m*3 9.39 C 3.54444 km/h
1341 14-05-2012 00:00:00 11.40799 C 6.45 g/m*3 11.41 C 3.29792 km/h
1342 15-05-2012 00:00:00 9.5625 C 6.83 g/m*3 9.16 C 5.31528 km/h
1343 16-05-2012 00:00:00 8.66597 C 6.56 g/m*3 7.74 C 6.74236 km/h
1344 17-05-2012 00:00:00 9.38889 C 6.11 g/m*3 9.39 C 3.74201 km/h
1345 18-05-2012 00:00:00 12.68299 C 8.58 g/m*3 12.68 C 3.73611 km/h
1346 19-05-2012 00:00:00 15.71389 C 11.07 g/m*3 15.71 C 3.01667 km/h
1347 20-05-2012 00:00:00 17.6684 C 11.84 g/m*3 17.67 C 2.85521 km/h
1348 21-05-2012 00:00:00 18.51324 C 12.9 g/m*3 18.51 C 3.62056 km/h
1349 22-05-2012 00:00:00 21.31944 C 13.69 g/m*3 21.32 C 4.20417 km/h
1350 23-05-2012 00:00:00 18.79965 C 14.38 g/m*3 18.8 C 2.22951 km/h
Sensor: Nr:Datum:Temp:Abs-Feuchte:Windchill:Wind:
Aussen-T/F 1351 24-05-2012 00:00:00 20.67596 C 13.27 g/m*3 20.68 C 3.73554 km/h
1352 25-05-2012 00:00:00 19.43659 C 8.08 g/m*3 19.44 C 7.67038 km/h
1353 26-05-2012 00:00:00 18.11007 C 8.4 g/m*3 18.11 C 5.16944 km/h
1354 27-05-2012 00:00:00 18.05868 C 9.6 g/m*3 18.06 C 2.91215 km/h
1355 28-05-2012 00:00:00 18.89167 C 10.37 g/m*3 18.89 C 3.94348 km/h
1356 29-05-2012 00:00:00 18.3861 C 10.26 g/m*3 18.39 C 4.0695 km/h
1357 30-05-2012 00:00:00 17.68438 C 11.87 g/m*3 17.68 C 3.49167 km/h
1358 31-05-2012 00:00:00 16.03021 C 11.52 g/m*3 16.03 C 4.43785 km/h
1359 01-06-2012 00:00:00 15.75909 C 10.21 g/m*3 15.76 C 6.05315 km/h
1360 02-06-2012 00:00:00 15.19271 C 9.16 g/m*3 15.19 C 3.1559 km/h
1361 03-06-2012 00:00:00 12.59011 C 9.82 g/m*3 12.59 C 2.24762 km/h
1362 04-06-2012 00:00:00 13.31389 C 9.93 g/m*3 13.31 C 5.88403 km/h
1363 05-06-2012 00:00:00 12.15312 C 7.43 g/m*3 12.15 C 4.47674 km/h
1364 06-06-2012 00:00:00 13.09444 C 9.9 g/m*3 13.09 C 3.34722 km/h
1365 07-06-2012 00:00:00 16.45799 C 12.45 g/m*3 16.46 C 1.94236 km/h
1366 08-06-2012 00:00:00 17.34097 C 10.69 g/m*3 17.34 C 7.78056 km/h
1367 09-06-2012 00:00:00 14.79028 C 8.37 g/m*3 14.79 C 6.97674 km/h
1368 10-06-2012 00:00:00 15.29514 C 8.7 g/m*3 15.3 C 3.03576 km/h
1369 11-06-2012 00:00:00 14.57014 C 10.58 g/m*3 14.57 C 2.15208 km/h
1370 12-06-2012 00:00:00 14.40729 C 10.65 g/m*3 14.41 C 3.45451 km/h
1371 13-06-2012 00:00:00 12.57122 C 10.25 g/m*3 12.57 C 3.38081 km/h
1372 14-06-2012 00:00:00 14.15694 C 9.93 g/m*3 14.16 C 1.8191 km/h
1373 15-06-2012 00:00:00 16.11806 C 11.68 g/m*3 16.12 C 2.80417 km/h
1374 16-06-2012 00:00:00 15.40799 C 12.19 g/m*3 15.41 C 2.89306 km/h
1375 17-06-2012 00:00:00 17.28021 C 10.37 g/m*3 17.28 C 5.15313 km/h
Sensor: Nr:Datum:Temp:Abs-Feuchte:Windchill:Wind:
Aussen-T/F 1376 18-06-2012 00:00:00 18.57292 C 11.77 g/m*3 18.57 C 4.89653 km/h
1377 19-06-2012 00:00:00 17.44028 C 12.26 g/m*3 17.44 C 1.76389 km/h
1378 20-06-2012 00:00:00 16.35833 C 13.49 g/m*3 16.36 C 1.52674 km/h
1379 21-06-2012 00:00:00 18.41354 C 14.08 g/m*3 18.41 C 2.59965 km/h
1380 22-06-2012 00:00:00 16.36181 C 10.54 g/m*3 16.36 C 7.0059 km/h
1381 23-06-2012 00:00:00 16.63472 C 10.11 g/m*3 16.63 C 5.14444 km/h
1382 24-06-2012 00:00:00 14.73507 C 10.4 g/m*3 14.74 C 6.91354 km/h
1383 25-06-2012 00:00:00 15.09028 C 10.16 g/m*3 15.09 C 8.34479 km/h
1384 26-06-2012 00:00:00 16.43125 C 10.29 g/m*3 16.43 C 3.31285 km/h
1385 27-06-2012 00:00:00 18.07569 C 13.09 g/m*3 18.08 C 3.76944 km/h
1386 28-06-2012 00:00:00 21.87465 C 15.47 g/m*3 21.87 C 2.8309 km/h
1387 29-06-2012 00:00:00 20.49063 C 16.02 g/m*3 20.49 C 2.96215 km/h
1388 30-06-2012 00:00:00 20.14965 C 13.71 g/m*3 20.15 C 2.2625 km/h
1389 01-07-2012 00:00:00 17.98889 C 12.48 g/m*3 17.99 C 3.47257 km/h
1390 02-07-2012 00:00:00 15.24444 C 11.26 g/m*3 15.24 C 0.73889 km/h
1391 03-07-2012 00:00:00 18.02153 C 11.83 g/m*3 18.02 C 2.55382 km/h
1392 04-07-2012 00:00:00 19.87465 C 13.12 g/m*3 19.87 C 2.27778 km/h
1393 05-07-2012 00:00:00 19.09722 C 15.03 g/m*3 19.1 C 0.74479 km/h
1394 06-07-2012 00:00:00 19.21042 C 13.57 g/m*3 19.21 C 3.32431 km/h
1395 07-07-2012 00:00:00 19.57743 C 12.21 g/m*3 19.58 C 3.63854 km/h
1396 08-07-2012 00:00:00 17.84097 C 12.38 g/m*3 17.84 C 5.58993 km/h
1397 09-07-2012 00:00:00 18.63611 C 11.51 g/m*3 18.64 C 6.85972 km/h
1398 10-07-2012 00:00:00 19.1441 C 12.62 g/m*3 19.14 C 4.02951 km/h
1399 11-07-2012 00:00:00 16.03553 C 10.88 g/m*3 16.04 C 5.68791 km/h
1400 12-07-2012 00:00:00 14.8191 C 9.88 g/m*3 14.82 C 8.20799 km/h
Sensor: Nr:Datum:Temp:Abs-Feuchte:Windchill:Wind:
Aussen-T/F 1401 13-07-2012 00:00:00 15.50417 C 11.84 g/m*3 15.5 C 4.44132 km/h
1402 14-07-2012 00:00:00 15.27708 C 11.45 g/m*3 15.28 C 6.33438 km/h
1403 15-07-2012 00:00:00 14.52014 C 10.82 g/m*3 14.52 C 5.16597 km/h
1404 16-07-2012 00:00:00 15.02292 C 10.17 g/m*3 15.02 C 7.63264 km/h
1405 17-07-2012 00:00:00 17.55296 C 11.48 g/m*3 17.55 C 9.27003 km/h
1406 18-07-2012 00:00:00 19.90563 C 12.45 g/m*3 19.91 C 5.63345 km/h
1407 19-07-2012 00:00:00 18.1593 C 10.92 g/m*3 18.16 C 6.90807 km/h
1408 20-07-2012 00:00:00 14.84982 C 10.88 g/m*3 14.85 C 2.54767 km/h
1409 21-07-2012 00:00:00 15.04167 C 10.37 g/m*3 15.04 C 3.48403 km/h
1410 22-07-2012 00:00:00 14.62049 C 9.34 g/m*3 14.62 C 2.64549 km/h
1411 23-07-2012 00:00:00 17.15069 C 9.94 g/m*3 17.15 C 3.31076 km/h
1412 24-07-2012 00:00:00 19.81701 C 12.05 g/m*3 19.82 C 3.02049 km/h
1413 25-07-2012 00:00:00 22.08445 C 14.21 g/m*3 22.08 C 2.1053 km/h
1414 26-07-2012 00:00:00 23.10764 C 15.14 g/m*3 23.11 C 1.99514 km/h
1415 27-07-2012 00:00:00 22.26167 C 16.31 g/m*3 22.26 C 2.37143 km/h
1416 28-07-2012 00:00:00 19.03507 C 15.12 g/m*3 19.04 C 2.04826 km/h
1417 29-07-2012 00:00:00 17.61875 C 11.35 g/m*3 17.62 C 4.525 km/h
1418 30-07-2012 00:00:00 16.17396 C 9.66 g/m*3 16.17 C 5.72396 km/h
1419 31-07-2012 00:00:00 16.33993 C 11.03 g/m*3 16.34 C 3.13403 km/h
1420 01-08-2012 00:00:00 20.08194 C 13.03 g/m*3 20.08 C 3.05833 km/h
1421 02-08-2012 00:00:00 20.75938 C 13.57 g/m*3 20.76 C 4.57847 km/h
1422 03-08-2012 00:00:00 19.31771 C 11.89 g/m*3 19.32 C 4.20035 km/h
1423 04-08-2012 00:00:00 19.1 C 11.8 g/m*3 19.1 C 3.13889 km/h
1424 05-08-2012 00:00:00 19.0875 C 13.66 g/m*3 19.09 C 2.04722 km/h
1425 06-08-2012 00:00:00 18.40312 C 12.35 g/m*3 18.4 C 5.67882 km/h
Sensor: Nr:Datum:Temp:Abs-Feuchte:Windchill:Wind:
Aussen-T/F 1426 07-08-2012 00:00:00 17.15556 C 10.69 g/m*3 17.16 C 5.52535 km/h
1427 08-08-2012 00:00:00 16.59132 C 11.2 g/m*3 16.59 C 1.95243 km/h
1428 09-08-2012 00:00:00 18.49479 C 12.19 g/m*3 18.49 C 3.35035 km/h
1429 10-08-2012 00:00:00 17.33299 C 10.54 g/m*3 17.33 C 3.19965 km/h
1430 11-08-2012 00:00:00 16.29444 C 10.16 g/m*3 16.29 C 3.24028 km/h
1431 12-08-2012 00:00:00 17.40486 C 10.17 g/m*3 17.4 C 3.59653 km/h
1432 13-08-2012 00:00:00 18.22326 C 11.39 g/m*3 18.22 C 2.33056 km/h
1433 14-08-2012 00:00:00 19.78993 C 13.49 g/m*3 19.79 C 1.41667 km/h
1434 15-08-2012 00:00:00 22.31354 C 14.02 g/m*3 22.31 C 2.55694 km/h
1435 16-08-2012 00:00:00 21.27535 C 12.53 g/m*3 21.28 C 3.72917 km/h
1436 17-08-2012 00:00:00 20.12986 C 12.21 g/m*3 20.13 C 2.75521 km/h
1437 18-08-2012 00:00:00 23.0066 C 13.86 g/m*3 23.01 C 3.18229 km/h
1438 19-08-2012 00:00:00 24.67083 C 15.81 g/m*3 24.67 C 2.43264 km/h
1439 20-08-2012 00:00:00 23.43229 C 16.92 g/m*3 23.43 C 1.96354 km/h
1440 21-08-2012 00:00:00 22.65105 C 16.48 g/m*3 22.65 C 1.97483 km/h
1441 22-08-2012 00:00:00 20.95729 C 11.81 g/m*3 20.96 C 4.26389 km/h
1442 23-08-2012 00:00:00 17.78194 C 9.87 g/m*3 17.78 C 2.24444 km/h
1443 24-08-2012 00:00:00 18.61514 C 12.97 g/m*3 18.62 C 2.49155 km/h
1444 25-08-2012 00:00:00 18.46493 C 12.42 g/m*3 18.46 C 5.00035 km/h
1445 26-08-2012 00:00:00 16.26829 C 10.84 g/m*3 16.27 C 8.77944 km/h
1446 27-08-2012 00:00:00 16.33728 C 10.98 g/m*3 16.34 C 2.63066 km/h
1447 28-08-2012 00:00:00 18.01812 C 11.48 g/m*3 18.02 C 3.66864 km/h
1448 29-08-2012 00:00:00 20.02396 C 13.42 g/m*3 20.02 C 2.13264 km/h
1449 30-08-2012 00:00:00 17.48889 C 12.07 g/m*3 17.49 C 3.22465 km/h
1450 31-08-2012 00:00:00 13.93646 C 10.2 g/m*3 13.94 C 6.31146 km/h
Sensor: Nr:Datum:Temp:Abs-Feuchte:Windchill:Wind:
Aussen-T/F 1451 01-09-2012 00:00:00 14.49236 C 9.5 g/m*3 14.49 C 4.74896 km/h
1452 02-09-2012 00:00:00 13.96285 C 9.9 g/m*3 13.96 C 1.82257 km/h
1453 03-09-2012 00:00:00 16.22222 C 11.01 g/m*3 16.22 C 2.96493 km/h
1454 04-09-2012 00:00:00 16.86259 C 11.77 g/m*3 16.86 C 1.64021 km/h
1455 05-09-2012 00:00:00 16.4125 C 11.14 g/m*3 16.41 C 3.33681 km/h
1456 06-09-2012 00:00:00 14.61525 C 8.89 g/m*3 14.62 C 2.50035 km/h
1457 07-09-2012 00:00:00 14.4309 C 9.14 g/m*3 14.43 C 2.39931 km/h
1458 08-09-2012 00:00:00 16.83403 C 10.04 g/m*3 16.83 C 2.29444 km/h
1459 09-09-2012 00:00:00 18.54722 C 10.81 g/m*3 18.55 C 3.24271 km/h
1460 10-09-2012 00:00:00 19.67847 C 11.4 g/m*3 19.68 C 3.52361 km/h
1461 11-09-2012 00:00:00 17.74028 C 12.66 g/m*3 17.74 C 5.06389 km/h
1462 12-09-2012 00:00:00 11.13646 C 9.43 g/m*3 11.14 C 3.28194 km/h
1463 13-09-2012 00:00:00 10.78611 C 8.92 g/m*3 10.79 C 1.61944 km/h
1464 14-09-2012 00:00:00 13.01424 C 9.51 g/m*3 13.01 C 8.50729 km/h
1465 15-09-2012 00:00:00 13.44514 C 10.31 g/m*3 13.45 C 2.61597 km/h
1466 16-09-2012 00:00:00 13.24236 C 9.85 g/m*3 13.24 C 1.95903 km/h
1467 17-09-2012 00:00:00 15.15729 C 10.75 g/m*3 15.16 C 2.24271 km/h
1468 18-09-2012 00:00:00 14.10868 C 10.23 g/m*3 14.11 C 3.36389 km/h
1469 19-09-2012 00:00:00 11.7684 C 7.38 g/m*3 11.77 C 5.62153 km/h
1470 20-09-2012 00:00:00 9.9566 C 6.83 g/m*3 9.96 C 3.81424 km/h
1471 21-09-2012 00:00:00 10.62118 C 7.77 g/m*3 10.62 C 2.10278 km/h
1472 22-09-2012 00:00:00 11.53611 C 8.31 g/m*3 11.54 C 5.85486 km/h
1473 23-09-2012 00:00:00 11.58819 C 8.16 g/m*3 11.59 C 3.43542 km/h
1474 24-09-2012 00:00:00 14.89201 C 10.77 g/m*3 14.89 C 6.19201 km/h
1475 25-09-2012 00:00:00 12.86597 C 9.91 g/m*3 12.87 C 3.00486 km/h
Sensor: Nr:Datum:Temp:Abs-Feuchte:Windchill:Wind:
Aussen-T/F 1476 26-09-2012 00:00:00 12.27917 C 10.31 g/m*3 12.28 C 0.45625 km/h
1477 27-09-2012 00:00:00 12.68611 C 9.87 g/m*3 12.69 C 4.77465 km/h
1478 28-09-2012 00:00:00 12.56701 C 9.49 g/m*3 12.57 C 5.41771 km/h
1479 29-09-2012 00:00:00 11.68819 C 8.78 g/m*3 11.69 C 4.77674 km/h
1480 30-09-2012 00:00:00 9.30035 C 8.03 g/m*3 9.3 C 1.28924 km/h
1481 01-10-2012 00:00:00 9.46319 C 7.74 g/m*3 9.46 C 3.12986 km/h
1482 02-10-2012 00:00:00 12.25764 C 9.17 g/m*3 12.26 C 3.29653 km/h
1483 03-10-2012 00:00:00 14.55312 C 10.23 g/m*3 14.55 C 6.72014 km/h
1484 04-10-2012 00:00:00 12.89722 C 9.38 g/m*3 12.9 C 9.02361 km/h
1485 05-10-2012 00:00:00 13.57986 C 10.01 g/m*3 13.58 C 12.05486 km/h
1486 06-10-2012 00:00:00 14.99469 C 10.77 g/m*3 14.99 C 9.95714 km/h
1487 07-10-2012 00:00:00 10.63669 C 8.39 g/m*3 10.64 C 3.51583 km/h
1488 08-10-2012 00:00:00 8.1958 C 7.66 g/m*3 8.2 C 0.7395 km/h
1489 09-10-2012 00:00:00 10.60348 C 8.05 g/m*3 10.6 C 4.4204 km/h
1490 10-10-2012 00:00:00 6.21146 C 6.73 g/m*3 6.21 C 1.03958 km/h
1491 11-10-2012 00:00:00 6.67361 C 7 g/m*3 6.67 C 0.92778 km/h
1492 12-10-2012 00:00:00 10.79653 C 8.89 g/m*3 10.8 C 3.08889 km/h
1493 13-10-2012 00:00:00 9.08472 C 7.61 g/m*3 9.08 C 3.02778 km/h
1494 14-10-2012 00:00:00 8.15833 C 7.57 g/m*3 8.16 C 2.57882 km/h
1495 15-10-2012 00:00:00 7.43264 C 7.4 g/m*3 7.43 C 4.62292 km/h
1496 16-10-2012 00:00:00 7.85556 C 7.35 g/m*3 7.86 C 3.77708 km/h
1497 17-10-2012 00:00:00 10.85972 C 8.95 g/m*3 10.86 C 2.29583 km/h
1498 18-10-2012 00:00:00 14.37569 C 10.54 g/m*3 14.38 C 2.51806 km/h
1499 19-10-2012 00:00:00 14.37187 C 11 g/m*3 14.37 C 0.69618 km/h
1500 20-10-2012 00:00:00 13.74722 C 11.04 g/m*3 13.75 C 0.03889 km/h
Sensor: Nr:Datum:Temp:Abs-Feuchte:Windchill:Wind:
Aussen-T/F 1501 21-10-2012 00:00:00 13.32917 C 10.84 g/m*3 13.33 C 0.27222 km/h
1502 22-10-2012 00:00:00 11.79062 C 9.89 g/m*3 11.79 C 0 km/h
1503 23-10-2012 00:00:00 11.38403 C 9.01 g/m*3 11.38 C 1.95799 km/h
1504 24-10-2012 00:00:00 9.71528 C 8.48 g/m*3 9.72 C 0.81181 km/h
1505 25-10-2012 00:00:00 9.9441 C 8.7 g/m*3 9.94 C 1.19514 km/h
1506 26-10-2012 00:00:00 6.73542 C 7.11 g/m*3 6.74 C 3.17743 km/h
1507 27-10-2012 00:00:00 2.98993 C 4.65 g/m*3 0.8 C 7.91354 km/h
1508 28-10-2012 00:00:00 0.51181 C 4.52 g/m*3 0.51 C 1.97847 km/h
1509 29-10-2012 00:00:00 0.69306 C 4.69 g/m*3 0.69 C 2.28194 km/h
1510 30-10-2012 00:00:00 6.0566 C 6.62 g/m*3 4.29 C 8.35451 km/h
1511 31-10-2012 00:00:00 5.97118 C 6.61 g/m*3 5.97 C 1.67535 km/h
1512 01-11-2012 00:00:00 7.64965 C 6.94 g/m*3 7.65 C 4.97917 km/h
1513 02-11-2012 00:00:00 7.75417 C 6.62 g/m*3 6.3 C 8.2934 km/h
1514 03-11-2012 00:00:00 7.38542 C 7.47 g/m*3 7.39 C 3.34514 km/h
1515 04-11-2012 00:00:00 7.74028 C 7.51 g/m*3 7.74 C 2.64236 km/h
1516 05-11-2012 00:00:00 8.00382 C 6.98 g/m*3 7.32 C 5.5125 km/h
1517 06-11-2012 00:00:00 6.03264 C 6.38 g/m*3 5.16 C 5.26076 km/h
1518 07-11-2012 00:00:00 8.52535 C 7.42 g/m*3 6.72 C 10.84757 km/h
1519 08-11-2012 00:00:00 8.82222 C 7.04 g/m*3 7.73 C 7.52292 km/h
1520 09-11-2012 00:00:00 8.19861 C 7.03 g/m*3 8.2 C 3.10694 km/h
1521 10-11-2012 00:00:00 8.89201 C 8.14 g/m*3 8.89 C 0.45625 km/h
1522 11-11-2012 00:00:00 8.24097 C 7.75 g/m*3 8.24 C 0.73924 km/h
1523 12-11-2012 00:00:00 5.70868 C 6.31 g/m*3 5.71 C 3.19549 km/h
1524 13-11-2012 00:00:00 3.26076 C 5.7 g/m*3 3.26 C 0.92292 km/h
1525 14-11-2012 00:00:00 2.60312 C 5.46 g/m*3 2.6 C 1.14618 km/h
Sensor: Nr:Datum:Temp:Abs-Feuchte:Windchill:Wind:
Aussen-T/F 1526 15-11-2012 00:00:00 4.53958 C 5.82 g/m*3 4.54 C 1.51146 km/h
1527 16-11-2012 00:00:00 3.22222 C 5.28 g/m*3 3.22 C 2.14722 km/h
1528 17-11-2012 00:00:00 4.33472 C 6.08 g/m*3 4.33 C 2.10972 km/h
1529 18-11-2012 00:00:00 7.54704 C 7.71 g/m*3 7.55 C 0.36794 km/h
1530 19-11-2012 00:00:00 7.68403 C 7.7 g/m*3 7.68 C 0.77222 km/h
1531 20-11-2012 00:00:00 5.27188 C 6.48 g/m*3 5.27 C 3.14861 km/h
1532 21-11-2012 00:00:00 4.38681 C 5.99 g/m*3 4.39 C 3.3559 km/h
1533 22-11-2012 00:00:00 5.51111 C 6.67 g/m*3 5.51 C 2.11458 km/h
1534 23-11-2012 00:00:00 6.88472 C 7.16 g/m*3 6.88 C 1.10556 km/h
1535 24-11-2012 00:00:00 9.16042 C 7.96 g/m*3 9.16 C 1.59861 km/h
1536 25-11-2012 00:00:00 10.6066 C 7.12 g/m*3 9.06 C 11.94444 km/h
1537 26-11-2012 00:00:00 6.01493 C 6.93 g/m*3 6.01 C 1.30035 km/h
1538 27-11-2012 00:00:00 7.67986 C 7.22 g/m*3 7.68 C 1.75139 km/h
1539 28-11-2012 00:00:00 5.5184 C 6.41 g/m*3 5.52 C 3.27431 km/h
1540 29-11-2012 00:00:00 4.01319 C 5.52 g/m*3 1.9 C 8.29063 km/h
1541 30-11-2012 00:00:00 1.44375 C 5.03 g/m*3 1.44 C 1.75 km/h
1542 01-12-2012 00:00:00 -0.39861 C 4.43 g/m*3 -0.4 C 2.91806 km/h
1543 02-12-2012 00:00:00 2.39375 C 5.11 g/m*3 0.12 C 7.84375 km/h
1544 03-12-2012 00:00:00 2.27222 C 5.07 g/m*3 0.48 C 6.28542 km/h
1545 04-12-2012 00:00:00 3.75312 C 5.6 g/m*3 1.48 C 8.7184 km/h
1546 05-12-2012 00:00:00 2.86667 C 5.34 g/m*3 2.87 C 4.58889 km/h
1547 06-12-2012 00:00:00 0.5625 C 4.27 g/m*3 -1.72 C 6.90451 km/h
1548 07-12-2012 00:00:00 -1.00382 C 4.12 g/m*3 -1 C 2.15174 km/h
1549 08-12-2012 00:00:00 -4.66111 C 3.26 g/m*3 -4.66 C 0.08333 km/h
1550 09-12-2012 00:00:00 0.22326 C 4.47 g/m*3 -3.85 C 13.50035 km/h
Sensor: Nr:Datum:Temp:Abs-Feuchte:Windchill:Wind:
Aussen-T/F 1551 10-12-2012 00:00:00 2.70764 C 5.07 g/m*3 -0.25 C 10.75069 km/h
1552 11-12-2012 00:00:00 -0.72396 C 4.01 g/m*3 -2.87 C 6.02639 km/h
1553 12-12-2012 00:00:00 -3.40937 C 3.25 g/m*3 -3.41 C 4.13333 km/h
1554 13-12-2012 00:00:00 -3.53646 C 3.35 g/m*3 -3.54 C 1.1184 km/h
1555 14-12-2012 00:00:00 2.76076 C 5.42 g/m*3 1.54 C 5.00868 km/h
1556 15-12-2012 00:00:00 6.97153 C 7.13 g/m*3 6.18 C 5.41458 km/h
1557 16-12-2012 00:00:00 6.60868 C 6.88 g/m*3 5.71 C 5.58611 km/h
1558 17-12-2012 00:00:00 6.04792 C 6.82 g/m*3 6.05 C 2.96979 km/h
1559 18-12-2012 00:00:00 5.04583 C 6.35 g/m*3 5.05 C 3.31319 km/h
1560 19-12-2012 00:00:00 3.47361 C 5.91 g/m*3 3.47 C 0.92222 km/h
1561 20-12-2012 00:00:00 1.32396 C 4.98 g/m*3 1.32 C 2.29861 km/h
1562 21-12-2012 00:00:00 3.19236 C 5.89 g/m*3 3.19 C 0.36111 km/h
1563 22-12-2012 00:00:00 6.1691 C 6.99 g/m*3 6.17 C 1.84653 km/h
1564 23-12-2012 00:00:00 11.85 C 9.58 g/m*3 11.85 C 15.18264 km/h
1565 24-12-2012 00:00:00 11.08715 C 8.45 g/m*3 11.09 C 7.6184 km/h
1566 25-12-2012 00:00:00 9.61181 C 7.49 g/m*3 7.77 C 12.47222 km/h
1567 26-12-2012 00:00:00 8.15278 C 7.03 g/m*3 5.84 C 13.57049 km/h
1568 27-12-2012 00:00:00 7.84757 C 7.13 g/m*3 6.47 C 8.02882 km/h
1569 28-12-2012 00:00:00 6.19479 C 6.89 g/m*3 6.19 C 2.91771 km/h
1570 29-12-2012 00:00:00 8.19931 C 7.74 g/m*3 8.2 C 2.85938 km/h
1571 30-12-2012 00:00:00 8.44618 C 6.53 g/m*3 5.55 C 18.77326 km/h
1572 31-12-2012 00:00:00 8.92569 C 6.72 g/m*3 7.16 C 11.08194 km/h
1573 01-01-2013 00:00:00 6.59132 C 6.43 g/m*3 5.32 C 6.8066 km/h
1574 02-01-2013 00:00:00 4.69861 C 5.74 g/m*3 2.67 C 8.42431 km/h
1575 03-01-2013 00:00:00 7.62951 C 7.31 g/m*3 5.3 C 12.87639 km/h
Sensor: Nr:Datum:Temp:Abs-Feuchte:Windchill:Wind:
Aussen-T/F 1576 04-01-2013 00:00:00 9.87292 C 8.57 g/m*3 9.46 C 5.51701 km/h
1577 05-01-2013 00:00:00 7.8816 C 7.44 g/m*3 7.88 C 4.5375 km/h
1578 06-01-2013 00:00:00 8.15069 C 7.46 g/m*3 8.15 C 4.30521 km/h
1579 07-01-2013 00:00:00 7.30764 C 7 g/m*3 7.31 C 2.31007 km/h
1580 08-01-2013 00:00:00 6.15417 C 6.34 g/m*3 4.68 C 7.27049 km/h
1581 09-01-2013 00:00:00 4.72465 C 5.87 g/m*3 3 C 7.30729 km/h
1582 10-01-2013 00:00:00 4.44028 C 5.94 g/m*3 4.44 C 4.41563 km/h
1583 11-01-2013 00:00:00 1.09201 C 4.23 g/m*3 1.09 C 3.67083 km/h
1584 12-01-2013 00:00:00 -2.64514 C 3.5 g/m*3 -2.65 C 1.35035 km/h
1585 13-01-2013 00:00:00 -3.28368 C 3.21 g/m*3 -3.28 C 2.89653 km/h
1586 14-01-2013 00:00:00 -4.44028 C 3.18 g/m*3 -4.44 C 1.45625 km/h
1587 15-01-2013 00:00:00 -2.1941 C 3.71 g/m*3 -2.19 C 1.91424 km/h
1588 16-01-2013 00:00:00 -2.65521 C 3.62 g/m*3 -2.66 C 2.82674 km/h
1589 17-01-2013 00:00:00 -2.48542 C 3.6 g/m*3 -4.86 C 5.93854 km/h
1590 18-01-2013 00:00:00 -1.70729 C 3.7 g/m*3 -1.71 C 2.83785 km/h
1591 19-01-2013 00:00:00 -2.39375 C 3.33 g/m*3 -5.12 C 6.83021 km/h
1592 20-01-2013 00:00:00 -3.06146 C 3.42 g/m*3 -5.32 C 5.52014 km/h
1593 21-01-2013 00:00:00 -0.75938 C 4.25 g/m*3 -0.76 C 0.61111 km/h
1594 22-01-2013 00:00:00 -1.20382 C 4.09 g/m*3 -1.2 C 1.26667 km/h
1595 23-01-2013 00:00:00 -1.0566 C 4.13 g/m*3 -1.06 C 0.42222 km/h
1596 24-01-2013 00:00:00 -2.40833 C 3.53 g/m*3 -2.41 C 2.43021 km/h
1597 25-01-2013 00:00:00 -2.18368 C 3.5 g/m*3 -2.18 C 2.03056 km/h
1598 26-01-2013 00:00:00 -1.99549 C 3.56 g/m*3 -2 C 4.54028 km/h
1599 27-01-2013 00:00:00 2.22882 C 4.98 g/m*3 -0.2 C 8.26007 km/h
1600 28-01-2013 00:00:00 3.96389 C 5.56 g/m*3 1.79 C 8.49444 km/h
Sensor: Nr:Datum:Temp:Abs-Feuchte:Windchill:Wind:
Aussen-T/F 1601 29-01-2013 00:00:00 9.00868 C 7.7 g/m*3 6.03 C 20.92743 km/h
1602 30-01-2013 00:00:00 11.32361 C 8.43 g/m*3 11.32 C 18.11458 km/h
1603 31-01-2013 00:00:00 7.765 C 6.15 g/m*3 4.97 C 16.45909 km/h
1604 01-02-2013 00:00:00 6.26378 C 6.79 g/m*3 4.91 C 6.90236 km/h
1605 02-02-2013 00:00:00 3.24097 C 5.3 g/m*3 1.07 C 7.99201 km/h
1606 03-02-2013 00:00:00 3.41458 C 5.15 g/m*3 0.11 C 13.16319 km/h
1607 04-02-2013 00:00:00 5.84792 C 6.43 g/m*3 3.09 C 13.14201 km/h
1608 05-02-2013 00:00:00 4.44583 C 5.17 g/m*3 1.42 C 12.87951 km/h
1609 06-02-2013 00:00:00 1.58819 C 4.94 g/m*3 1.59 C 3.79479 km/h
1610 07-02-2013 00:00:00 1.88576 C 4.99 g/m*3 0.5 C 5.12014 km/h
1611 08-02-2013 00:00:00 0.56424 C 4.61 g/m*3 0.56 C 3.95035 km/h
1612 09-02-2013 00:00:00 -0.7941 C 4.06 g/m*3 -0.79 C 1.88576 km/h
1613 10-02-2013 00:00:00 -1.98681 C 3.49 g/m*3 -1.99 C 3.66701 km/h
1614 11-02-2013 00:00:00 -0.9316 C 3.22 g/m*3 -3.01 C 5.80868 km/h
1615 12-02-2013 00:00:00 -0.84618 C 3.3 g/m*3 -2.75 C 5.42778 km/h
1616 13-02-2013 00:00:00 -0.98125 C 3.33 g/m*3 -0.98 C 1.83924 km/h
1617 14-02-2013 00:00:00 -2.40382 C 3.43 g/m*3 -2.4 C 1.51736 km/h
1618 15-02-2013 00:00:00 0.91806 C 4.82 g/m*3 0.92 C 1.25625 km/h
1619 16-02-2013 00:00:00 2.92847 C 5.66 g/m*3 2.93 C 2.14479 km/h
1620 17-02-2013 00:00:00 2.97465 C 5.51 g/m*3 2.97 C 1.93715 km/h
1621 18-02-2013 00:00:00 0.52847 C 4.51 g/m*3 0.53 C 1.4066 km/h
1622 19-02-2013 00:00:00 0.79306 C 4.7 g/m*3 0.79 C 2.49583 km/h
1623 20-02-2013 00:00:00 0.4316 C 3.97 g/m*3 0.43 C 4.04931 km/h
1624 21-02-2013 00:00:00 -1.21979 C 3.42 g/m*3 -3.12 C 5.30104 km/h
1625 22-02-2013 00:00:00 -2.3066 C 3.01 g/m*3 -5.81 C 9.10521 km/h
Sensor: Nr:Datum:Temp:Abs-Feuchte:Windchill:Wind:
Aussen-T/F 1626 23-02-2013 00:00:00 -2.80139 C 3.42 g/m*3 -5.68 C 7.05833 km/h
1627 24-02-2013 00:00:00 -0.43958 C 4.27 g/m*3 -0.44 C 1.54444 km/h
1628 25-02-2013 00:00:00 0.88785 C 4.94 g/m*3 0.89 C 0.58333 km/h
1629 26-02-2013 00:00:00 2.31215 C 5.36 g/m*3 2.31 C 2.66389 km/h
1630 27-02-2013 00:00:00 1.69271 C 4.88 g/m*3 0.12 C 5.50451 km/h
1631 28-02-2013 00:00:00 2.41771 C 5.05 g/m*3 2.42 C 1.77847 km/h
1632 01-03-2013 00:00:00 2.75278 C 4.84 g/m*3 1.23 C 5.76181 km/h
1633 02-03-2013 00:00:00 2.60208 C 4.36 g/m*3 2.6 C 3.85451 km/h
1634 03-03-2013 00:00:00 1.90104 C 4.65 g/m*3 1.9 C 2.56319 km/h
1635 04-03-2013 00:00:00 1.8934 C 4.55 g/m*3 1.89 C 2.53299 km/h
1636 05-03-2013 00:00:00 2.56979 C 4.84 g/m*3 2.57 C 1.66806 km/h
1637 06-03-2013 00:00:00 5.45035 C 5.46 g/m*3 5.45 C 1.99132 km/h
1638 07-03-2013 00:00:00 8.96146 C 6.98 g/m*3 8.96 C 1.86111 km/h
1639 08-03-2013 00:00:00 10.92049 C 8.36 g/m*3 10.92 C 2.84097 km/h
1640 09-03-2013 00:00:00 10.42118 C 8.16 g/m*3 9.66 C 7.26875 km/h
1641 10-03-2013 00:00:00 3.88611 C 5.72 g/m*3 1.99 C 7.40486 km/h
1642 11-03-2013 00:00:00 -0.5191 C 4.16 g/m*3 -3.22 C 7.61493 km/h
1643 12-03-2013 00:00:00 -2.72153 C 3.62 g/m*3 -6.29 C 9.08611 km/h
1644 13-03-2013 00:00:00 -2.95907 C 3.2 g/m*3 -2.96 C 3.44164 km/h
1645 14-03-2013 00:00:00 -1.88944 C 3.66 g/m*3 -1.89 C 4.83803 km/h
1646 15-03-2013 00:00:00 -2.50139 C 3.23 g/m*3 -2.5 C 3.97569 km/h
1647 16-03-2013 00:00:00 2.40938 C 3.77 g/m*3 1.08 C 5.14097 km/h
1648 17-03-2013 00:00:00 3.22014 C 5.2 g/m*3 1.79 C 5.6934 km/h
1649 18-03-2013 00:00:00 4.14479 C 5.29 g/m*3 4.14 C 2.925 km/h
1650 19-03-2013 00:00:00 4.10313 C 5.3 g/m*3 2.37 C 6.99549 km/h
Sensor: Nr:Datum:Temp:Abs-Feuchte:Windchill:Wind:
Aussen-T/F 1651 20-03-2013 00:00:00 3.59201 C 5.62 g/m*3 2.05 C 6.15208 km/h
1652 21-03-2013 00:00:00 1.33993 C 4.61 g/m*3 1.34 C 3.61701 km/h
1653 22-03-2013 00:00:00 1.7441 C 4.27 g/m*3 -0.36 C 6.95208 km/h
1654 23-03-2013 00:00:00 1.46875 C 3.61 g/m*3 -1.64 C 10.31771 km/h
1655 24-03-2013 00:00:00 0.48854 C 2.55 g/m*3 -3.16 C 11.78299 km/h
1656 25-03-2013 00:00:00 0.18681 C 2.77 g/m*3 -3.31 C 10.87153 km/h
1657 26-03-2013 00:00:00 0.3309 C 2.72 g/m*3 -2.84 C 9.68924 km/h
1658 27-03-2013 00:00:00 1.19896 C 3.02 g/m*3 -0.78 C 6.36007 km/h
1659 28-03-2013 00:00:00 2.07639 C 3.83 g/m*3 2.08 C 4.95278 km/h
1660 29-03-2013 00:00:00 0.53715 C 4.37 g/m*3 0.54 C 2.69028 km/h
1661 30-03-2013 00:00:00 1.50903 C 4.04 g/m*3 0.09 C 5.07465 km/h
1662 31-03-2013 00:00:00 1.17246 C 4.09 g/m*3 1.17 C 3.63333 km/h
1663 01-04-2013 00:00:00 1.44201 C 3.69 g/m*3 -0.59 C 6.61632 km/h
1664 02-04-2013 00:00:00 2.12708 C 3.49 g/m*3 -0.4 C 8.57292 km/h
1665 03-04-2013 00:00:00 1.88194 C 3.86 g/m*3 -0.19 C 6.91979 km/h
1666 04-04-2013 00:00:00 3.97465 C 4.17 g/m*3 1.28 C 10.69167 km/h
1667 05-04-2013 00:00:00 2.45382 C 4.32 g/m*3 0.51 C 6.82708 km/h
1668 06-04-2013 00:00:00 3.55104 C 5.15 g/m*3 3.55 C 3.75382 km/h
1669 07-04-2013 00:00:00 3.40382 C 4.38 g/m*3 3.4 C 3.99861 km/h
1670 08-04-2013 00:00:00 4.46979 C 4.7 g/m*3 4.47 C 4.01528 km/h
1671 09-04-2013 00:00:00 5.89479 C 6.41 g/m*3 5.89 C 2.88368 km/h
1672 10-04-2013 00:00:00 8.34653 C 7.31 g/m*3 7.21 C 7.39444 km/h
1673 11-04-2013 00:00:00 12.25972 C 8.26 g/m*3 12.26 C 8.69375 km/h
1674 12-04-2013 00:00:00 10.42708 C 8.11 g/m*3 9.5 C 8.04653 km/h
1675 13-04-2013 00:00:00 11.30243 C 7.19 g/m*3 11.3 C 13.14965 km/h
Sensor: Nr:Datum:Temp:Abs-Feuchte:Windchill:Wind:
Aussen-T/F 1676 14-04-2013 00:00:00 15.49271 C 9.19 g/m*3 15.49 C 5.00903 km/h
1677 15-04-2013 00:00:00 15.52118 C 9.73 g/m*3 15.52 C 3.96319 km/h
1678 16-04-2013 00:00:00 16.01215 C 10.01 g/m*3 16.01 C 6.64722 km/h
1679 17-04-2013 00:00:00 17.14167 C 9.47 g/m*3 17.14 C 4.36944 km/h
1680 18-04-2013 00:00:00 15.57153 C 8.25 g/m*3 15.57 C 8.59063 km/h
1681 19-04-2013 00:00:00 11.46389 C 5.86 g/m*3 11.46 C 7.37882 km/h
1682 20-04-2013 00:00:00 10.16944 C 5.86 g/m*3 9.12 C 8.41042 km/h
1683 21-04-2013 00:00:00 10.71389 C 5.87 g/m*3 10.71 C 3.64271 km/h
1684 22-04-2013 00:00:00 12.26562 C 6.5 g/m*3 12.27 C 4.57917 km/h
1685 23-04-2013 00:00:00 12.48924 C 6.91 g/m*3 12.49 C 7.44097 km/h
1686 24-04-2013 00:00:00 14.60278 C 8.68 g/m*3 14.6 C 5.08125 km/h
1687 25-04-2013 00:00:00 17.28958 C 9.5 g/m*3 17.29 C 3.36458 km/h
1688 26-04-2013 00:00:00 12.59896 C 9.36 g/m*3 12.6 C 4.20139 km/h
1689 27-04-2013 00:00:00 6.70972 C 6.74 g/m*3 5.37 C 7.12465 km/h
1690 28-04-2013 00:00:00 7.57118 C 6.7 g/m*3 7.57 C 3.89444 km/h
1691 29-04-2013 00:00:00 11.20139 C 6.8 g/m*3 11.2 C 7.63854 km/h
1692 30-04-2013 00:00:00 9.40104 C 7.1 g/m*3 9.4 C 3.25451 km/h
1693 01-05-2013 00:00:00 12.25 C 8.67 g/m*3 12.25 C 4.65035 km/h
1694 02-05-2013 00:00:00 15.26458 C 9.35 g/m*3 15.26 C 4.47986 km/h
1695 03-05-2013 00:00:00 14.28056 C 9.43 g/m*3 14.28 C 2.45799 km/h
1696 04-05-2013 00:00:00 15.30521 C 8.94 g/m*3 15.31 C 3.60069 km/h
1697 05-05-2013 00:00:00 14.71458 C 8.45 g/m*3 14.71 C 3.03507 km/h
1698 06-05-2013 00:00:00 15.4691 C 9.25 g/m*3 15.47 C 2.82361 km/h
1699 07-05-2013 00:00:00 14.47708 C 10.71 g/m*3 14.48 C 2.22049 km/h
1700 08-05-2013 00:00:00 15.69062 C 10.79 g/m*3 15.69 C 3.63333 km/h
Sensor: Nr:Datum:Temp:Abs-Feuchte:Windchill:Wind:
Aussen-T/F 1701 09-05-2013 00:00:00 16.1566 C 10.9 g/m*3 16.16 C 5.21563 km/h
1702 10-05-2013 00:00:00 13.28785 C 8.13 g/m*3 13.29 C 6.80694 km/h
1703 11-05-2013 00:00:00 12.72431 C 8.91 g/m*3 12.72 C 5.17951 km/h
1704 12-05-2013 00:00:00 9.44583 C 7.91 g/m*3 9.45 C 4.46875 km/h
1705 13-05-2013 00:00:00 11.19688 C 8.85 g/m*3 11.2 C 7.28785 km/h
1706 14-05-2013 00:00:00 12.63125 C 9.02 g/m*3 12.63 C 4.77813 km/h
1707 15-05-2013 00:00:00 13.05694 C 9.61 g/m*3 13.06 C 4.07951 km/h
1708 16-05-2013 00:00:00 13.25521 C 10.72 g/m*3 13.26 C 0.89444 km/h
1709 17-05-2013 00:00:00 10.33125 C 9.02 g/m*3 10.33 C 4.30556 km/h
1710 18-05-2013 00:00:00 13.12118 C 9.52 g/m*3 13.12 C 3.43924 km/h
1711 19-05-2013 00:00:00 13.29792 C 9.73 g/m*3 13.3 C 5.52708 km/h
1712 20-05-2013 00:00:00 10.92014 C 9.13 g/m*3 10.56 C 5.88333 km/h
1713 21-05-2013 00:00:00 12.35104 C 9.37 g/m*3 12.35 C 3.74375 km/h
1714 22-05-2013 00:00:00 9.34444 C 7.87 g/m*3 8.02 C 9.05382 km/h
1715 23-05-2013 00:00:00 7.90764 C 7.05 g/m*3 7.25 C 5.40729 km/h
1716 24-05-2013 00:00:00 7.60521 C 6.36 g/m*3 7.61 C 3.47014 km/h
1717 25-05-2013 00:00:00 8.39687 C 6.76 g/m*3 7.79 C 5.44514 km/h
1718 26-05-2013 00:00:00 8.03611 C 7.76 g/m*3 8.04 C 3.64861 km/h
1719 27-05-2013 00:00:00 12.39201 C 8.39 g/m*3 12.39 C 3.55069 km/h
1720 28-05-2013 00:00:00 13.87465 C 8.99 g/m*3 13.87 C 3.74063 km/h
1721 29-05-2013 00:00:00 10.21285 C 8.83 g/m*3 10.21 C 3.26944 km/h
1722 30-05-2013 00:00:00 11.70208 C 8.42 g/m*3 11.7 C 3.37917 km/h
1723 31-05-2013 00:00:00 13.19792 C 10.37 g/m*3 13.2 C 7.0059 km/h
1724 01-06-2013 00:00:00 12.09549 C 9.43 g/m*3 12.1 C 10.35764 km/h
1725 02-06-2013 00:00:00 13.08125 C 7.56 g/m*3 13.08 C 12.00382 km/h
Sensor: Nr:Datum:Temp:Abs-Feuchte:Windchill:Wind:
Aussen-T/F 1726 03-06-2013 00:00:00 12.7375 C 7.18 g/m*3 12.74 C 8.43194 km/h
1727 04-06-2013 00:00:00 13.85833 C 8.65 g/m*3 13.86 C 5.10764 km/h
1728 05-06-2013 00:00:00 16.28889 C 10.86 g/m*3 16.29 C 2.27986 km/h
1729 06-06-2013 00:00:00 18.00868 C 10.5 g/m*3 18.01 C 2.87396 km/h
1730 07-06-2013 00:00:00 18.14826 C 11.07 g/m*3 18.15 C 1.74549 km/h
1731 08-06-2013 00:00:00 18.53125 C 12.53 g/m*3 18.53 C 1.57326 km/h
1732 09-06-2013 00:00:00 15.18819 C 11.62 g/m*3 15.19 C 2.2816 km/h
1733 10-06-2013 00:00:00 12.77396 C 10.58 g/m*3 12.77 C 4.17083 km/h
1734 11-06-2013 00:00:00 15.40451 C 11.14 g/m*3 15.4 C 2.71146 km/h
1735 12-06-2013 00:00:00 17.48576 C 12.43 g/m*3 17.49 C 2.83299 km/h
1736 13-06-2013 00:00:00 18.45313 C 13.42 g/m*3 18.45 C 3.90278 km/h
1737 14-06-2013 00:00:00 14.47917 C 9.72 g/m*3 14.48 C 6.08194 km/h
1738 15-06-2013 00:00:00 15.22674 C 10.14 g/m*3 15.23 C 5.81354 km/h
1739 16-06-2013 00:00:00 16.60104 C 10.02 g/m*3 16.6 C 5.39375 km/h
1740 17-06-2013 00:00:00 20.99236 C 13.54 g/m*3 20.99 C 3.2 km/h
1741 18-06-2013 00:00:00 23.88576 C 16.97 g/m*3 23.89 C 1.68507 km/h
1742 19-06-2013 00:00:00 24.9691 C 18.47 g/m*3 24.97 C 2.67118 km/h
1743 20-06-2013 00:00:00 21.63299 C 15.9 g/m*3 21.63 C 5.68993 km/h
1744 21-06-2013 00:00:00 17.72778 C 12.04 g/m*3 17.73 C 8.48299 km/h
1745 22-06-2013 00:00:00 18.08576 C 11.57 g/m*3 18.09 C 8.33889 km/h
1746 23-06-2013 00:00:00 16.03403 C 10.59 g/m*3 16.03 C 10.375 km/h
1747 24-06-2013 00:00:00 14.4184 C 9.99 g/m*3 14.42 C 5.46979 km/h
1748 25-06-2013 00:00:00 13.24861 C 9.35 g/m*3 13.25 C 6.19236 km/h
1749 26-06-2013 00:00:00 12.21597 C 8.52 g/m*3 12.22 C 3.56667 km/h
1750 27-06-2013 00:00:00 12.77257 C 9.57 g/m*3 12.77 C 2.62292 km/h
Sensor: Nr:Datum:Temp:Abs-Feuchte:Windchill:Wind:
Aussen-T/F 1751 28-06-2013 00:00:00 12.51979 C 9.86 g/m*3 12.52 C 1.45417 km/h
1752 29-06-2013 00:00:00 15.31319 C 10.91 g/m*3 15.31 C 7.98785 km/h
1753 30-06-2013 00:00:00 14.36458 C 9.62 g/m*3 14.36 C 3.13125 km/h
1754 01-07-2013 00:00:00 18.46319 C 11.82 g/m*3 18.46 C 6.21563 km/h
1755 02-07-2013 00:00:00 18.88542 C 12.37 g/m*3 18.89 C 4.67674 km/h
1756 03-07-2013 00:00:00 17.18993 C 13.62 g/m*3 17.19 C 2.34757 km/h
1757 04-07-2013 00:00:00 18.03542 C 13.46 g/m*3 18.04 C 2.06667 km/h
1758 05-07-2013 00:00:00 19.17361 C 13.32 g/m*3 19.17 C 3.22257 km/h
1759 06-07-2013 00:00:00 19.30833 C 13.5 g/m*3 19.31 C 2.03646 km/h
1760 07-07-2013 00:00:00 20.55243 C 13.3 g/m*3 20.55 C 2.6066 km/h
1761 08-07-2013 00:00:00 20.53924 C 12.83 g/m*3 20.54 C 3.18889 km/h
1762 09-07-2013 00:00:00 20.80694 C 13.34 g/m*3 20.81 C 2.50417 km/h
1763 10-07-2013 00:00:00 20.12292 C 12.59 g/m*3 20.12 C 6.32708 km/h
1764 11-07-2013 00:00:00 17.10417 C 10.11 g/m*3 17.1 C 7.77361 km/h
1765 12-07-2013 00:00:00 16.90868 C 10.6 g/m*3 16.91 C 4.06806 km/h
1766 13-07-2013 00:00:00 17.26424 C 10.92 g/m*3 17.26 C 4.13056 km/h
1767 14-07-2013 00:00:00 18.30139 C 11.62 g/m*3 18.3 C 4.51667 km/h
1768 15-07-2013 00:00:00 18.85486 C 12.17 g/m*3 18.85 C 2.14375 km/h
1769 16-07-2013 00:00:00 20.18438 C 12.59 g/m*3 20.18 C 2.36528 km/h
1770 17-07-2013 00:00:00 20.29896 C 13.11 g/m*3 20.3 C 1.67361 km/h
1771 18-07-2013 00:00:00 21.84757 C 13.41 g/m*3 21.85 C 3.04896 km/h
1772 19-07-2013 00:00:00 22.12674 C 13.12 g/m*3 22.13 C 4.28438 km/h
1773 20-07-2013 00:00:00 21.31076 C 12.97 g/m*3 21.31 C 3.21632 km/h
1774 21-07-2013 00:00:00 22.30521 C 13.63 g/m*3 22.31 C 2.53507 km/h
1775 22-07-2013 00:00:00 22.41562 C 13.99 g/m*3 22.42 C 1.1625 km/h
Sensor: Nr:Datum:Temp:Abs-Feuchte:Windchill:Wind:
Aussen-T/F 1776 23-07-2013 00:00:00 21.37396 C 16.19 g/m*3 21.37 C 1.17778 km/h
1777 24-07-2013 00:00:00 21.35972 C 14.98 g/m*3 21.36 C 2.76215 km/h
1778 25-07-2013 00:00:00 20.88542 C 15.71 g/m*3 20.89 C 2.75972 km/h
1779 26-07-2013 00:00:00 21.25729 C 17.68 g/m*3 21.26 C 0.35069 km/h
1780 27-07-2013 00:00:00 23.54236 C 17.99 g/m*3 23.54 C 1.32257 km/h
1781 28-07-2013 00:00:00 21.69965 C 15.72 g/m*3 21.7 C 2.70243 km/h
1782 29-07-2013 00:00:00 19.41007 C 14.76 g/m*3 19.41 C 2.68819 km/h
1783 30-07-2013 00:00:00 18.99028 C 12.87 g/m*3 18.99 C 7.63472 km/h
1784 31-07-2013 00:00:00 20.83715 C 13.69 g/m*3 20.84 C 6.94861 km/h
1785 01-08-2013 00:00:00 21.89653 C 14.48 g/m*3 21.9 C 2.16528 km/h
1786 02-08-2013 00:00:00 23.37049 C 15.2 g/m*3 23.37 C 1.39965 km/h
1787 03-08-2013 00:00:00 21.1934 C 15.86 g/m*3 21.19 C 2.96806 km/h
1788 04-08-2013 00:00:00 19.79549 C 13.33 g/m*3 19.8 C 1.96215 km/h
1789 05-08-2013 00:00:00 20.42639 C 13.99 g/m*3 20.43 C 1.52743 km/h
1790 06-08-2013 00:00:00 19.98646 C 15.18 g/m*3 19.99 C 1.09167 km/h
1791 07-08-2013 00:00:00 18.91562 C 14.85 g/m*3 18.92 C 1.53299 km/h
1792 08-08-2013 00:00:00 16.92118 C 12.43 g/m*3 16.92 C 3.85278 km/h
1793 09-08-2013 00:00:00 16.41597 C 12.03 g/m*3 16.42 C 1.0059 km/h
1794 10-08-2013 00:00:00 18.10764 C 11.49 g/m*3 18.11 C 5.9184 km/h
1795 11-08-2013 00:00:00 16.80278 C 9.89 g/m*3 16.8 C 1.95069 km/h
1796 12-08-2013 00:00:00 15.88229 C 11.31 g/m*3 15.88 C 2.28889 km/h
1797 13-08-2013 00:00:00 15.61319 C 10.88 g/m*3 15.61 C 3.40556 km/h
1798 14-08-2013 00:00:00 14.4559 C 10.12 g/m*3 14.46 C 1.75868 km/h
1799 15-08-2013 00:00:00 16.30035 C 10.81 g/m*3 16.3 C 2.31493 km/h
1800 16-08-2013 00:00:00 17.96319 C 11.55 g/m*3 17.96 C 1.35556 km/h
Sensor: Nr:Datum:Temp:Abs-Feuchte:Windchill:Wind:
Aussen-T/F 1801 17-08-2013 00:00:00 20.47965 C 12.53 g/m*3 20.48 C 4.24526 km/h
1802 18-08-2013 00:00:00 19.29614 C 13.67 g/m*3 19.3 C 3.05719 km/h
1803 19-08-2013 00:00:00 17.75764 C 12.15 g/m*3 17.76 C 5.06181 km/h
1804 20-08-2013 00:00:00 14.96458 C 10.19 g/m*3 14.96 C 2.29271 km/h
1805 21-08-2013 00:00:00 15.16285 C 10.59 g/m*3 15.16 C 1.31319 km/h
1806 22-08-2013 00:00:00 16.33576 C 11.62 g/m*3 16.34 C 0.65174 km/h
1807 23-08-2013 00:00:00 18.61667 C 12.23 g/m*3 18.62 C 1.88576 km/h
1808 24-08-2013 00:00:00 16.10208 C 12.3 g/m*3 16.1 C 0.76215 km/h
1809 25-08-2013 00:00:00 16.06806 C 13.03 g/m*3 16.07 C 1.65278 km/h
1810 26-08-2013 00:00:00 15.16806 C 12.51 g/m*3 15.17 C 0.49653 km/h
1811 27-08-2013 00:00:00 15.88472 C 12.17 g/m*3 15.88 C 0.52326 km/h
1812 28-08-2013 00:00:00 15.65312 C 11.67 g/m*3 15.65 C 0.80104 km/h
1813 29-08-2013 00:00:00 14.74062 C 11.39 g/m*3 14.74 C 0.5566 km/h
1814 30-08-2013 00:00:00 15.73924 C 11.78 g/m*3 15.74 C 0.6184 km/h
1815 31-08-2013 00:00:00 16.33229 C 12 g/m*3 16.33 C 2.64583 km/h
1816 01-09-2013 00:00:00 14.50938 C 9.15 g/m*3 14.51 C 3.89063 km/h
1817 02-09-2013 00:00:00 17.48924 C 10.42 g/m*3 17.49 C 5.84549 km/h
1818 03-09-2013 00:00:00 18.08299 C 12.45 g/m*3 18.08 C 2.6309 km/h
1819 04-09-2013 00:00:00 17.74583 C 12.89 g/m*3 17.75 C 1.16979 km/h
1820 05-09-2013 00:00:00 18.47349 C 13.35 g/m*3 18.47 C 2.29116 km/h
1821 06-09-2013 00:00:00 22.68615 C 15 g/m*3 22.69 C 1.85333 km/h
1822 07-09-2013 00:00:00 18.36354 C 14.36 g/m*3 18.36 C 1.44931 km/h
1823 08-09-2013 00:00:00 14.78542 C 11.89 g/m*3 14.79 C 3.23819 km/h

Maximal/Minimal-Werte vom 09.09.2008 - 08.09.2013

Sensor Min Max Avg
Temp
(Aussen-T/F)
-16.4 °C
20-12-2009  01:30:01
36.9 °C
19-08-2012  16:30:00
10.52 °C
Abs-Feuchte
(Aussen-T/F)
1.12 g/m*3
19-12-2009  00:00:00
18.47 g/m*3
19-06-2013  00:00:00
7.38 g/m*3
Windchill
(Aussen-T/F)
-12.79 C
19-12-2009  00:00:00
29.26 C
10-07-2010  00:00:00
10.38 C

Die Daten stammen von einer Davis Vantage Pro 2 Wetter-Station und werden unter Linux mit der Software wview2wettercgi und aufbereitet. Alle Angaben erfolgen ohne Gewähr für ihre Vollständigkeit oder Richtigkeit.
Kontakt: Rainer Krienke krienke@uni-koblenz.de . Meine Webseiten an der Uni Koblenz oder privat.
Version: $Revision: 0.78 $